PWSweather.com
Personal Weather Stations
Station Observations
SKYDIVEKS
Skydive Kansas, Osage City, KS 66523

Skydive KansasOsage City, KS 66523

Lat: 38.636, Lon: -95.803

Elevation: 1080

Station Type: La Crosse

http://www.skydivekansas.com

Latest ConditionsUpdated 8:40:00 PM CDT Thursday, Jul 31, 2014
Currently Today's Max Today's Min Today's Average
Temperature 83.5°F28.6°C 94.6°F34.8°C 83.5°F28.6°C 89.4°F31.9°C
Dew Point 58.6°F14.8°C 60.1°F15.6°C 56.9°F13.8°C 58.5°F14.7°C
Winds Calm Calm 3.1 mph SSW5.0 kmh SSW - 0.3 mph 0.5 kmh
Wind Gusts -- 5.1 mph8.2 kmh - -
Humidity 43% 43% 32% 36%
Pressure 28.99 in981.7 mb 29.00 in982.1 mb 28.99 in981.7 mb -
Hour Temp Dew Point Humidity Winds Wind Gusts Pressure Precip Precip Rate Daily Precip Total
06:59 PM 94.6°F34.8°C 60.1°F15.6°C 32% Calm Calm -- 29.00 in982.1 mb 0.00 in0.0 mm 0.00 in/hr0.0 mm/hr 0.00 in0.0 mm
06:58 PM 94.8°F34.9°C 60.3°F15.7°C 32% Calm Calm -- 29.00 in982.1 mb 0.00 in0.0 mm 0.00 in/hr0.0 mm/hr 0.00 in0.0 mm
06:57 PM 94.8°F34.9°C 60.3°F15.7°C 32% Calm Calm -- 29.00 in982.1 mb 0.00 in0.0 mm 0.00 in/hr0.0 mm/hr 0.00 in0.0 mm
06:56 PM 94.8°F34.9°C 60.3°F15.7°C 32% Calm Calm -- 29.00 in982.1 mb 0.00 in0.0 mm 0.00 in/hr0.0 mm/hr 0.00 in0.0 mm
06:55 PM 94.8°F34.9°C 60.3°F15.7°C 32% Calm Calm -- 29.00 in982.1 mb 0.00 in0.0 mm 0.00 in/hr0.0 mm/hr 0.00 in0.0 mm
06:54 PM 94.8°F34.9°C 60.3°F15.7°C 32% Calm Calm -- 29.00 in982.1 mb 0.00 in0.0 mm 0.00 in/hr0.0 mm/hr 0.00 in0.0 mm
06:53 PM 94.8°F34.9°C 60.3°F15.7°C 32% Calm Calm -- 28.99 in981.7 mb 0.00 in0.0 mm 0.00 in/hr0.0 mm/hr 0.00 in0.0 mm
06:52 PM 94.8°F34.9°C 60.3°F15.7°C 32% Calm Calm -- 29.00 in982.1 mb 0.00 in0.0 mm 0.00 in/hr0.0 mm/hr 0.00 in0.0 mm
06:51 PM 94.8°F34.9°C 60.3°F15.7°C 32% Calm Calm -- 29.00 in982.1 mb 0.00 in0.0 mm 0.00 in/hr0.0 mm/hr 0.00 in0.0 mm
06:50 PM 94.8°F34.9°C 60.3°F15.7°C 32% Calm Calm -- 29.00 in982.1 mb 0.00 in0.0 mm 0.00 in/hr0.0 mm/hr 0.00 in0.0 mm
06:49 PM 94.8°F34.9°C 60.3°F15.7°C 32% Calm Calm -- 28.99 in981.7 mb 0.00 in0.0 mm 0.00 in/hr0.0 mm/hr 0.00 in0.0 mm
06:48 PM 94.8°F34.9°C 60.3°F15.7°C 32% Calm Calm -- 28.99 in981.7 mb 0.00 in0.0 mm 0.00 in/hr0.0 mm/hr 0.00 in0.0 mm
06:47 PM 94.8°F34.9°C 60.3°F15.7°C 32% Calm Calm 2.0 mph3.2 kmh 29.00 in982.1 mb 0.00 in0.0 mm 0.00 in/hr0.0 mm/hr 0.00 in0.0 mm
06:46 PM 94.8°F34.9°C 60.3°F15.7°C 32% Calm Calm 2.9 mph4.7 kmh 29.00 in982.1 mb 0.00 in0.0 mm 0.00 in/hr0.0 mm/hr 0.00 in0.0 mm
06:45 PM 94.8°F34.9°C 60.3°F15.7°C 32% Calm Calm 2.9 mph4.7 kmh 28.99 in981.7 mb 0.00 in0.0 mm 0.00 in/hr0.0 mm/hr 0.00 in0.0 mm
06:44 PM 95.0°F35.0°C 60.4°F15.8°C 32% Calm Calm 3.6 mph5.8 kmh 28.99 in981.7 mb 0.00 in0.0 mm 0.00 in/hr0.0 mm/hr 0.00 in0.0 mm
06:43 PM 95.2°F35.1°C 60.6°F15.9°C 32% Calm Calm 3.6 mph5.8 kmh 28.99 in981.7 mb 0.00 in0.0 mm 0.00 in/hr0.0 mm/hr 0.00 in0.0 mm
06:42 PM 95.2°F35.1°C 60.6°F15.9°C 32% Calm Calm 3.6 mph5.8 kmh 28.99 in981.7 mb 0.00 in0.0 mm 0.00 in/hr0.0 mm/hr 0.00 in0.0 mm
06:41 PM 95.4°F35.2°C 60.7°F15.9°C 32% Calm Calm 3.6 mph5.8 kmh 29.00 in982.1 mb 0.00 in0.0 mm 0.00 in/hr0.0 mm/hr 0.00 in0.0 mm
06:40 PM 95.4°F35.2°C 60.7°F15.9°C 32% Calm Calm 3.6 mph5.8 kmh 28.99 in981.7 mb 0.00 in0.0 mm 0.00 in/hr0.0 mm/hr 0.00 in0.0 mm
06:39 PM 95.5°F35.3°C 60.1°F15.6°C 31% Calm Calm 3.6 mph5.8 kmh 28.99 in981.7 mb 0.00 in0.0 mm 0.00 in/hr0.0 mm/hr 0.00 in0.0 mm
06:38 PM 95.5°F35.3°C 60.9°F16.1°C 32% Calm Calm 3.6 mph5.8 kmh 28.99 in981.7 mb 0.00 in0.0 mm 0.00 in/hr0.0 mm/hr 0.00 in0.0 mm
06:37 PM 95.5°F35.3°C 60.9°F16.1°C 32% Calm Calm 3.6 mph5.8 kmh 28.99 in981.7 mb 0.00 in0.0 mm 0.00 in/hr0.0 mm/hr 0.00 in0.0 mm
06:36 PM 95.5°F35.3°C 60.1°F15.6°C 31% 1.1 mph WSW1.8 kmh WSW 3.6 mph5.8 kmh 28.99 in981.7 mb 0.00 in0.0 mm 0.00 in/hr0.0 mm/hr 0.00 in0.0 mm
06:35 PM 95.5°F35.3°C 60.1°F15.6°C 31% 2.0 mph WSW3.2 kmh WSW 3.6 mph5.8 kmh 28.99 in981.7 mb 0.00 in0.0 mm 0.00 in/hr0.0 mm/hr 0.00 in0.0 mm
06:34 PM 95.5°F35.3°C 60.1°F15.6°C 31% 0.7 mph WSW1.1 kmh WSW 2.9 mph4.7 kmh 28.99 in981.7 mb 0.00 in0.0 mm 0.00 in/hr0.0 mm/hr 0.00 in0.0 mm
06:33 PM 95.5°F35.3°C 60.1°F15.6°C 31% Calm Calm 2.0 mph3.2 kmh 28.99 in981.7 mb 0.00 in0.0 mm 0.00 in/hr0.0 mm/hr 0.00 in0.0 mm
06:32 PM 95.5°F35.3°C 60.1°F15.6°C 31% Calm Calm 2.0 mph3.2 kmh 28.99 in981.7 mb 0.00 in0.0 mm 0.00 in/hr0.0 mm/hr 0.00 in0.0 mm
06:31 PM 95.5°F35.3°C 60.9°F16.1°C 32% Calm Calm 2.0 mph3.2 kmh 29.00 in982.1 mb 0.00 in0.0 mm 0.00 in/hr0.0 mm/hr 0.00 in0.0 mm
06:30 PM 95.5°F35.3°C 60.9°F16.1°C 32% Calm Calm 2.0 mph3.2 kmh 28.99 in981.7 mb 0.00 in0.0 mm 0.00 in/hr0.0 mm/hr 0.00 in0.0 mm
06:29 PM 95.5°F35.3°C 60.9°F16.1°C 32% Calm Calm 1.8 mph2.9 kmh 29.00 in982.1 mb 0.00 in0.0 mm 0.00 in/hr0.0 mm/hr 0.00 in0.0 mm
06:28 PM 95.5°F35.3°C 60.1°F15.6°C 31% Calm Calm 1.8 mph2.9 kmh 28.99 in981.7 mb 0.00 in0.0 mm 0.00 in/hr0.0 mm/hr 0.00 in0.0 mm
06:27 PM 95.5°F35.3°C 60.1°F15.6°C 31% Calm Calm 1.8 mph2.9 kmh 28.99 in981.7 mb 0.00 in0.0 mm 0.00 in/hr0.0 mm/hr 0.00 in0.0 mm
06:26 PM 95.5°F35.3°C 60.1°F15.6°C 31% 0.2 mph WSW0.3 kmh WSW 1.8 mph2.9 kmh 28.99 in981.7 mb 0.00 in0.0 mm 0.00 in/hr0.0 mm/hr 0.00 in0.0 mm
06:25 PM 95.4°F35.2°C 59.9°F15.5°C 31% 0.4 mph WSW0.6 kmh WSW 1.8 mph2.9 kmh 28.99 in981.7 mb 0.00 in0.0 mm 0.00 in/hr0.0 mm/hr 0.00 in0.0 mm
06:24 PM 95.4°F35.2°C 59.9°F15.5°C 31% 1.6 mph WSW2.6 kmh WSW 1.6 mph2.6 kmh 28.99 in981.7 mb 0.00 in0.0 mm 0.00 in/hr0.0 mm/hr 0.00 in0.0 mm
06:23 PM 95.4°F35.2°C 59.9°F15.5°C 31% Calm Calm -- 28.99 in981.7 mb 0.00 in0.0 mm 0.00 in/hr0.0 mm/hr 0.00 in0.0 mm
06:22 PM 95.4°F35.2°C 59.9°F15.5°C 31% Calm Calm -- 28.99 in981.7 mb 0.00 in0.0 mm 0.00 in/hr0.0 mm/hr 0.00 in0.0 mm
06:21 PM 95.4°F35.2°C 59.9°F15.5°C 31% Calm Calm -- 28.99 in981.7 mb 0.00 in0.0 mm 0.00 in/hr0.0 mm/hr 0.00 in0.0 mm
06:20 PM 95.2°F35.1°C 59.8°F15.4°C 31% Calm Calm 6.5 mph10.5 kmh 29.00 in982.1 mb 0.00 in0.0 mm 0.00 in/hr0.0 mm/hr 0.00 in0.0 mm
06:19 PM 95.2°F35.1°C 59.8°F15.4°C 31% Calm Calm 6.5 mph10.5 kmh 29.00 in982.1 mb 0.00 in0.0 mm 0.00 in/hr0.0 mm/hr 0.00 in0.0 mm
06:18 PM 95.2°F35.1°C 59.8°F15.4°C 31% Calm Calm 6.5 mph10.5 kmh 28.99 in981.7 mb 0.00 in0.0 mm 0.00 in/hr0.0 mm/hr 0.00 in0.0 mm
06:17 PM 95.2°F35.1°C 59.8°F15.4°C 31% Calm Calm 6.5 mph10.5 kmh 28.99 in981.7 mb 0.00 in0.0 mm 0.00 in/hr0.0 mm/hr 0.00 in0.0 mm
06:16 PM 95.4°F35.2°C 59.9°F15.5°C 31% Calm Calm 6.5 mph10.5 kmh 29.00 in982.1 mb 0.00 in0.0 mm 0.00 in/hr0.0 mm/hr 0.00 in0.0 mm
06:15 PM 95.4°F35.2°C 59.9°F15.5°C 31% Calm Calm 6.5 mph10.5 kmh 28.99 in981.7 mb 0.00 in0.0 mm 0.00 in/hr0.0 mm/hr 0.00 in0.0 mm
06:14 PM 95.5°F35.3°C 59.3°F15.2°C 30% Calm Calm 6.5 mph10.5 kmh 28.99 in981.7 mb 0.00 in0.0 mm 0.00 in/hr0.0 mm/hr 0.00 in0.0 mm
06:13 PM 95.7°F35.4°C 59.4°F15.2°C 30% Calm Calm 6.5 mph10.5 kmh 28.99 in981.7 mb 0.00 in0.0 mm 0.00 in/hr0.0 mm/hr 0.00 in0.0 mm
06:12 PM 96.1°F35.6°C 59.7°F15.4°C 30% Calm Calm 6.5 mph10.5 kmh 28.99 in981.7 mb 0.00 in0.0 mm 0.00 in/hr0.0 mm/hr 0.00 in0.0 mm
06:11 PM 96.3°F35.7°C 59.8°F15.4°C 30% Calm Calm 6.5 mph10.5 kmh 29.00 in982.1 mb 0.00 in0.0 mm 0.00 in/hr0.0 mm/hr 0.00 in0.0 mm
06:10 PM 96.4°F35.8°C 60.0°F15.6°C 30% 1.1 mph WSW1.8 kmh WSW 5.6 mph9.0 kmh 29.00 in982.1 mb 0.00 in0.0 mm 0.00 in/hr0.0 mm/hr 0.00 in0.0 mm
06:09 PM 96.6°F35.9°C 60.1°F15.6°C 30% 1.1 mph WSW1.8 kmh WSW 5.6 mph9.0 kmh 29.00 in982.1 mb 0.00 in0.0 mm 0.00 in/hr0.0 mm/hr 0.00 in0.0 mm
06:08 PM 96.8°F36.0°C 60.3°F15.7°C 30% 2.7 mph WSW4.3 kmh WSW 5.6 mph9.0 kmh 29.00 in982.1 mb 0.00 in0.0 mm 0.00 in/hr0.0 mm/hr 0.00 in0.0 mm
06:07 PM 97.2°F36.2°C 60.6°F15.9°C 30% 5.6 mph WSW9.0 kmh WSW 5.6 mph9.0 kmh 29.00 in982.1 mb 0.00 in0.0 mm 0.00 in/hr0.0 mm/hr 0.00 in0.0 mm
06:06 PM 97.3°F36.3°C 60.7°F15.9°C 30% 1.1 mph WSW1.8 kmh WSW 4.7 mph7.6 kmh 29.00 in982.1 mb 0.00 in0.0 mm 0.00 in/hr0.0 mm/hr 0.00 in0.0 mm
06:05 PM 97.5°F36.4°C 60.9°F16.1°C 30% Calm Calm 4.7 mph7.6 kmh 29.00 in982.1 mb 0.00 in0.0 mm 0.00 in/hr0.0 mm/hr 0.00 in0.0 mm
06:04 PM 97.5°F36.4°C 60.9°F16.1°C 30% Calm Calm 4.7 mph7.6 kmh 29.00 in982.1 mb 0.00 in0.0 mm 0.00 in/hr0.0 mm/hr 0.00 in0.0 mm
06:03 PM 97.9°F36.6°C 61.2°F16.2°C 30% Calm Calm 4.5 mph7.2 kmh 29.00 in982.1 mb 0.00 in0.0 mm 0.00 in/hr0.0 mm/hr 0.00 in0.0 mm
06:02 PM 97.9°F36.6°C 61.2°F16.2°C 30% Calm Calm 4.5 mph7.2 kmh 29.00 in982.1 mb 0.00 in0.0 mm 0.00 in/hr0.0 mm/hr 0.00 in0.0 mm
06:01 PM 97.9°F36.6°C 61.2°F16.2°C 30% 3.1 mph WSW5.0 kmh WSW 4.5 mph7.2 kmh 29.00 in982.1 mb 0.00 in0.0 mm 0.00 in/hr0.0 mm/hr 0.00 in0.0 mm
06:00 PM 98.1°F36.7°C 61.4°F16.3°C 30% Calm Calm 3.6 mph5.8 kmh 29.00 in982.1 mb 0.00 in0.0 mm 0.00 in/hr0.0 mm/hr 0.00 in0.0 mm
05:59 PM 98.1°F36.7°C 62.2°F16.8°C 31% Calm Calm 3.6 mph5.8 kmh 29.00 in982.1 mb 0.00 in0.0 mm 0.00 in/hr0.0 mm/hr 0.00 in0.0 mm
05:58 PM 97.9°F36.6°C 62.1°F16.7°C 31% Calm Calm 3.6 mph5.8 kmh 29.00 in982.1 mb 0.00 in0.0 mm 0.00 in/hr0.0 mm/hr 0.00 in0.0 mm
05:57 PM 97.9°F36.6°C 62.1°F16.7°C 31% Calm Calm 3.6 mph5.8 kmh 29.00 in982.1 mb 0.00 in0.0 mm 0.00 in/hr0.0 mm/hr 0.00 in0.0 mm
05:56 PM 97.7°F36.5°C 61.9°F16.6°C 31% 0.7 mph WSW1.1 kmh WSW 1.6 mph2.6 kmh 29.00 in982.1 mb 0.00 in0.0 mm 0.00 in/hr0.0 mm/hr 0.00 in0.0 mm
05:55 PM 97.5°F36.4°C 61.7°F16.5°C 31% Calm Calm 1.6 mph2.6 kmh 29.00 in982.1 mb 0.00 in0.0 mm 0.00 in/hr0.0 mm/hr 0.00 in0.0 mm
05:54 PM 97.5°F36.4°C 61.7°F16.5°C 31% Calm Calm 1.6 mph2.6 kmh 29.00 in982.1 mb 0.00 in0.0 mm 0.00 in/hr0.0 mm/hr 0.00 in0.0 mm
05:53 PM 97.3°F36.3°C 61.6°F16.4°C 31% Calm Calm -- 29.00 in982.1 mb 0.00 in0.0 mm 0.00 in/hr0.0 mm/hr 0.00 in0.0 mm
05:52 PM 97.3°F36.3°C 61.6°F16.4°C 31% Calm Calm -- 29.00 in982.1 mb 0.00 in0.0 mm 0.00 in/hr0.0 mm/hr 0.00 in0.0 mm
05:51 PM 97.3°F36.3°C 61.6°F16.4°C 31% Calm Calm -- 29.00 in982.1 mb 0.00 in0.0 mm 0.00 in/hr0.0 mm/hr 0.00 in0.0 mm
05:50 PM 97.2°F36.2°C 61.4°F16.3°C 31% Calm Calm -- 29.00 in982.1 mb 0.00 in0.0 mm 0.00 in/hr0.0 mm/hr 0.00 in0.0 mm
05:49 PM 97.0°F36.1°C 61.3°F16.3°C 31% Calm Calm 2.5 mph4.0 kmh 29.00 in982.1 mb 0.00 in0.0 mm 0.00 in/hr0.0 mm/hr 0.00 in0.0 mm
05:48 PM 97.0°F36.1°C 61.3°F16.3°C 31% Calm Calm 2.7 mph4.3 kmh 29.00 in982.1 mb 0.00 in0.0 mm 0.00 in/hr0.0 mm/hr 0.00 in0.0 mm
05:47 PM 96.6°F35.9°C 60.9°F16.1°C 31% Calm Calm 4.3 mph6.9 kmh 29.00 in982.1 mb 0.00 in0.0 mm 0.00 in/hr0.0 mm/hr 0.00 in0.0 mm
05:46 PM 96.6°F35.9°C 60.9°F16.1°C 31% Calm Calm 4.3 mph6.9 kmh 29.00 in982.1 mb 0.00 in0.0 mm 0.00 in/hr0.0 mm/hr 0.00 in0.0 mm
05:45 PM 96.6°F35.9°C 60.9°F16.1°C 31% Calm Calm 4.3 mph6.9 kmh 29.00 in982.1 mb 0.00 in0.0 mm 0.00 in/hr0.0 mm/hr 0.00 in0.0 mm
05:44 PM 96.6°F35.9°C 60.9°F16.1°C 31% Calm Calm 6.7 mph10.8 kmh 29.01 in982.4 mb 0.00 in0.0 mm 0.00 in/hr0.0 mm/hr 0.00 in0.0 mm
05:43 PM 96.4°F35.8°C 60.8°F16.0°C 31% Calm Calm 6.7 mph10.8 kmh 29.01 in982.4 mb 0.00 in0.0 mm 0.00 in/hr0.0 mm/hr 0.00 in0.0 mm
05:42 PM 96.4°F35.8°C 60.8°F16.0°C 31% Calm Calm 7.6 mph12.2 kmh 29.00 in982.1 mb 0.00 in0.0 mm 0.00 in/hr0.0 mm/hr 0.00 in0.0 mm
05:41 PM 96.3°F35.7°C 60.6°F15.9°C 31% Calm Calm 7.6 mph12.2 kmh 29.00 in982.1 mb 0.00 in0.0 mm 0.00 in/hr0.0 mm/hr 0.00 in0.0 mm
05:40 PM 96.3°F35.7°C 60.6°F15.9°C 31% Calm Calm 7.6 mph12.2 kmh 29.00 in982.1 mb 0.00 in0.0 mm 0.00 in/hr0.0 mm/hr 0.00 in0.0 mm
05:39 PM 96.3°F35.7°C 60.6°F15.9°C 31% Calm Calm 7.6 mph12.2 kmh 29.00 in982.1 mb 0.00 in0.0 mm 0.00 in/hr0.0 mm/hr 0.00 in0.0 mm
05:38 PM 96.3°F35.7°C 60.6°F15.9°C 31% 2.2 mph WSW3.5 kmh WSW 7.6 mph12.2 kmh 29.00 in982.1 mb 0.00 in0.0 mm 0.00 in/hr0.0 mm/hr 0.00 in0.0 mm
05:37 PM 96.1°F35.6°C 60.5°F15.8°C 31% 1.6 mph W2.6 kmh W 7.6 mph12.2 kmh 29.00 in982.1 mb 0.00 in0.0 mm 0.00 in/hr0.0 mm/hr 0.00 in0.0 mm
05:36 PM 96.3°F35.7°C 59.8°F15.4°C 30% Calm Calm 7.6 mph12.2 kmh 29.00 in982.1 mb 0.00 in0.0 mm 0.00 in/hr0.0 mm/hr 0.00 in0.0 mm
05:35 PM 96.4°F35.8°C 60.0°F15.6°C 30% 4.7 mph W7.6 kmh W 7.6 mph12.2 kmh 29.00 in982.1 mb 0.00 in0.0 mm 0.00 in/hr0.0 mm/hr 0.00 in0.0 mm
05:34 PM 96.4°F35.8°C 60.0°F15.6°C 30% 2.2 mph W3.5 kmh W 7.6 mph12.2 kmh 29.00 in982.1 mb 0.00 in0.0 mm 0.00 in/hr0.0 mm/hr 0.00 in0.0 mm
05:33 PM 96.4°F35.8°C 60.0°F15.6°C 30% 7.6 mph NW12.2 kmh NW 7.6 mph12.2 kmh 29.00 in982.1 mb 0.00 in0.0 mm 0.00 in/hr0.0 mm/hr 0.00 in0.0 mm
05:32 PM 96.3°F35.7°C 59.8°F15.4°C 30% Calm Calm 3.6 mph5.8 kmh 29.00 in982.1 mb 0.00 in0.0 mm 0.00 in/hr0.0 mm/hr 0.00 in0.0 mm
05:31 PM 96.3°F35.7°C 59.8°F15.4°C 30% Calm Calm 3.6 mph5.8 kmh 29.00 in982.1 mb 0.00 in0.0 mm 0.00 in/hr0.0 mm/hr 0.00 in0.0 mm
05:30 PM 96.1°F35.6°C 59.7°F15.4°C 30% 2.9 mph WNW4.7 kmh WNW 5.8 mph9.3 kmh 29.00 in982.1 mb 0.00 in0.0 mm 0.00 in/hr0.0 mm/hr 0.00 in0.0 mm
05:29 PM 96.1°F35.6°C 59.7°F15.4°C 30% 1.1 mph N1.8 kmh N 5.8 mph9.3 kmh 29.01 in982.4 mb 0.00 in0.0 mm 0.00 in/hr0.0 mm/hr 0.00 in0.0 mm
05:28 PM 96.1°F35.6°C 59.7°F15.4°C 30% Calm Calm 6.3 mph10.1 kmh 29.01 in982.4 mb 0.00 in0.0 mm 0.00 in/hr0.0 mm/hr 0.00 in0.0 mm
05:27 PM 96.3°F35.7°C 59.8°F15.4°C 30% Calm Calm 6.3 mph10.1 kmh 29.01 in982.4 mb 0.00 in0.0 mm 0.00 in/hr0.0 mm/hr 0.00 in0.0 mm
05:26 PM 96.3°F35.7°C 59.8°F15.4°C 30% 2.9 mph WNW4.7 kmh WNW 6.3 mph10.1 kmh 29.00 in982.1 mb 0.00 in0.0 mm 0.00 in/hr0.0 mm/hr 0.00 in0.0 mm
05:25 PM 96.3°F35.7°C 60.0°F15.6°C 30% 3.1 mph WNW5.0 kmh WNW 6.3 mph10.1 kmh 29.01 in982.4 mb 0.00 in0.0 mm 0.00 in/hr0.0 mm/hr 0.00 in0.0 mm
05:24 PM 96.4°F35.8°C 60.0°F15.6°C 30% Calm Calm 6.3 mph10.1 kmh 29.01 in982.4 mb 0.00 in0.0 mm 0.00 in/hr0.0 mm/hr 0.00 in0.0 mm
05:23 PM 96.4°F35.8°C 60.0°F15.6°C 30% Calm Calm 6.3 mph10.1 kmh 29.01 in982.4 mb 0.00 in0.0 mm 0.00 in/hr0.0 mm/hr 0.00 in0.0 mm
05:22 PM 96.4°F35.8°C 60.0°F15.6°C 30% 1.6 mph W2.6 kmh W 6.3 mph10.1 kmh 29.01 in982.4 mb 0.00 in0.0 mm 0.00 in/hr0.0 mm/hr 0.00 in0.0 mm
05:21 PM 96.4°F35.8°C 60.0°F15.6°C 30% 3.1 mph W5.0 kmh W 6.3 mph10.1 kmh 29.00 in982.1 mb 0.00 in0.0 mm 0.00 in/hr0.0 mm/hr 0.00 in0.0 mm
05:20 PM 96.4°F35.8°C 60.0°F15.6°C 30% 5.6 mph WSW9.0 kmh WSW 6.3 mph10.1 kmh 29.01 in982.4 mb 0.00 in0.0 mm 0.00 in/hr0.0 mm/hr 0.00 in0.0 mm
05:19 PM 96.4°F35.8°C 60.0°F15.6°C 30% 3.1 mph WSW5.0 kmh WSW 6.3 mph10.1 kmh 29.00 in982.1 mb 0.00 in0.0 mm 0.00 in/hr0.0 mm/hr 0.00 in0.0 mm
05:18 PM 96.4°F35.8°C 60.0°F15.6°C 30% 4.3 mph WSW6.9 kmh WSW 5.8 mph9.3 kmh 29.00 in982.1 mb 0.00 in0.0 mm 0.00 in/hr0.0 mm/hr 0.00 in0.0 mm
05:17 PM 96.4°F35.8°C 60.0°F15.6°C 30% 1.8 mph WSW2.9 kmh WSW 7.2 mph11.6 kmh 29.00 in982.1 mb 0.00 in0.0 mm 0.00 in/hr0.0 mm/hr 0.00 in0.0 mm
05:16 PM 96.6°F35.9°C 60.1°F15.6°C 30% Calm Calm 7.2 mph11.6 kmh 29.01 in982.4 mb 0.00 in0.0 mm 0.00 in/hr0.0 mm/hr 0.00 in0.0 mm
05:15 PM 96.6°F35.9°C 60.1°F15.6°C 30% 1.8 mph WSW2.9 kmh WSW 7.2 mph11.6 kmh 29.01 in982.4 mb 0.00 in0.0 mm 0.00 in/hr0.0 mm/hr 0.00 in0.0 mm
05:14 PM 97.0°F36.1°C 60.4°F15.8°C 30% 1.3 mph WSW2.1 kmh WSW 7.4 mph11.9 kmh 29.01 in982.4 mb 0.00 in0.0 mm 0.00 in/hr0.0 mm/hr 0.00 in0.0 mm
05:13 PM 97.2°F36.2°C 59.5°F15.3°C 29% 4.5 mph WSW7.2 kmh WSW 7.4 mph11.9 kmh 29.01 in982.4 mb 0.00 in0.0 mm 0.00 in/hr0.0 mm/hr 0.00 in0.0 mm
05:12 PM 97.3°F36.3°C 59.6°F15.3°C 29% 2.5 mph WSW4.0 kmh WSW 7.4 mph11.9 kmh 29.01 in982.4 mb 0.00 in0.0 mm 0.00 in/hr0.0 mm/hr 0.00 in0.0 mm
05:11 PM 97.7°F36.5°C 60.0°F15.6°C 29% 0.4 mph WSW0.6 kmh WSW 7.4 mph11.9 kmh 29.01 in982.4 mb 0.00 in0.0 mm 0.00 in/hr0.0 mm/hr 0.00 in0.0 mm
05:10 PM 98.2°F36.8°C 60.4°F15.8°C 29% Calm Calm 7.4 mph11.9 kmh 29.01 in982.4 mb 0.00 in0.0 mm 0.00 in/hr0.0 mm/hr 0.00 in0.0 mm
05:09 PM 98.8°F37.1°C 60.9°F16.1°C 29% 0.9 mph WSW1.4 kmh WSW 7.4 mph11.9 kmh 29.01 in982.4 mb 0.00 in0.0 mm 0.00 in/hr0.0 mm/hr 0.00 in0.0 mm
05:08 PM 99.3°F37.4°C 60.3°F15.7°C 28% 3.4 mph WSW5.5 kmh WSW 7.4 mph11.9 kmh 29.01 in982.4 mb 0.00 in0.0 mm 0.00 in/hr0.0 mm/hr 0.00 in0.0 mm
05:07 PM 99.7°F37.6°C 60.6°F15.9°C 28% 6.7 mph WSW10.8 kmh WSW 7.4 mph11.9 kmh 29.01 in982.4 mb 0.00 in0.0 mm 0.00 in/hr0.0 mm/hr 0.00 in0.0 mm
05:06 PM 100.2°F37.9°C 61.1°F16.2°C 28% 4.9 mph WSW7.9 kmh WSW 7.4 mph11.9 kmh 29.01 in982.4 mb 0.00 in0.0 mm 0.00 in/hr0.0 mm/hr 0.00 in0.0 mm
05:05 PM 100.6°F38.1°C 61.4°F16.3°C 28% 6.3 mph WSW10.1 kmh WSW 7.4 mph11.9 kmh 29.01 in982.4 mb 0.00 in0.0 mm 0.00 in/hr0.0 mm/hr 0.00 in0.0 mm
05:04 PM 100.9°F38.3°C 61.7°F16.5°C 28% 2.9 mph WSW4.7 kmh WSW 6.0 mph9.7 kmh 29.01 in982.4 mb 0.00 in0.0 mm 0.00 in/hr0.0 mm/hr 0.00 in0.0 mm
05:03 PM 101.3°F38.5°C 62.0°F16.7°C 28% 4.7 mph WSW7.6 kmh WSW 6.0 mph9.7 kmh 29.01 in982.4 mb 0.00 in0.0 mm 0.00 in/hr0.0 mm/hr 0.00 in0.0 mm
05:02 PM 101.7°F38.7°C 62.2°F16.8°C 28% 3.6 mph WSW5.8 kmh WSW 6.0 mph9.7 kmh 29.01 in982.4 mb 0.00 in0.0 mm 0.00 in/hr0.0 mm/hr 0.00 in0.0 mm
05:01 PM 102.0°F38.9°C 62.5°F16.9°C 28% Calm Calm 6.0 mph9.7 kmh 29.01 in982.4 mb 0.00 in0.0 mm 0.00 in/hr0.0 mm/hr 0.00 in0.0 mm
05:00 PM 102.4°F39.1°C 62.8°F17.1°C 28% 3.6 mph WSW5.8 kmh WSW 9.2 mph14.8 kmh 29.01 in982.4 mb 0.00 in0.0 mm 0.00 in/hr0.0 mm/hr 0.00 in0.0 mm
04:59 PM 102.6°F39.2°C 63.0°F17.2°C 28% 0.9 mph WSW1.4 kmh WSW 9.2 mph14.8 kmh 29.01 in982.4 mb 0.00 in0.0 mm 0.00 in/hr0.0 mm/hr 0.00 in0.0 mm
04:58 PM 102.9°F39.4°C 63.3°F17.4°C 28% 6.0 mph WSW9.7 kmh WSW 9.2 mph14.8 kmh 29.01 in982.4 mb 0.00 in0.0 mm 0.00 in/hr0.0 mm/hr 0.00 in0.0 mm
04:57 PM 103.3°F39.6°C 63.6°F17.6°C 28% 3.4 mph WSW5.5 kmh WSW 9.2 mph14.8 kmh 29.01 in982.4 mb 0.00 in0.0 mm 0.00 in/hr0.0 mm/hr 0.00 in0.0 mm
04:56 PM 103.6°F39.8°C 63.9°F17.7°C 28% 1.6 mph WSW2.6 kmh WSW 9.2 mph14.8 kmh 29.01 in982.4 mb 0.00 in0.0 mm 0.00 in/hr0.0 mm/hr 0.00 in0.0 mm
04:55 PM 104.0°F40.0°C 64.3°F17.9°C 28% 1.3 mph WSW2.1 kmh WSW 9.2 mph14.8 kmh 29.01 in982.4 mb 0.00 in0.0 mm 0.00 in/hr0.0 mm/hr 0.00 in0.0 mm
04:54 PM 104.5°F40.3°C 64.7°F18.2°C 28% 3.1 mph WSW5.0 kmh WSW 9.2 mph14.8 kmh 29.01 in982.4 mb 0.00 in0.0 mm 0.00 in/hr0.0 mm/hr 0.00 in0.0 mm
04:53 PM 104.5°F40.3°C 64.8°F18.2°C 28% 5.4 mph WSW8.7 kmh WSW 9.2 mph14.8 kmh 29.01 in982.4 mb 0.00 in0.0 mm 0.00 in/hr0.0 mm/hr 0.00 in0.0 mm
04:52 PM 104.9°F40.5°C 65.0°F18.3°C 28% 4.3 mph WSW6.9 kmh WSW 9.2 mph14.8 kmh 29.01 in982.4 mb 0.00 in0.0 mm 0.00 in/hr0.0 mm/hr 0.00 in0.0 mm
04:51 PM 104.9°F40.5°C 66.1°F18.9°C 29% 3.8 mph WSW6.1 kmh WSW 9.2 mph14.8 kmh 29.01 in982.4 mb 0.00 in0.0 mm 0.00 in/hr0.0 mm/hr 0.00 in0.0 mm
04:50 PM 104.7°F40.4°C 66.0°F18.9°C 29% 3.1 mph WSW5.0 kmh WSW 6.0 mph9.7 kmh 29.01 in982.4 mb 0.00 in0.0 mm 0.00 in/hr0.0 mm/hr 0.00 in0.0 mm
04:49 PM 104.7°F40.4°C 66.0°F18.9°C 29% Calm Calm 6.0 mph9.7 kmh 29.01 in982.4 mb 0.00 in0.0 mm 0.00 in/hr0.0 mm/hr 0.00 in0.0 mm
04:48 PM 104.5°F40.3°C 65.8°F18.8°C 29% Calm Calm 6.0 mph9.7 kmh 29.01 in982.4 mb 0.00 in0.0 mm 0.00 in/hr0.0 mm/hr 0.00 in0.0 mm
04:47 PM 104.4°F40.2°C 65.7°F18.7°C 29% Calm Calm 6.0 mph9.7 kmh 29.01 in982.4 mb 0.00 in0.0 mm 0.00 in/hr0.0 mm/hr 0.00 in0.0 mm
04:46 PM 104.4°F40.2°C 65.6°F18.7°C 29% Calm Calm 6.0 mph9.7 kmh 29.01 in982.4 mb 0.00 in0.0 mm 0.00 in/hr0.0 mm/hr 0.00 in0.0 mm
04:45 PM 104.2°F40.1°C 65.6°F18.7°C 29% Calm Calm 6.0 mph9.7 kmh 29.01 in982.4 mb 0.00 in0.0 mm 0.00 in/hr0.0 mm/hr 0.00 in0.0 mm
04:44 PM 104.2°F40.1°C 65.6°F18.7°C 29% Calm Calm 6.0 mph9.7 kmh 29.01 in982.4 mb 0.00 in0.0 mm 0.00 in/hr0.0 mm/hr 0.00 in0.0 mm
04:43 PM 103.8°F39.9°C 65.2°F18.4°C 29% Calm Calm 6.0 mph9.7 kmh 29.01 in982.4 mb 0.00 in0.0 mm 0.00 in/hr0.0 mm/hr 0.00 in0.0 mm
04:42 PM 103.8°F39.9°C 65.2°F18.4°C 29% 2.9 mph SW4.7 kmh SW 6.0 mph9.7 kmh 29.01 in982.4 mb 0.00 in0.0 mm 0.00 in/hr0.0 mm/hr 0.00 in0.0 mm
04:41 PM 103.8°F39.9°C 65.2°F18.4°C 29% 2.2 mph SW3.5 kmh SW 6.0 mph9.7 kmh 29.01 in982.4 mb 0.00 in0.0 mm 0.00 in/hr0.0 mm/hr 0.00 in0.0 mm
04:40 PM 103.8°F39.9°C 65.2°F18.4°C 29% Calm Calm 5.8 mph9.3 kmh 29.01 in982.4 mb 0.00 in0.0 mm 0.00 in/hr0.0 mm/hr 0.00 in0.0 mm
04:39 PM 103.6°F39.8°C 65.1°F18.4°C 29% 2.0 mph SW3.2 kmh SW 5.8 mph9.3 kmh 29.01 in982.4 mb 0.00 in0.0 mm 0.00 in/hr0.0 mm/hr 0.00 in0.0 mm
04:38 PM 103.6°F39.8°C 65.1°F18.4°C 29% Calm Calm 5.8 mph9.3 kmh 29.01 in982.4 mb 0.00 in0.0 mm 0.00 in/hr0.0 mm/hr 0.00 in0.0 mm
04:37 PM 103.6°F39.8°C 65.1°F18.4°C 29% Calm Calm 5.8 mph9.3 kmh 29.01 in982.4 mb 0.00 in0.0 mm 0.00 in/hr0.0 mm/hr 0.00 in0.0 mm
04:36 PM 103.6°F39.8°C 65.1°F18.4°C 29% Calm Calm 5.8 mph9.3 kmh 29.01 in982.4 mb 0.00 in0.0 mm 0.00 in/hr0.0 mm/hr 0.00 in0.0 mm
04:35 PM 103.6°F39.8°C 65.1°F18.4°C 29% Calm Calm 5.8 mph9.3 kmh 29.01 in982.4 mb 0.00 in0.0 mm 0.00 in/hr0.0 mm/hr 0.00 in0.0 mm
04:34 PM 103.6°F39.8°C 65.1°F18.4°C 29% Calm Calm 5.8 mph9.3 kmh 29.01 in982.4 mb 0.00 in0.0 mm 0.00 in/hr0.0 mm/hr 0.00 in0.0 mm
04:33 PM 103.3°F39.6°C 64.8°F18.2°C 29% Calm Calm 6.0 mph9.7 kmh 29.01 in982.4 mb 0.00 in0.0 mm 0.00 in/hr0.0 mm/hr 0.00 in0.0 mm
04:32 PM 103.3°F39.6°C 64.8°F18.2°C 29% 4.9 mph WSW7.9 kmh WSW 6.0 mph9.7 kmh 29.01 in982.4 mb 0.00 in0.0 mm 0.00 in/hr0.0 mm/hr 0.00 in0.0 mm
04:31 PM 103.3°F39.6°C 64.8°F18.2°C 29% 4.5 mph WSW7.2 kmh WSW 6.0 mph9.7 kmh 29.02 in982.7 mb 0.00 in0.0 mm 0.00 in/hr0.0 mm/hr 0.00 in0.0 mm
04:30 PM 103.1°F39.5°C 64.6°F18.1°C 29% Calm Calm 6.0 mph9.7 kmh 29.01 in982.4 mb 0.00 in0.0 mm 0.00 in/hr0.0 mm/hr 0.00 in0.0 mm
04:29 PM 102.9°F39.4°C 65.6°F18.7°C 30% Calm Calm 6.0 mph9.7 kmh 29.02 in982.7 mb 0.00 in0.0 mm 0.00 in/hr0.0 mm/hr 0.00 in0.0 mm
04:28 PM 102.7°F39.3°C 65.4°F18.6°C 30% Calm Calm 6.0 mph9.7 kmh 29.01 in982.4 mb 0.00 in0.0 mm 0.00 in/hr0.0 mm/hr 0.00 in0.0 mm
04:27 PM 102.6°F39.2°C 65.3°F18.5°C 30% Calm Calm 6.0 mph9.7 kmh 29.02 in982.7 mb 0.00 in0.0 mm 0.00 in/hr0.0 mm/hr 0.00 in0.0 mm
04:26 PM 102.6°F39.2°C 65.3°F18.5°C 30% Calm Calm 6.0 mph9.7 kmh 29.01 in982.4 mb 0.00 in0.0 mm 0.00 in/hr0.0 mm/hr 0.00 in0.0 mm
04:25 PM 102.2°F39.0°C 64.9°F18.3°C 30% Calm Calm 6.0 mph9.7 kmh 29.02 in982.7 mb 0.00 in0.0 mm 0.00 in/hr0.0 mm/hr 0.00 in0.0 mm
04:24 PM 102.0°F38.9°C 64.8°F18.2°C 30% 2.9 mph W4.7 kmh W 6.0 mph9.7 kmh 29.02 in982.7 mb 0.00 in0.0 mm 0.00 in/hr0.0 mm/hr 0.00 in0.0 mm
04:23 PM 101.8°F38.8°C 64.7°F18.2°C 30% 1.1 mph WNW1.8 kmh WNW 6.0 mph9.7 kmh 29.02 in982.7 mb 0.00 in0.0 mm 0.00 in/hr0.0 mm/hr 0.00 in0.0 mm
04:22 PM 101.5°F38.6°C 64.4°F18.0°C 30% Calm Calm 6.0 mph9.7 kmh 29.02 in982.7 mb 0.00 in0.0 mm 0.00 in/hr0.0 mm/hr 0.00 in0.0 mm
04:21 PM 101.5°F38.6°C 64.4°F18.0°C 30% Calm Calm 6.0 mph9.7 kmh 29.01 in982.4 mb 0.00 in0.0 mm 0.00 in/hr0.0 mm/hr 0.00 in0.0 mm
04:20 PM 101.3°F38.5°C 64.2°F17.9°C 30% Calm Calm 6.0 mph9.7 kmh 29.02 in982.7 mb 0.00 in0.0 mm 0.00 in/hr0.0 mm/hr 0.00 in0.0 mm
04:19 PM 101.1°F38.4°C 64.9°F18.3°C 31% Calm Calm 6.0 mph9.7 kmh 29.02 in982.7 mb 0.00 in0.0 mm 0.00 in/hr0.0 mm/hr 0.00 in0.0 mm
04:18 PM 100.9°F38.3°C 64.8°F18.2°C 31% Calm Calm 6.0 mph9.7 kmh 29.02 in982.7 mb 0.00 in0.0 mm 0.00 in/hr0.0 mm/hr 0.00 in0.0 mm
04:17 PM 100.8°F38.2°C 64.6°F18.1°C 31% Calm Calm 6.0 mph9.7 kmh 29.02 in982.7 mb 0.00 in0.0 mm 0.00 in/hr0.0 mm/hr 0.00 in0.0 mm
04:16 PM 100.2°F37.9°C 64.2°F17.9°C 31% 5.1 mph W8.2 kmh W 6.0 mph9.7 kmh 29.02 in982.7 mb 0.00 in0.0 mm 0.00 in/hr0.0 mm/hr 0.00 in0.0 mm
04:15 PM 100.0°F37.8°C 64.0°F17.8°C 31% 3.1 mph W5.0 kmh W 9.8 mph15.8 kmh 29.01 in982.4 mb 0.00 in0.0 mm 0.00 in/hr0.0 mm/hr 0.00 in0.0 mm
04:14 PM 99.5°F37.5°C 63.5°F17.5°C 31% 6.0 mph WSW9.7 kmh WSW 9.8 mph15.8 kmh 29.02 in982.7 mb 0.00 in0.0 mm 0.00 in/hr0.0 mm/hr 0.00 in0.0 mm
04:13 PM 99.3°F37.4°C 63.4°F17.4°C 31% 0.2 mph WSW0.3 kmh WSW 9.8 mph15.8 kmh 29.01 in982.4 mb 0.00 in0.0 mm 0.00 in/hr0.0 mm/hr 0.00 in0.0 mm
04:12 PM 99.0°F37.2°C 63.0°F17.2°C 31% 1.6 mph WSW2.6 kmh WSW 9.8 mph15.8 kmh 29.02 in982.7 mb 0.00 in0.0 mm 0.00 in/hr0.0 mm/hr 0.00 in0.0 mm
04:11 PM 98.4°F36.9°C 62.5°F16.9°C 31% 2.5 mph SW4.0 kmh SW 9.8 mph15.8 kmh 29.01 in982.4 mb 0.00 in0.0 mm 0.00 in/hr0.0 mm/hr 0.00 in0.0 mm
04:10 PM 98.2°F36.8°C 62.4°F16.9°C 31% Calm Calm 9.8 mph15.8 kmh 29.02 in982.7 mb 0.00 in0.0 mm 0.00 in/hr0.0 mm/hr 0.00 in0.0 mm
04:09 PM 97.9°F36.6°C 62.1°F16.7°C 31% Calm Calm 9.8 mph15.8 kmh 29.01 in982.4 mb 0.00 in0.0 mm 0.00 in/hr0.0 mm/hr 0.00 in0.0 mm
04:08 PM 97.7°F36.5°C 61.9°F16.6°C 31% Calm Calm 9.8 mph15.8 kmh 29.02 in982.7 mb 0.00 in0.0 mm 0.00 in/hr0.0 mm/hr 0.00 in0.0 mm
04:07 PM 97.5°F36.4°C 61.7°F16.5°C 31% Calm Calm 9.8 mph15.8 kmh 29.02 in982.7 mb 0.00 in0.0 mm 0.00 in/hr0.0 mm/hr 0.00 in0.0 mm
04:06 PM 97.5°F36.4°C 61.7°F16.5°C 31% 5.4 mph SW8.7 kmh SW 9.8 mph15.8 kmh 29.02 in982.7 mb 0.00 in0.0 mm 0.00 in/hr0.0 mm/hr 0.00 in0.0 mm
04:05 PM 97.7°F36.5°C 61.9°F16.6°C 31% 4.0 mph SW6.4 kmh SW 7.8 mph12.6 kmh 29.02 in982.7 mb 0.00 in0.0 mm 0.00 in/hr0.0 mm/hr 0.00 in0.0 mm
04:04 PM 97.9°F36.6°C 61.2°F16.2°C 30% Calm Calm 7.8 mph12.6 kmh 29.02 in982.7 mb 0.00 in0.0 mm 0.00 in/hr0.0 mm/hr 0.00 in0.0 mm
04:03 PM 98.2°F36.8°C 61.6°F16.4°C 30% 2.0 mph SW3.2 kmh SW 7.8 mph12.6 kmh 29.02 in982.7 mb 0.00 in0.0 mm 0.00 in/hr0.0 mm/hr 0.00 in0.0 mm
04:02 PM 98.4°F36.9°C 61.7°F16.5°C 30% 4.7 mph SW7.6 kmh SW 7.8 mph12.6 kmh 29.02 in982.7 mb 0.00 in0.0 mm 0.00 in/hr0.0 mm/hr 0.00 in0.0 mm
04:01 PM 98.6°F37.0°C 61.9°F16.6°C 30% 3.1 mph SW5.0 kmh SW 7.8 mph12.6 kmh 29.02 in982.7 mb 0.00 in0.0 mm 0.00 in/hr0.0 mm/hr 0.00 in0.0 mm
04:00 PM 98.6°F37.0°C 61.9°F16.6°C 30% 4.7 mph SW7.6 kmh SW 7.8 mph12.6 kmh 29.02 in982.7 mb 0.00 in0.0 mm 0.00 in/hr0.0 mm/hr 0.00 in0.0 mm
03:59 PM 98.8°F37.1°C 62.0°F16.7°C 30% 4.3 mph WSW6.9 kmh WSW 7.8 mph12.6 kmh 29.02 in982.7 mb 0.00 in0.0 mm 0.00 in/hr0.0 mm/hr 0.00 in0.0 mm
03:58 PM 98.8°F37.1°C 62.9°F17.2°C 31% 4.9 mph WSW7.9 kmh WSW 7.8 mph12.6 kmh 29.02 in982.7 mb 0.00 in0.0 mm 0.00 in/hr0.0 mm/hr 0.00 in0.0 mm
03:57 PM 98.4°F36.9°C 62.5°F16.9°C 31% 6.0 mph WSW9.7 kmh WSW 11.0 mph17.7 kmh 29.02 in982.7 mb 0.00 in0.0 mm 0.00 in/hr0.0 mm/hr 0.00 in0.0 mm
03:56 PM 98.2°F36.8°C 63.2°F17.3°C 32% 6.3 mph WSW10.1 kmh WSW 11.0 mph17.7 kmh 29.02 in982.7 mb 0.00 in0.0 mm 0.00 in/hr0.0 mm/hr 0.00 in0.0 mm
03:55 PM 97.9°F36.6°C 62.9°F17.2°C 32% 4.5 mph WSW7.2 kmh WSW 11.0 mph17.7 kmh 29.02 in982.7 mb 0.00 in0.0 mm 0.00 in/hr0.0 mm/hr 0.00 in0.0 mm
03:54 PM 97.7°F36.5°C 61.7°F16.5°C 32% 7.6 mph WSW12.2 kmh WSW 11.0 mph17.7 kmh 29.02 in982.7 mb 0.00 in0.0 mm 0.00 in/hr0.0 mm/hr 0.00 in0.0 mm
03:53 PM 97.5°F36.4°C 62.6°F17.0°C 32% Calm Calm 11.0 mph17.7 kmh 29.02 in982.7 mb 0.00 in0.0 mm 0.00 in/hr0.0 mm/hr 0.00 in0.0 mm
03:52 PM 97.3°F36.3°C 61.6°F16.4°C 31% Calm Calm 11.4 mph18.3 kmh 29.02 in982.7 mb 0.00 in0.0 mm 0.00 in/hr0.0 mm/hr 0.00 in0.0 mm
03:51 PM 97.3°F36.3°C 61.6°F16.4°C 31% Calm Calm 11.9 mph19.2 kmh 29.02 in982.7 mb 0.00 in0.0 mm 0.00 in/hr0.0 mm/hr 0.00 in0.0 mm
03:50 PM 97.3°F36.3°C 61.6°F16.4°C 31% 3.1 mph WSW5.0 kmh WSW 11.9 mph19.2 kmh 29.02 in982.7 mb 0.00 in0.0 mm 0.00 in/hr0.0 mm/hr 0.00 in0.0 mm
03:49 PM 97.5°F36.4°C 61.7°F16.5°C 31% 5.4 mph WSW8.7 kmh WSW 11.9 mph19.2 kmh 29.02 in982.7 mb 0.00 in0.0 mm 0.00 in/hr0.0 mm/hr 0.00 in0.0 mm
03:48 PM 97.5°F36.4°C 60.9°F16.1°C 30% 5.6 mph WSW9.0 kmh WSW 11.9 mph19.2 kmh 29.02 in982.7 mb 0.00 in0.0 mm 0.00 in/hr0.0 mm/hr 0.00 in0.0 mm
03:47 PM 97.7°F36.5°C 61.9°F16.6°C 31% 9.6 mph WSW15.4 kmh WSW 12.1 mph19.5 kmh 29.02 in982.7 mb 0.00 in0.0 mm 0.00 in/hr0.0 mm/hr 0.00 in0.0 mm
03:46 PM 97.5°F36.4°C 61.7°F16.5°C 31% 9.8 mph WSW15.8 kmh WSW 12.1 mph19.5 kmh 29.02 in982.7 mb 0.00 in0.0 mm 0.00 in/hr0.0 mm/hr 0.00 in0.0 mm
03:45 PM 97.7°F36.5°C 61.9°F16.6°C 31% Calm Calm 12.1 mph19.5 kmh 29.02 in982.7 mb 0.00 in0.0 mm 0.00 in/hr0.0 mm/hr 0.00 in0.0 mm
03:44 PM 97.9°F36.6°C 62.1°F16.7°C 31% 3.1 mph WSW5.0 kmh WSW 12.1 mph19.5 kmh 29.02 in982.7 mb 0.00 in0.0 mm 0.00 in/hr0.0 mm/hr 0.00 in0.0 mm
03:43 PM 97.9°F36.6°C 62.1°F16.7°C 31% 10.7 mph WSW17.2 kmh WSW 12.1 mph19.5 kmh 29.02 in982.7 mb 0.00 in0.0 mm 0.00 in/hr0.0 mm/hr 0.00 in0.0 mm
03:42 PM 98.1°F36.7°C 62.2°F16.8°C 31% 3.8 mph WSW6.1 kmh WSW 12.1 mph19.5 kmh 29.02 in982.7 mb 0.00 in0.0 mm 0.00 in/hr0.0 mm/hr 0.00 in0.0 mm
03:41 PM 98.1°F36.7°C 62.2°F16.8°C 31% 11.9 mph WSW19.2 kmh WSW 12.1 mph19.5 kmh 29.02 in982.7 mb 0.00 in0.0 mm 0.00 in/hr0.0 mm/hr 0.00 in0.0 mm
03:40 PM 98.2°F36.8°C 61.6°F16.4°C 30% 2.2 mph WSW3.5 kmh WSW 12.1 mph19.5 kmh 29.02 in982.7 mb 0.00 in0.0 mm 0.00 in/hr0.0 mm/hr 0.00 in0.0 mm
03:39 PM 98.4°F36.9°C 61.7°F16.5°C 30% 6.7 mph WSW10.8 kmh WSW 12.1 mph19.5 kmh 29.03 in983.1 mb 0.00 in0.0 mm 0.00 in/hr0.0 mm/hr 0.00 in0.0 mm
03:38 PM 98.6°F37.0°C 61.9°F16.6°C 30% 2.0 mph WSW3.2 kmh WSW 12.1 mph19.5 kmh 29.03 in983.1 mb 0.00 in0.0 mm 0.00 in/hr0.0 mm/hr 0.00 in0.0 mm
03:37 PM 98.8°F37.1°C 62.9°F17.2°C 31% 9.8 mph WSW15.8 kmh WSW 11.9 mph19.2 kmh 29.02 in982.7 mb 0.00 in0.0 mm 0.00 in/hr0.0 mm/hr 0.00 in0.0 mm
03:36 PM 98.8°F37.1°C 62.9°F17.2°C 31% 8.3 mph WSW13.4 kmh WSW 11.4 mph18.3 kmh 29.03 in983.1 mb 0.00 in0.0 mm 0.00 in/hr0.0 mm/hr 0.00 in0.0 mm
03:35 PM 98.4°F36.9°C 63.4°F17.4°C 32% 7.6 mph WSW12.2 kmh WSW 10.5 mph16.9 kmh 29.02 in982.7 mb 0.00 in0.0 mm 0.00 in/hr0.0 mm/hr 0.00 in0.0 mm
03:34 PM 98.4°F36.9°C 63.4°F17.4°C 32% 8.3 mph WSW13.4 kmh WSW 10.3 mph16.6 kmh 29.03 in983.1 mb 0.00 in0.0 mm 0.00 in/hr0.0 mm/hr 0.00 in0.0 mm
03:33 PM 98.2°F36.8°C 63.2°F17.3°C 32% 5.8 mph WSW9.3 kmh WSW 10.3 mph16.6 kmh 29.03 in983.1 mb 0.00 in0.0 mm 0.00 in/hr0.0 mm/hr 0.00 in0.0 mm
03:32 PM 97.5°F36.4°C 62.6°F17.0°C 32% 3.6 mph WSW5.8 kmh WSW 10.3 mph16.6 kmh 29.03 in983.1 mb 0.00 in0.0 mm 0.00 in/hr0.0 mm/hr 0.00 in0.0 mm
03:31 PM 97.5°F36.4°C 62.6°F17.0°C 32% 4.9 mph SW7.9 kmh SW 10.3 mph16.6 kmh 29.03 in983.1 mb 0.00 in0.0 mm 0.00 in/hr0.0 mm/hr 0.00 in0.0 mm
03:30 PM 97.0°F36.1°C 62.1°F16.7°C 32% 6.3 mph SW10.1 kmh SW 10.3 mph16.6 kmh 29.03 in983.1 mb 0.00 in0.0 mm 0.00 in/hr0.0 mm/hr 0.00 in0.0 mm
03:29 PM 96.6°F35.9°C 61.8°F16.6°C 32% 1.6 mph SW2.6 kmh SW 6.9 mph11.1 kmh 29.03 in983.1 mb 0.00 in0.0 mm 0.00 in/hr0.0 mm/hr 0.00 in0.0 mm
03:28 PM 96.4°F35.8°C 62.4°F16.9°C 33% Calm Calm 6.9 mph11.1 kmh 29.03 in983.1 mb 0.00 in0.0 mm 0.00 in/hr0.0 mm/hr 0.00 in0.0 mm
03:27 PM 96.1°F35.6°C 62.1°F16.7°C 33% 3.6 mph WSW5.8 kmh WSW 7.2 mph11.6 kmh 29.03 in983.1 mb 0.00 in0.0 mm 0.00 in/hr0.0 mm/hr 0.00 in0.0 mm
03:26 PM 95.7°F35.4°C 61.8°F16.6°C 33% Calm Calm 10.3 mph16.6 kmh 29.03 in983.1 mb 0.00 in0.0 mm 0.00 in/hr0.0 mm/hr 0.00 in0.0 mm
03:25 PM 95.5°F35.3°C 61.7°F16.5°C 33% Calm Calm 10.3 mph16.6 kmh 29.03 in983.1 mb 0.00 in0.0 mm 0.00 in/hr0.0 mm/hr 0.00 in0.0 mm
03:24 PM 95.2°F35.1°C 60.6°F15.9°C 32% 1.6 mph SW2.6 kmh SW 10.3 mph16.6 kmh 29.03 in983.1 mb 0.00 in0.0 mm 0.00 in/hr0.0 mm/hr 0.00 in0.0 mm
03:23 PM 95.2°F35.1°C 60.6°F15.9°C 32% 2.9 mph SSW4.7 kmh SSW 10.3 mph16.6 kmh 29.03 in983.1 mb 0.00 in0.0 mm 0.00 in/hr0.0 mm/hr 0.00 in0.0 mm
03:22 PM 95.2°F35.1°C 60.6°F15.9°C 32% 4.9 mph S7.9 kmh S 10.3 mph16.6 kmh 29.03 in983.1 mb 0.00 in0.0 mm 0.00 in/hr0.0 mm/hr 0.00 in0.0 mm
03:21 PM 95.2°F35.1°C 59.8°F15.4°C 31% 1.1 mph S1.8 kmh S 10.3 mph16.6 kmh 29.03 in983.1 mb 0.00 in0.0 mm 0.00 in/hr0.0 mm/hr 0.00 in0.0 mm
03:20 PM 95.5°F35.3°C 60.1°F15.6°C 31% 4.9 mph SSE7.9 kmh SSE 10.3 mph16.6 kmh 29.04 in983.4 mb 0.00 in0.0 mm 0.00 in/hr0.0 mm/hr 0.00 in0.0 mm
03:19 PM 95.7°F35.4°C 60.2°F15.7°C 31% 3.6 mph SE5.8 kmh SE 10.3 mph16.6 kmh 29.03 in983.1 mb 0.00 in0.0 mm 0.00 in/hr0.0 mm/hr 0.00 in0.0 mm
03:18 PM 96.1°F35.6°C 60.5°F15.8°C 31% 5.1 mph SE8.2 kmh SE 10.3 mph16.6 kmh 29.03 in983.1 mb 0.00 in0.0 mm 0.00 in/hr0.0 mm/hr 0.00 in0.0 mm
03:17 PM 96.6°F35.9°C 60.9°F16.1°C 31% 7.2 mph SE11.6 kmh SE 10.3 mph16.6 kmh 29.03 in983.1 mb 0.00 in0.0 mm 0.00 in/hr0.0 mm/hr 0.00 in0.0 mm
03:16 PM 97.0°F36.1°C 61.3°F16.3°C 31% Calm Calm 8.9 mph14.3 kmh 29.03 in983.1 mb 0.00 in0.0 mm 0.00 in/hr0.0 mm/hr 0.00 in0.0 mm
03:15 PM 97.2°F36.2°C 60.6°F15.9°C 30% 6.0 mph E9.7 kmh E 8.9 mph14.3 kmh 29.03 in983.1 mb 0.00 in0.0 mm 0.00 in/hr0.0 mm/hr 0.00 in0.0 mm
03:14 PM 97.5°F36.4°C 60.9°F16.1°C 30% 5.1 mph E8.2 kmh E 7.6 mph12.2 kmh 29.03 in983.1 mb 0.00 in0.0 mm 0.00 in/hr0.0 mm/hr 0.00 in0.0 mm
03:13 PM 97.9°F36.6°C 61.2°F16.2°C 30% 4.5 mph E7.2 kmh E 7.6 mph12.2 kmh 29.03 in983.1 mb 0.00 in0.0 mm 0.00 in/hr0.0 mm/hr 0.00 in0.0 mm
03:12 PM 98.1°F36.7°C 61.4°F16.3°C 30% 4.3 mph E6.9 kmh E 7.6 mph12.2 kmh 29.03 in983.1 mb 0.00 in0.0 mm 0.00 in/hr0.0 mm/hr 0.00 in0.0 mm
03:11 PM 98.2°F36.8°C 61.6°F16.4°C 30% Calm Calm 8.3 mph13.4 kmh 29.03 in983.1 mb 0.00 in0.0 mm 0.00 in/hr0.0 mm/hr 0.00 in0.0 mm
03:10 PM 98.4°F36.9°C 61.7°F16.5°C 30% Calm Calm 8.3 mph13.4 kmh 29.03 in983.1 mb 0.00 in0.0 mm 0.00 in/hr0.0 mm/hr 0.00 in0.0 mm
03:09 PM 98.8°F37.1°C 62.0°F16.7°C 30% 3.4 mph ENE5.5 kmh ENE 8.3 mph13.4 kmh 29.03 in983.1 mb 0.00 in0.0 mm 0.00 in/hr0.0 mm/hr 0.00 in0.0 mm
03:08 PM 99.0°F37.2°C 62.2°F16.8°C 30% Calm Calm 8.3 mph13.4 kmh 29.03 in983.1 mb 0.00 in0.0 mm 0.00 in/hr0.0 mm/hr 0.00 in0.0 mm
03:07 PM 99.5°F37.5°C 61.6°F16.4°C 29% Calm Calm 8.3 mph13.4 kmh 29.03 in983.1 mb 0.00 in0.0 mm 0.00 in/hr0.0 mm/hr 0.00 in0.0 mm
03:06 PM 100.2°F37.9°C 62.2°F16.8°C 29% 0.9 mph NE1.4 kmh NE 8.3 mph13.4 kmh 29.04 in983.4 mb 0.00 in0.0 mm 0.00 in/hr0.0 mm/hr 0.00 in0.0 mm
03:05 PM 100.9°F38.3°C 62.8°F17.1°C 29% 6.3 mph NE10.1 kmh NE 8.9 mph14.3 kmh 29.04 in983.4 mb 0.00 in0.0 mm 0.00 in/hr0.0 mm/hr 0.00 in0.0 mm
03:04 PM 101.5°F38.6°C 63.2°F17.3°C 29% 7.2 mph NE11.6 kmh NE 8.9 mph14.3 kmh 29.04 in983.4 mb 0.00 in0.0 mm 0.00 in/hr0.0 mm/hr 0.00 in0.0 mm
03:03 PM 102.0°F38.9°C 63.7°F17.6°C 29% 6.9 mph NE11.1 kmh NE 8.9 mph14.3 kmh 29.04 in983.4 mb 0.00 in0.0 mm 0.00 in/hr0.0 mm/hr 0.00 in0.0 mm
03:02 PM 102.2°F39.0°C 63.8°F17.7°C 29% 3.4 mph NE5.5 kmh NE 8.9 mph14.3 kmh 29.04 in983.4 mb 0.00 in0.0 mm 0.00 in/hr0.0 mm/hr 0.00 in0.0 mm
03:01 PM 102.4°F39.1°C 64.0°F17.8°C 29% 2.9 mph NE4.7 kmh NE 8.9 mph14.3 kmh 29.04 in983.4 mb 0.00 in0.0 mm 0.00 in/hr0.0 mm/hr 0.00 in0.0 mm
03:00 PM 102.4°F39.1°C 65.1°F18.4°C 30% 2.2 mph NNE3.5 kmh NNE 8.9 mph14.3 kmh 29.04 in983.4 mb 0.00 in0.0 mm 0.00 in/hr0.0 mm/hr 0.00 in0.0 mm
02:59 PM 102.4°F39.1°C 65.1°F18.4°C 30% 4.3 mph N6.9 kmh N 8.9 mph14.3 kmh 29.04 in983.4 mb 0.00 in0.0 mm 0.00 in/hr0.0 mm/hr 0.00 in0.0 mm
02:58 PM 102.0°F38.9°C 64.8°F18.2°C 30% 4.0 mph N6.4 kmh N 8.9 mph14.3 kmh 29.03 in983.1 mb 0.00 in0.0 mm 0.00 in/hr0.0 mm/hr 0.00 in0.0 mm
02:57 PM 102.0°F38.9°C 65.6°F18.7°C 31% 3.6 mph N5.8 kmh N 8.9 mph14.3 kmh 29.03 in983.1 mb 0.00 in0.0 mm 0.00 in/hr0.0 mm/hr 0.00 in0.0 mm
02:56 PM 101.8°F38.8°C 65.5°F18.6°C 31% 3.8 mph SW6.1 kmh SW 8.9 mph14.3 kmh 29.03 in983.1 mb 0.00 in0.0 mm 0.00 in/hr0.0 mm/hr 0.00 in0.0 mm
02:55 PM 101.8°F38.8°C 65.5°F18.6°C 31% 1.8 mph SE2.9 kmh SE 4.5 mph7.2 kmh 29.04 in983.4 mb 0.00 in0.0 mm 0.00 in/hr0.0 mm/hr 0.00 in0.0 mm
02:54 PM 101.5°F38.6°C 65.2°F18.4°C 31% 2.0 mph SSE3.2 kmh SSE 3.8 mph6.1 kmh 29.04 in983.4 mb 0.00 in0.0 mm 0.00 in/hr0.0 mm/hr 0.00 in0.0 mm
02:53 PM 101.3°F38.5°C 65.0°F18.3°C 31% 2.7 mph SE4.3 kmh SE 3.6 mph5.8 kmh 29.04 in983.4 mb 0.00 in0.0 mm 0.00 in/hr0.0 mm/hr 0.00 in0.0 mm
02:52 PM 100.9°F38.3°C 65.6°F18.7°C 32% 2.9 mph SSE4.7 kmh SSE 3.6 mph5.8 kmh 29.04 in983.4 mb 0.00 in0.0 mm 0.00 in/hr0.0 mm/hr 0.00 in0.0 mm
02:51 PM 100.6°F38.1°C 65.3°F18.5°C 32% Calm Calm 2.7 mph4.3 kmh 29.04 in983.4 mb 0.00 in0.0 mm 0.00 in/hr0.0 mm/hr 0.00 in0.0 mm
02:50 PM 100.0°F37.8°C 64.8°F18.2°C 32% 1.8 mph SSW2.9 kmh SSW 2.7 mph4.3 kmh 29.04 in983.4 mb 0.00 in0.0 mm 0.00 in/hr0.0 mm/hr 0.00 in0.0 mm
02:49 PM 99.7°F37.6°C 64.5°F18.1°C 32% Calm Calm 2.2 mph3.5 kmh 29.04 in983.4 mb 0.00 in0.0 mm 0.00 in/hr0.0 mm/hr 0.00 in0.0 mm
02:48 PM 99.1°F37.3°C 64.8°F18.2°C 33% Calm Calm 2.2 mph3.5 kmh 29.04 in983.4 mb 0.00 in0.0 mm 0.00 in/hr0.0 mm/hr 0.00 in0.0 mm
02:47 PM 98.4°F36.9°C 64.2°F17.9°C 33% Calm Calm 2.2 mph3.5 kmh 29.04 in983.4 mb 0.00 in0.0 mm 0.00 in/hr0.0 mm/hr 0.00 in0.0 mm
02:46 PM 97.9°F36.6°C 63.7°F17.6°C 33% Calm Calm 3.6 mph5.8 kmh 29.04 in983.4 mb 0.00 in0.0 mm 0.00 in/hr0.0 mm/hr 0.00 in0.0 mm
02:45 PM 97.3°F36.3°C 63.2°F17.3°C 33% Calm Calm 3.6 mph5.8 kmh 29.04 in983.4 mb 0.00 in0.0 mm 0.00 in/hr0.0 mm/hr 0.00 in0.0 mm
02:44 PM 96.6°F35.9°C 63.4°F17.4°C 34% Calm Calm 5.6 mph9.0 kmh 29.04 in983.4 mb 0.00 in0.0 mm 0.00 in/hr0.0 mm/hr 0.00 in0.0 mm
02:43 PM 96.4°F35.8°C 63.3°F17.4°C 34% Calm Calm 6.3 mph10.1 kmh 29.04 in983.4 mb 0.00 in0.0 mm 0.00 in/hr0.0 mm/hr 0.00 in0.0 mm
02:42 PM 95.7°F35.4°C 62.7°F17.1°C 34% Calm Calm 6.7 mph10.8 kmh 29.04 in983.4 mb 0.00 in0.0 mm 0.00 in/hr0.0 mm/hr 0.00 in0.0 mm
02:41 PM 95.2°F35.1°C 62.2°F16.8°C 34% Calm Calm 7.6 mph12.2 kmh 29.04 in983.4 mb 0.00 in0.0 mm 0.00 in/hr0.0 mm/hr 0.00 in0.0 mm
02:40 PM 94.6°F34.8°C 61.7°F16.5°C 34% Calm Calm 7.6 mph12.2 kmh 29.04 in983.4 mb 0.00 in0.0 mm 0.00 in/hr0.0 mm/hr 0.00 in0.0 mm
02:39 PM 93.9°F34.4°C 61.1°F16.2°C 34% Calm Calm 7.6 mph12.2 kmh 29.04 in983.4 mb 0.00 in0.0 mm 0.00 in/hr0.0 mm/hr 0.00 in0.0 mm
02:38 PM 93.7°F34.3°C 60.9°F16.1°C 34% Calm Calm 7.6 mph12.2 kmh 29.04 in983.4 mb 0.00 in0.0 mm 0.00 in/hr0.0 mm/hr 0.00 in0.0 mm
02:37 PM 93.4°F34.1°C 60.6°F15.9°C 34% Calm Calm 7.6 mph12.2 kmh 29.04 in983.4 mb 0.00 in0.0 mm 0.00 in/hr0.0 mm/hr 0.00 in0.0 mm
02:36 PM 93.4°F34.1°C 60.6°F15.9°C 34% 2.9 mph NE4.7 kmh NE 7.6 mph12.2 kmh 29.04 in983.4 mb 0.00 in0.0 mm 0.00 in/hr0.0 mm/hr 0.00 in0.0 mm
02:35 PM 93.0°F33.9°C 60.3°F15.7°C 34% 1.8 mph NE2.9 kmh NE 7.6 mph12.2 kmh 29.04 in983.4 mb 0.00 in0.0 mm 0.00 in/hr0.0 mm/hr 0.00 in0.0 mm
02:34 PM 92.8°F33.8°C 60.1°F15.6°C 34% Calm Calm 7.6 mph12.2 kmh 29.04 in983.4 mb 0.00 in0.0 mm 0.00 in/hr0.0 mm/hr 0.00 in0.0 mm
02:33 PM 92.5°F33.6°C 59.8°F15.4°C 34% 6.7 mph ENE10.8 kmh ENE 8.3 mph13.4 kmh 29.05 in983.7 mb 0.00 in0.0 mm 0.00 in/hr0.0 mm/hr 0.00 in0.0 mm
02:32 PM 92.1°F33.4°C 60.3°F15.7°C 35% 4.9 mph E7.9 kmh E 8.3 mph13.4 kmh 29.04 in983.4 mb 0.00 in0.0 mm 0.00 in/hr0.0 mm/hr 0.00 in0.0 mm
02:31 PM 91.8°F33.2°C 60.0°F15.6°C 35% 4.3 mph E6.9 kmh E 8.3 mph13.4 kmh 29.05 in983.7 mb 0.00 in0.0 mm 0.00 in/hr0.0 mm/hr 0.00 in0.0 mm
02:30 PM 91.6°F33.1°C 59.9°F15.5°C 35% Calm Calm 8.3 mph13.4 kmh 29.04 in983.4 mb 0.00 in0.0 mm 0.00 in/hr0.0 mm/hr 0.00 in0.0 mm
02:29 PM 91.6°F33.1°C 59.9°F15.5°C 35% 2.9 mph E4.7 kmh E 8.3 mph13.4 kmh 29.05 in983.7 mb 0.00 in0.0 mm 0.00 in/hr0.0 mm/hr 0.00 in0.0 mm
02:28 PM 91.4°F33.0°C 58.9°F14.9°C 34% 0.9 mph ESE1.4 kmh ESE 8.3 mph13.4 kmh 29.05 in983.7 mb 0.00 in0.0 mm 0.00 in/hr0.0 mm/hr 0.00 in0.0 mm
02:27 PM 91.6°F33.1°C 59.1°F15.1°C 34% Calm Calm 8.3 mph13.4 kmh 29.05 in983.7 mb 0.00 in0.0 mm 0.00 in/hr0.0 mm/hr 0.00 in0.0 mm
02:26 PM 91.8°F33.2°C 59.2°F15.1°C 34% Calm Calm 8.3 mph13.4 kmh 29.05 in983.7 mb 0.00 in0.0 mm 0.00 in/hr0.0 mm/hr 0.00 in0.0 mm
02:25 PM 91.9°F33.3°C 59.4°F15.2°C 34% 4.9 mph ESE7.9 kmh ESE 8.3 mph13.4 kmh 29.05 in983.7 mb 0.00 in0.0 mm 0.00 in/hr0.0 mm/hr 0.00 in0.0 mm
02:24 PM 91.9°F33.3°C 60.2°F15.7°C 35% 6.7 mph ESE10.8 kmh ESE 8.3 mph13.4 kmh 29.05 in983.7 mb 0.00 in0.0 mm 0.00 in/hr0.0 mm/hr 0.00 in0.0 mm
02:23 PM 91.9°F33.3°C 59.4°F15.2°C 35% 4.7 mph ESE7.6 kmh ESE 8.3 mph13.4 kmh 29.05 in983.7 mb 0.00 in0.0 mm 0.00 in/hr0.0 mm/hr 0.00 in0.0 mm
02:22 PM 91.9°F33.3°C 59.4°F15.2°C 34% 0.7 mph ESE1.1 kmh ESE 8.3 mph13.4 kmh 29.05 in983.7 mb 0.00 in0.0 mm 0.00 in/hr0.0 mm/hr 0.00 in0.0 mm
02:21 PM 91.9°F33.3°C 60.2°F15.7°C 35% 0.7 mph ESE1.1 kmh ESE 8.3 mph13.4 kmh 29.04 in983.4 mb 0.00 in0.0 mm 0.00 in/hr0.0 mm/hr 0.00 in0.0 mm
02:20 PM 91.8°F33.2°C 60.0°F15.6°C 35% 2.7 mph ESE4.3 kmh ESE 8.3 mph13.4 kmh 29.04 in983.4 mb 0.00 in0.0 mm 0.00 in/hr0.0 mm/hr 0.00 in0.0 mm
02:19 PM 91.6°F33.1°C 59.9°F15.5°C 35% 7.6 mph ESE12.2 kmh ESE 9.2 mph14.8 kmh 29.04 in983.4 mb 0.00 in0.0 mm 0.00 in/hr0.0 mm/hr 0.00 in0.0 mm
02:18 PM 91.2°F32.9°C 59.6°F15.3°C 35% Calm Calm 11.0 mph17.7 kmh 29.04 in983.4 mb 0.00 in0.0 mm 0.00 in/hr0.0 mm/hr 0.00 in0.0 mm
02:17 PM 91.2°F32.9°C 59.6°F15.3°C 35% Calm Calm 11.0 mph17.7 kmh 29.04 in983.4 mb 0.00 in0.0 mm 0.00 in/hr0.0 mm/hr 0.00 in0.0 mm
02:16 PM 91.2°F32.9°C 59.6°F15.3°C 35% Calm Calm 11.0 mph17.7 kmh 29.04 in983.4 mb 0.00 in0.0 mm 0.00 in/hr0.0 mm/hr 0.00 in0.0 mm
02:15 PM 91.2°F32.9°C 58.8°F14.9°C 34% Calm Calm 11.6 mph18.7 kmh 29.04 in983.4 mb 0.00 in0.0 mm 0.00 in/hr0.0 mm/hr 0.00 in0.0 mm
02:14 PM 91.2°F32.9°C 58.8°F14.9°C 34% Calm Calm 11.6 mph18.7 kmh 29.04 in983.4 mb 0.00 in0.0 mm 0.00 in/hr0.0 mm/hr 0.00 in0.0 mm
02:13 PM 91.8°F33.2°C 59.2°F15.1°C 34% Calm Calm 11.6 mph18.7 kmh 29.04 in983.4 mb 0.00 in0.0 mm 0.00 in/hr0.0 mm/hr 0.00 in0.0 mm
02:12 PM 92.1°F33.4°C 58.7°F14.8°C 33% Calm Calm 11.6 mph18.7 kmh 29.05 in983.7 mb 0.00 in0.0 mm 0.00 in/hr0.0 mm/hr 0.00 in0.0 mm
02:11 PM 92.7°F33.7°C 59.2°F15.1°C 33% 4.7 mph E7.6 kmh E 11.6 mph18.7 kmh 29.04 in983.4 mb 0.00 in0.0 mm 0.00 in/hr0.0 mm/hr 0.00 in0.0 mm
02:10 PM 93.0°F33.9°C 59.5°F15.3°C 33% 8.7 mph E14.0 kmh E 11.6 mph18.7 kmh 29.04 in983.4 mb 0.00 in0.0 mm 0.00 in/hr0.0 mm/hr 0.00 in0.0 mm
02:09 PM 93.0°F33.9°C 59.5°F15.3°C 33% 6.5 mph ENE10.5 kmh ENE 13.0 mph20.9 kmh 29.04 in983.4 mb 0.00 in0.0 mm 0.00 in/hr0.0 mm/hr 0.00 in0.0 mm
02:08 PM 93.4°F34.1°C 59.8°F15.4°C 33% 11.0 mph ENE17.7 kmh ENE 13.0 mph20.9 kmh 29.04 in983.4 mb 0.00 in0.0 mm 0.00 in/hr0.0 mm/hr 0.00 in0.0 mm
02:07 PM 93.4°F34.1°C 59.8°F15.4°C 33% 4.7 mph ENE7.6 kmh ENE 13.0 mph20.9 kmh 29.04 in983.4 mb 0.00 in0.0 mm 0.00 in/hr0.0 mm/hr 0.00 in0.0 mm
02:06 PM 93.6°F34.2°C 60.0°F15.6°C 33% 5.8 mph ENE9.3 kmh ENE 13.0 mph20.9 kmh 29.04 in983.4 mb 0.00 in0.0 mm 0.00 in/hr0.0 mm/hr 0.00 in0.0 mm
02:05 PM 93.7°F34.3°C 60.1°F15.6°C 33% 3.6 mph ENE5.8 kmh ENE 13.0 mph20.9 kmh 29.04 in983.4 mb 0.00 in0.0 mm 0.00 in/hr0.0 mm/hr 0.00 in0.0 mm
02:04 PM 93.9°F34.4°C 60.3°F15.7°C 33% 2.0 mph ENE3.2 kmh ENE 13.0 mph20.9 kmh 29.04 in983.4 mb 0.00 in0.0 mm 0.00 in/hr0.0 mm/hr 0.00 in0.0 mm
02:03 PM 93.9°F34.4°C 60.3°F15.7°C 33% 3.8 mph ENE6.1 kmh ENE 13.0 mph20.9 kmh 29.04 in983.4 mb 0.00 in0.0 mm 0.00 in/hr0.0 mm/hr 0.00 in0.0 mm
02:02 PM 93.9°F34.4°C 61.1°F16.2°C 34% Calm Calm 13.0 mph20.9 kmh 29.04 in983.4 mb 0.00 in0.0 mm 0.00 in/hr0.0 mm/hr 0.00 in0.0 mm
02:01 PM 93.9°F34.4°C 61.1°F16.2°C 34% 6.7 mph NE10.8 kmh NE 13.0 mph20.9 kmh 29.05 in983.7 mb 0.00 in0.0 mm 0.00 in/hr0.0 mm/hr 0.00 in0.0 mm
02:00 PM 93.7°F34.3°C 60.9°F16.1°C 34% 2.9 mph NE4.7 kmh NE 13.0 mph20.9 kmh 29.04 in983.4 mb 0.00 in0.0 mm 0.00 in/hr0.0 mm/hr 0.00 in0.0 mm
01:59 PM 93.4°F34.1°C 60.6°F15.9°C 34% 8.9 mph NE14.3 kmh NE 11.9 mph19.2 kmh 29.05 in983.7 mb 0.00 in0.0 mm 0.00 in/hr0.0 mm/hr 0.00 in0.0 mm
01:58 PM 93.0°F33.9°C 61.1°F16.2°C 35% 3.4 mph ENE5.5 kmh ENE 7.4 mph11.9 kmh 29.05 in983.7 mb 0.00 in0.0 mm 0.00 in/hr0.0 mm/hr 0.00 in0.0 mm
01:57 PM 92.7°F33.7°C 60.8°F16.0°C 35% 1.3 mph NE2.1 kmh NE 7.4 mph11.9 kmh 29.05 in983.7 mb 0.00 in0.0 mm 0.00 in/hr0.0 mm/hr 0.00 in0.0 mm
01:56 PM 92.5°F33.6°C 60.6°F15.9°C 35% 2.5 mph NE4.0 kmh NE 7.2 mph11.6 kmh 29.05 in983.7 mb 0.00 in0.0 mm 0.00 in/hr0.0 mm/hr 0.00 in0.0 mm
01:55 PM 92.1°F33.4°C 60.3°F15.7°C 35% 4.7 mph ENE7.6 kmh ENE 10.7 mph17.2 kmh 29.05 in983.7 mb 0.00 in0.0 mm 0.00 in/hr0.0 mm/hr 0.00 in0.0 mm
01:54 PM 91.9°F33.3°C 60.2°F15.7°C 35% Calm Calm 13.4 mph21.6 kmh 29.05 in983.7 mb 0.00 in0.0 mm 0.00 in/hr0.0 mm/hr 0.00 in0.0 mm
01:53 PM 91.9°F33.3°C 60.2°F15.7°C 35% Calm Calm 13.4 mph21.6 kmh 29.05 in983.7 mb 0.00 in0.0 mm 0.00 in/hr0.0 mm/hr 0.00 in0.0 mm
01:52 PM 91.9°F33.3°C 60.2°F15.7°C 35% Calm Calm 13.4 mph21.6 kmh 29.05 in983.7 mb 0.00 in0.0 mm 0.00 in/hr0.0 mm/hr 0.00 in0.0 mm
01:51 PM 91.9°F33.3°C 59.4°F15.2°C 34% Calm Calm 13.4 mph21.6 kmh 29.06 in984.1 mb 0.00 in0.0 mm 0.00 in/hr0.0 mm/hr 0.00 in0.0 mm
01:50 PM 92.1°F33.4°C 59.5°F15.3°C 34% Calm Calm 13.4 mph21.6 kmh 29.05 in983.7 mb 0.00 in0.0 mm 0.00 in/hr0.0 mm/hr 0.00 in0.0 mm
01:49 PM 92.1°F33.4°C 59.5°F15.3°C 34% 4.0 mph NE6.4 kmh NE 13.4 mph21.6 kmh 29.05 in983.7 mb 0.00 in0.0 mm 0.00 in/hr0.0 mm/hr 0.00 in0.0 mm
01:48 PM 92.1°F33.4°C 59.5°F15.3°C 34% Calm Calm 13.4 mph21.6 kmh 29.06 in984.1 mb 0.00 in0.0 mm 0.00 in/hr0.0 mm/hr 0.00 in0.0 mm
01:47 PM 92.1°F33.4°C 59.5°F15.3°C 34% Calm Calm 13.4 mph21.6 kmh 29.06 in984.1 mb 0.00 in0.0 mm 0.00 in/hr0.0 mm/hr 0.00 in0.0 mm
01:46 PM 91.9°F33.3°C 59.4°F15.2°C 34% 3.1 mph NE5.0 kmh NE 13.4 mph21.6 kmh 29.05 in983.7 mb 0.00 in0.0 mm 0.00 in/hr0.0 mm/hr 0.00 in0.0 mm
01:45 PM 91.9°F33.3°C 60.2°F15.7°C 35% 10.7 mph NE17.2 kmh NE 13.4 mph21.6 kmh 29.05 in983.7 mb 0.00 in0.0 mm 0.00 in/hr0.0 mm/hr 0.00 in0.0 mm
01:44 PM 91.9°F33.3°C 60.2°F15.7°C 35% 5.4 mph NE8.7 kmh NE 10.1 mph16.3 kmh 29.06 in984.1 mb 0.00 in0.0 mm 0.00 in/hr0.0 mm/hr 0.00 in0.0 mm
01:43 PM 91.9°F33.3°C 59.4°F15.2°C 34% 1.6 mph NE2.6 kmh NE 10.1 mph16.3 kmh 29.05 in983.7 mb 0.00 in0.0 mm 0.00 in/hr0.0 mm/hr 0.00 in0.0 mm
01:42 PM 91.9°F33.3°C 59.4°F15.2°C 34% Calm Calm 10.5 mph16.9 kmh 29.05 in983.7 mb 0.00 in0.0 mm 0.00 in/hr0.0 mm/hr 0.00 in0.0 mm
01:41 PM 91.9°F33.3°C 59.4°F15.2°C 34% Calm Calm 10.5 mph16.9 kmh 29.06 in984.1 mb 0.00 in0.0 mm 0.00 in/hr0.0 mm/hr 0.00 in0.0 mm
01:40 PM 92.3°F33.5°C 59.7°F15.4°C 34% Calm Calm 10.5 mph16.9 kmh 29.06 in984.1 mb 0.00 in0.0 mm 0.00 in/hr0.0 mm/hr 0.00 in0.0 mm
01:39 PM 92.5°F33.6°C 59.0°F15.0°C 33% Calm Calm 10.5 mph16.9 kmh 29.06 in984.1 mb 0.00 in0.0 mm 0.00 in/hr0.0 mm/hr 0.00 in0.0 mm
01:38 PM 92.8°F33.8°C 59.3°F15.2°C 33% 3.1 mph ENE5.0 kmh ENE 10.5 mph16.9 kmh 29.06 in984.1 mb 0.00 in0.0 mm 0.00 in/hr0.0 mm/hr 0.00 in0.0 mm
01:37 PM 93.0°F33.9°C 59.5°F15.3°C 33% 6.3 mph ENE10.1 kmh ENE 10.5 mph16.9 kmh 29.06 in984.1 mb 0.00 in0.0 mm 0.00 in/hr0.0 mm/hr 0.00 in0.0 mm
01:36 PM 93.0°F33.9°C 59.5°F15.3°C 33% 6.5 mph ENE10.5 kmh ENE 10.5 mph16.9 kmh 29.06 in984.1 mb 0.00 in0.0 mm 0.00 in/hr0.0 mm/hr 0.00 in0.0 mm
01:35 PM 93.4°F34.1°C 59.8°F15.4°C 33% 6.0 mph ENE9.7 kmh ENE 10.5 mph16.9 kmh 29.06 in984.1 mb 0.00 in0.0 mm 0.00 in/hr0.0 mm/hr 0.00 in0.0 mm
01:34 PM 93.4°F34.1°C 60.6°F15.9°C 34% 4.5 mph ENE7.2 kmh ENE 10.5 mph16.9 kmh 29.06 in984.1 mb 0.00 in0.0 mm 0.00 in/hr0.0 mm/hr 0.00 in0.0 mm
01:33 PM 93.4°F34.1°C 60.6°F15.9°C 34% 9.6 mph ENE15.4 kmh ENE 10.5 mph16.9 kmh 29.06 in984.1 mb 0.00 in0.0 mm 0.00 in/hr0.0 mm/hr 0.00 in0.0 mm
01:32 PM 93.4°F34.1°C 60.6°F15.9°C 34% 4.5 mph ENE7.2 kmh ENE 7.8 mph12.6 kmh 29.06 in984.1 mb 0.00 in0.0 mm 0.00 in/hr0.0 mm/hr 0.00 in0.0 mm
01:31 PM 93.0°F33.9°C 60.3°F15.7°C 34% Calm Calm 2.0 mph3.2 kmh 29.06 in984.1 mb 0.00 in0.0 mm 0.00 in/hr0.0 mm/hr 0.00 in0.0 mm
01:30 PM 93.0°F33.9°C 61.1°F16.2°C 35% Calm Calm 6.3 mph10.1 kmh 29.06 in984.1 mb 0.00 in0.0 mm 0.00 in/hr0.0 mm/hr 0.00 in0.0 mm
01:29 PM 92.8°F33.8°C 60.9°F16.1°C 35% Calm Calm 6.9 mph11.1 kmh 29.06 in984.1 mb 0.00 in0.0 mm 0.00 in/hr0.0 mm/hr 0.00 in0.0 mm
01:28 PM 92.7°F33.7°C 60.8°F16.0°C 35% Calm Calm 6.9 mph11.1 kmh 29.06 in984.1 mb 0.00 in0.0 mm 0.00 in/hr0.0 mm/hr 0.00 in0.0 mm
01:27 PM 92.5°F33.6°C 60.6°F15.9°C 35% Calm Calm 6.9 mph11.1 kmh 29.06 in984.1 mb 0.00 in0.0 mm 0.00 in/hr0.0 mm/hr 0.00 in0.0 mm
01:26 PM 92.3°F33.5°C 60.5°F15.8°C 35% Calm Calm 6.9 mph11.1 kmh 29.06 in984.1 mb 0.00 in0.0 mm 0.00 in/hr0.0 mm/hr 0.00 in0.0 mm
01:25 PM 92.1°F33.4°C 60.3°F15.7°C 35% Calm Calm 6.9 mph11.1 kmh 29.06 in984.1 mb 0.00 in0.0 mm 0.00 in/hr0.0 mm/hr 0.00 in0.0 mm
01:24 PM 91.9°F33.3°C 60.2°F15.7°C 35% Calm Calm 6.9 mph11.1 kmh 29.06 in984.1 mb 0.00 in0.0 mm 0.00 in/hr0.0 mm/hr 0.00 in0.0 mm
01:23 PM 91.9°F33.3°C 60.2°F15.7°C 35% Calm Calm 6.9 mph11.1 kmh 29.06 in984.1 mb 0.00 in0.0 mm 0.00 in/hr0.0 mm/hr 0.00 in0.0 mm
01:22 PM 91.8°F33.2°C 60.0°F15.6°C 35% Calm Calm 6.9 mph11.1 kmh 29.06 in984.1 mb 0.00 in0.0 mm 0.00 in/hr0.0 mm/hr 0.00 in0.0 mm
01:21 PM 91.4°F33.0°C 59.7°F15.4°C 35% Calm Calm 7.4 mph11.9 kmh 29.06 in984.1 mb 0.00 in0.0 mm 0.00 in/hr0.0 mm/hr 0.00 in0.0 mm
01:20 PM 91.0°F32.8°C 60.2°F15.7°C 36% 5.6 mph E9.0 kmh E 7.4 mph11.9 kmh 29.06 in984.1 mb 0.00 in0.0 mm 0.00 in/hr0.0 mm/hr 0.00 in0.0 mm
01:19 PM 90.3°F32.4°C 59.5°F15.3°C 36% 2.2 mph E3.5 kmh E 7.4 mph11.9 kmh 29.06 in984.1 mb 0.00 in0.0 mm 0.00 in/hr0.0 mm/hr 0.00 in0.0 mm
01:18 PM 90.0°F32.2°C 60.0°F15.6°C 37% 6.5 mph E10.5 kmh E 7.4 mph11.9 kmh 29.06 in984.1 mb 0.00 in0.0 mm 0.00 in/hr0.0 mm/hr 0.00 in0.0 mm
01:17 PM 89.4°F31.9°C 59.5°F15.3°C 37% Calm Calm 7.4 mph11.9 kmh 29.06 in984.1 mb 0.00 in0.0 mm 0.00 in/hr0.0 mm/hr 0.00 in0.0 mm
01:16 PM 89.2°F31.8°C 58.6°F14.8°C 36% Calm Calm 7.4 mph11.9 kmh 29.07 in984.4 mb 0.00 in0.0 mm 0.00 in/hr0.0 mm/hr 0.00 in0.0 mm
01:15 PM 89.2°F31.8°C 58.6°F14.8°C 36% Calm Calm 7.4 mph11.9 kmh 29.07 in984.4 mb 0.00 in0.0 mm 0.00 in/hr0.0 mm/hr 0.00 in0.0 mm
01:14 PM 89.2°F31.8°C 58.6°F14.8°C 36% Calm Calm 7.4 mph11.9 kmh 29.07 in984.4 mb 0.00 in0.0 mm 0.00 in/hr0.0 mm/hr 0.00 in0.0 mm
01:13 PM 89.2°F31.8°C 58.6°F14.8°C 36% 3.1 mph E5.0 kmh E 7.4 mph11.9 kmh 29.07 in984.4 mb 0.00 in0.0 mm 0.00 in/hr0.0 mm/hr 0.00 in0.0 mm
01:12 PM 89.2°F31.8°C 58.6°F14.8°C 36% 6.3 mph E10.1 kmh E 7.4 mph11.9 kmh 29.07 in984.4 mb 0.00 in0.0 mm 0.00 in/hr0.0 mm/hr 0.00 in0.0 mm
01:11 PM 89.2°F31.8°C 58.6°F14.8°C 36% 7.4 mph E11.9 kmh E 7.4 mph11.9 kmh 29.07 in984.4 mb 0.00 in0.0 mm 0.00 in/hr0.0 mm/hr 0.00 in0.0 mm
01:10 PM 89.2°F31.8°C 58.6°F14.8°C 36% 4.0 mph E6.4 kmh E 6.0 mph9.7 kmh 29.07 in984.4 mb 0.00 in0.0 mm 0.00 in/hr0.0 mm/hr 0.00 in0.0 mm
01:09 PM 89.1°F31.7°C 58.4°F14.7°C 36% 4.9 mph E7.9 kmh E 6.7 mph10.8 kmh 29.07 in984.4 mb 0.00 in0.0 mm 0.00 in/hr0.0 mm/hr 0.00 in0.0 mm
01:08 PM 89.2°F31.8°C 57.8°F14.3°C 35% 3.8 mph E6.1 kmh E 6.7 mph10.8 kmh 29.07 in984.4 mb 0.00 in0.0 mm 0.00 in/hr0.0 mm/hr 0.00 in0.0 mm
01:07 PM 89.2°F31.8°C 57.8°F14.3°C 35% Calm Calm 6.7 mph10.8 kmh 29.07 in984.4 mb 0.00 in0.0 mm 0.00 in/hr0.0 mm/hr 0.00 in0.0 mm
01:06 PM 89.4°F31.9°C 57.9°F14.4°C 35% Calm Calm 6.7 mph10.8 kmh 29.07 in984.4 mb 0.00 in0.0 mm 0.00 in/hr0.0 mm/hr 0.00 in0.0 mm
01:05 PM 89.8°F32.1°C 58.3°F14.6°C 35% 4.5 mph E7.2 kmh E 6.7 mph10.8 kmh 29.07 in984.4 mb 0.00 in0.0 mm 0.00 in/hr0.0 mm/hr 0.00 in0.0 mm
01:04 PM 90.1°F32.3°C 58.6°F14.8°C 35% 1.8 mph E2.9 kmh E 6.7 mph10.8 kmh 29.07 in984.4 mb 0.00 in0.0 mm 0.00 in/hr0.0 mm/hr 0.00 in0.0 mm
01:03 PM 90.5°F32.5°C 58.9°F14.9°C 35% 3.6 mph ENE5.8 kmh ENE 6.7 mph10.8 kmh 29.07 in984.4 mb 0.00 in0.0 mm 0.00 in/hr0.0 mm/hr 0.00 in0.0 mm
01:02 PM 90.7°F32.6°C 59.1°F15.1°C 35% 5.6 mph ENE9.0 kmh ENE 6.7 mph10.8 kmh 29.07 in984.4 mb 0.00 in0.0 mm 0.00 in/hr0.0 mm/hr 0.00 in0.0 mm
01:01 PM 91.0°F32.8°C 59.4°F15.2°C 35% 1.1 mph ENE1.8 kmh ENE 6.7 mph10.8 kmh 29.07 in984.4 mb 0.00 in0.0 mm 0.00 in/hr0.0 mm/hr 0.00 in0.0 mm
01:00 PM 91.2°F32.9°C 59.6°F15.3°C 35% 5.6 mph ENE9.0 kmh ENE 6.7 mph10.8 kmh 29.07 in984.4 mb 0.00 in0.0 mm 0.00 in/hr0.0 mm/hr 0.00 in0.0 mm
12:59 PM 91.4°F33.0°C 59.7°F15.4°C 35% 1.6 mph ENE2.6 kmh ENE 6.7 mph10.8 kmh 29.07 in984.4 mb 0.00 in0.0 mm 0.00 in/hr0.0 mm/hr 0.00 in0.0 mm
12:58 PM 91.6°F33.1°C 59.9°F15.5°C 35% 4.7 mph ENE7.6 kmh ENE 6.7 mph10.8 kmh 29.07 in984.4 mb 0.00 in0.0 mm 0.00 in/hr0.0 mm/hr 0.00 in0.0 mm
12:57 PM 91.6°F33.1°C 59.9°F15.5°C 35% 3.8 mph ENE6.1 kmh ENE 5.8 mph9.3 kmh 29.07 in984.4 mb 0.00 in0.0 mm 0.00 in/hr0.0 mm/hr 0.00 in0.0 mm
12:56 PM 91.8°F33.2°C 60.0°F15.6°C 35% 5.4 mph NE8.7 kmh NE 5.4 mph8.7 kmh 29.07 in984.4 mb 0.00 in0.0 mm 0.00 in/hr0.0 mm/hr 0.00 in0.0 mm
12:55 PM 91.8°F33.2°C 60.0°F15.6°C 35% Calm Calm 4.7 mph7.6 kmh 29.07 in984.4 mb 0.00 in0.0 mm 0.00 in/hr0.0 mm/hr 0.00 in0.0 mm
12:54 PM 91.8°F33.2°C 60.0°F15.6°C 35% 3.1 mph N5.0 kmh N 4.7 mph7.6 kmh 29.07 in984.4 mb 0.00 in0.0 mm 0.00 in/hr0.0 mm/hr 0.00 in0.0 mm
12:53 PM 91.8°F33.2°C 60.0°F15.6°C 35% Calm Calm 3.6 mph5.8 kmh 29.07 in984.4 mb 0.00 in0.0 mm 0.00 in/hr0.0 mm/hr 0.00 in0.0 mm
12:52 PM 91.8°F33.2°C 60.8°F16.0°C 36% Calm Calm 3.6 mph5.8 kmh 29.07 in984.4 mb 0.00 in0.0 mm 0.00 in/hr0.0 mm/hr 0.00 in0.0 mm
12:51 PM 91.8°F33.2°C 60.8°F16.0°C 36% Calm Calm 5.6 mph9.0 kmh 29.07 in984.4 mb 0.00 in0.0 mm 0.00 in/hr0.0 mm/hr 0.00 in0.0 mm
12:50 PM 91.8°F33.2°C 60.8°F16.0°C 36% Calm Calm 6.5 mph10.5 kmh 29.07 in984.4 mb 0.00 in0.0 mm 0.00 in/hr0.0 mm/hr 0.00 in0.0 mm
12:49 PM 91.9°F33.3°C 60.2°F15.7°C 35% Calm Calm 6.5 mph10.5 kmh 29.07 in984.4 mb 0.00 in0.0 mm 0.00 in/hr0.0 mm/hr 0.00 in0.0 mm
12:48 PM 91.9°F33.3°C 60.2°F15.7°C 35% Calm Calm 6.5 mph10.5 kmh 29.07 in984.4 mb 0.00 in0.0 mm 0.00 in/hr0.0 mm/hr 0.00 in0.0 mm
12:47 PM 91.9°F33.3°C 60.2°F15.7°C 35% Calm Calm 7.2 mph11.6 kmh 29.07 in984.4 mb 0.00 in0.0 mm 0.00 in/hr0.0 mm/hr 0.00 in0.0 mm
12:46 PM 91.9°F33.3°C 60.2°F15.7°C 35% 3.1 mph NW5.0 kmh NW 7.2 mph11.6 kmh 29.07 in984.4 mb 0.00 in0.0 mm 0.00 in/hr0.0 mm/hr 0.00 in0.0 mm
12:45 PM 92.1°F33.4°C 60.3°F15.7°C 35% 0.4 mph NW0.6 kmh NW 7.2 mph11.6 kmh 29.07 in984.4 mb 0.00 in0.0 mm 0.00 in/hr0.0 mm/hr 0.00 in0.0 mm
12:44 PM 92.1°F33.4°C 60.3°F15.7°C 35% Calm Calm 7.2 mph11.6 kmh 29.07 in984.4 mb 0.00 in0.0 mm 0.00 in/hr0.0 mm/hr 0.00 in0.0 mm
12:43 PM 92.3°F33.5°C 60.5°F15.8°C 35% Calm Calm 7.2 mph11.6 kmh 29.07 in984.4 mb 0.00 in0.0 mm 0.00 in/hr0.0 mm/hr 0.00 in0.0 mm
12:42 PM 92.5°F33.6°C 60.6°F15.9°C 35% Calm Calm 7.2 mph11.6 kmh 29.07 in984.4 mb 0.00 in0.0 mm 0.00 in/hr0.0 mm/hr 0.00 in0.0 mm
12:41 PM 92.5°F33.6°C 60.6°F15.9°C 35% 2.7 mph NW4.3 kmh NW 7.2 mph11.6 kmh 29.07 in984.4 mb 0.00 in0.0 mm 0.00 in/hr0.0 mm/hr 0.00 in0.0 mm
12:40 PM 92.5°F33.6°C 60.6°F15.9°C 35% 2.9 mph NW4.7 kmh NW 7.2 mph11.6 kmh 29.07 in984.4 mb 0.00 in0.0 mm 0.00 in/hr0.0 mm/hr 0.00 in0.0 mm
12:39 PM 92.7°F33.7°C 60.8°F16.0°C 35% 6.0 mph NW9.7 kmh NW 7.2 mph11.6 kmh 29.07 in984.4 mb 0.00 in0.0 mm 0.00 in/hr0.0 mm/hr 0.00 in0.0 mm
12:38 PM 92.8°F33.8°C 60.9°F16.1°C 35% 4.9 mph N7.9 kmh N 7.2 mph11.6 kmh 29.07 in984.4 mb 0.00 in0.0 mm 0.00 in/hr0.0 mm/hr 0.00 in0.0 mm
12:37 PM 92.8°F33.8°C 60.9°F16.1°C 35% 2.5 mph NE4.0 kmh NE 6.7 mph10.8 kmh 29.07 in984.4 mb 0.00 in0.0 mm 0.00 in/hr0.0 mm/hr 0.00 in0.0 mm
12:36 PM 93.0°F33.9°C 61.1°F16.2°C 35% Calm Calm 7.4 mph11.9 kmh 29.07 in984.4 mb 0.00 in0.0 mm 0.00 in/hr0.0 mm/hr 0.00 in0.0 mm
12:35 PM 93.0°F33.9°C 60.3°F15.7°C 34% Calm Calm 7.4 mph11.9 kmh 29.07 in984.4 mb 0.00 in0.0 mm 0.00 in/hr0.0 mm/hr 0.00 in0.0 mm
12:34 PM 93.4°F34.1°C 60.6°F15.9°C 34% Calm Calm 7.4 mph11.9 kmh 29.07 in984.4 mb 0.00 in0.0 mm 0.00 in/hr0.0 mm/hr 0.00 in0.0 mm
12:33 PM 93.4°F34.1°C 60.6°F15.9°C 34% Calm Calm 7.4 mph11.9 kmh 29.07 in984.4 mb 0.00 in0.0 mm 0.00 in/hr0.0 mm/hr 0.00 in0.0 mm
12:32 PM 93.7°F34.3°C 60.9°F16.1°C 34% Calm Calm 7.4 mph11.9 kmh 29.07 in984.4 mb 0.00 in0.0 mm 0.00 in/hr0.0 mm/hr 0.00 in0.0 mm
12:31 PM 93.9°F34.4°C 61.1°F16.2°C 34% Calm Calm 7.4 mph11.9 kmh 29.08 in984.8 mb 0.00 in0.0 mm 0.00 in/hr0.0 mm/hr 0.00 in0.0 mm
12:30 PM 93.9°F34.4°C 61.1°F16.2°C 34% Calm Calm 7.4 mph11.9 kmh 29.08 in984.8 mb 0.00 in0.0 mm 0.00 in/hr0.0 mm/hr 0.00 in0.0 mm
12:29 PM 94.1°F34.5°C 61.3°F16.3°C 34% Calm Calm 7.4 mph11.9 kmh 29.07 in984.4 mb 0.00 in0.0 mm 0.00 in/hr0.0 mm/hr 0.00 in0.0 mm
12:28 PM 94.3°F34.6°C 61.4°F16.3°C 34% 6.3 mph NE10.1 kmh NE 7.4 mph11.9 kmh 29.08 in984.8 mb 0.00 in0.0 mm 0.00 in/hr0.0 mm/hr 0.00 in0.0 mm
12:27 PM 94.3°F34.6°C 61.4°F16.3°C 34% 5.4 mph NNW8.7 kmh NNW 7.4 mph11.9 kmh 29.07 in984.4 mb 0.00 in0.0 mm 0.00 in/hr0.0 mm/hr 0.00 in0.0 mm
12:26 PM 94.5°F34.7°C 62.4°F16.9°C 35% 2.7 mph NW4.3 kmh NW 6.7 mph10.8 kmh 29.08 in984.8 mb 0.00 in0.0 mm 0.00 in/hr0.0 mm/hr 0.00 in0.0 mm
12:25 PM 94.6°F34.8°C 62.5°F16.9°C 35% Calm Calm 6.7 mph10.8 kmh 29.07 in984.4 mb 0.00 in0.0 mm 0.00 in/hr0.0 mm/hr 0.00 in0.0 mm
12:24 PM 94.6°F34.8°C 62.5°F16.9°C 35% Calm Calm 6.7 mph10.8 kmh 29.08 in984.8 mb 0.00 in0.0 mm 0.00 in/hr0.0 mm/hr 0.00 in0.0 mm
12:23 PM 94.8°F34.9°C 61.9°F16.6°C 34% Calm Calm 6.7 mph10.8 kmh 29.08 in984.8 mb 0.00 in0.0 mm 0.00 in/hr0.0 mm/hr 0.00 in0.0 mm
12:22 PM 94.8°F34.9°C 61.9°F16.6°C 34% Calm Calm 6.7 mph10.8 kmh 29.08 in984.8 mb 0.00 in0.0 mm 0.00 in/hr0.0 mm/hr 0.00 in0.0 mm
12:21 PM 94.8°F34.9°C 61.9°F16.6°C 34% Calm Calm 6.7 mph10.8 kmh 29.08 in984.8 mb 0.00 in0.0 mm 0.00 in/hr0.0 mm/hr 0.00 in0.0 mm
12:20 PM 95.2°F35.1°C 62.2°F16.8°C 34% Calm Calm 6.7 mph10.8 kmh 29.08 in984.8 mb 0.00 in0.0 mm 0.00 in/hr0.0 mm/hr 0.00 in0.0 mm
12:19 PM 95.4°F35.2°C 62.3°F16.8°C 34% Calm Calm 6.7 mph10.8 kmh 29.08 in984.8 mb 0.00 in0.0 mm 0.00 in/hr0.0 mm/hr 0.00 in0.0 mm
12:18 PM 95.5°F35.3°C 62.5°F16.9°C 34% 6.0 mph NW9.7 kmh NW 6.7 mph10.8 kmh 29.08 in984.8 mb 0.00 in0.0 mm 0.00 in/hr0.0 mm/hr 0.00 in0.0 mm
12:17 PM 95.7°F35.4°C 62.7°F17.1°C 34% Calm Calm 6.7 mph10.8 kmh 29.08 in984.8 mb 0.00 in0.0 mm 0.00 in/hr0.0 mm/hr 0.00 in0.0 mm
12:16 PM 95.9°F35.5°C 62.8°F17.1°C 34% 3.8 mph NNE6.1 kmh NNE 6.7 mph10.8 kmh 29.08 in984.8 mb 0.00 in0.0 mm 0.00 in/hr0.0 mm/hr 0.00 in0.0 mm
12:15 PM 96.1°F35.6°C 63.0°F17.2°C 34% Calm Calm 6.7 mph10.8 kmh 29.08 in984.8 mb 0.00 in0.0 mm 0.00 in/hr0.0 mm/hr 0.00 in0.0 mm
12:14 PM 96.1°F35.6°C 63.0°F17.2°C 34% Calm Calm 6.7 mph10.8 kmh 29.08 in984.8 mb 0.00 in0.0 mm 0.00 in/hr0.0 mm/hr 0.00 in0.0 mm
12:13 PM 96.4°F35.8°C 63.3°F17.4°C 34% 0.2 mph N0.3 kmh N 6.7 mph10.8 kmh 29.08 in984.8 mb 0.00 in0.0 mm 0.00 in/hr0.0 mm/hr 0.00 in0.0 mm
12:12 PM 96.6°F35.9°C 63.4°F17.4°C 34% 3.1 mph N5.0 kmh N 6.7 mph10.8 kmh 29.08 in984.8 mb 0.00 in0.0 mm 0.00 in/hr0.0 mm/hr 0.00 in0.0 mm
12:11 PM 96.6°F35.9°C 62.6°F17.0°C 33% Calm Calm 6.7 mph10.8 kmh 29.08 in984.8 mb 0.00 in0.0 mm 0.00 in/hr0.0 mm/hr 0.00 in0.0 mm
12:10 PM 96.6°F35.9°C 62.6°F17.0°C 33% Calm Calm 6.7 mph10.8 kmh 29.08 in984.8 mb 0.00 in0.0 mm 0.00 in/hr0.0 mm/hr 0.00 in0.0 mm
12:09 PM 96.6°F35.9°C 63.4°F17.4°C 34% 5.1 mph NNW8.2 kmh NNW 6.7 mph10.8 kmh 29.08 in984.8 mb 0.00 in0.0 mm 0.00 in/hr0.0 mm/hr 0.00 in0.0 mm
12:08 PM 96.6°F35.9°C 63.4°F17.4°C 34% Calm Calm 6.5 mph10.5 kmh 29.08 in984.8 mb 0.00 in0.0 mm 0.00 in/hr0.0 mm/hr 0.00 in0.0 mm
12:07 PM 96.4°F35.8°C 63.3°F17.4°C 34% 2.7 mph NNW4.3 kmh NNW 6.5 mph10.5 kmh 29.08 in984.8 mb 0.00 in0.0 mm 0.00 in/hr0.0 mm/hr 0.00 in0.0 mm
12:06 PM 96.1°F35.6°C 63.0°F17.2°C 34% 3.4 mph NNW5.5 kmh NNW 6.5 mph10.5 kmh 29.08 in984.8 mb 0.00 in0.0 mm 0.00 in/hr0.0 mm/hr 0.00 in0.0 mm
12:05 PM 95.7°F35.4°C 63.5°F17.5°C 35% 3.1 mph NW5.0 kmh NW 6.5 mph10.5 kmh 29.08 in984.8 mb 0.00 in0.0 mm 0.00 in/hr0.0 mm/hr 0.00 in0.0 mm
12:04 PM 95.2°F35.1°C 63.0°F17.2°C 35% 2.9 mph NNW4.7 kmh NNW 6.5 mph10.5 kmh 29.08 in984.8 mb 0.00 in0.0 mm 0.00 in/hr0.0 mm/hr 0.00 in0.0 mm
12:03 PM 94.6°F34.8°C 62.5°F16.9°C 35% 4.9 mph NNW7.9 kmh NNW 6.5 mph10.5 kmh 29.08 in984.8 mb 0.00 in0.0 mm 0.00 in/hr0.0 mm/hr 0.00 in0.0 mm
12:02 PM 94.3°F34.6°C 62.1°F16.7°C 35% 4.3 mph N6.9 kmh N 8.1 mph13.0 kmh 29.08 in984.8 mb 0.00 in0.0 mm 0.00 in/hr0.0 mm/hr 0.00 in0.0 mm
12:01 PM 93.9°F34.4°C 61.9°F16.6°C 35% 2.9 mph NNE4.7 kmh NNE 8.1 mph13.0 kmh 29.08 in984.8 mb 0.00 in0.0 mm 0.00 in/hr0.0 mm/hr 0.00 in0.0 mm
12:00 PM 93.7°F34.3°C 61.7°F16.5°C 35% 4.9 mph NE7.9 kmh NE 8.1 mph13.0 kmh 29.08 in984.8 mb 0.00 in0.0 mm 0.00 in/hr0.0 mm/hr 0.00 in0.0 mm
11:59 AM 93.6°F34.2°C 60.8°F16.0°C 34% 4.3 mph ENE6.9 kmh ENE 8.1 mph13.0 kmh 29.08 in984.8 mb 0.00 in0.0 mm 0.00 in/hr0.0 mm/hr 0.00 in0.0 mm
11:58 AM 93.6°F34.2°C 60.8°F16.0°C 34% Calm Calm 8.1 mph13.0 kmh 29.08 in984.8 mb 0.00 in0.0 mm 0.00 in/hr0.0 mm/hr 0.00 in0.0 mm
11:57 AM 93.7°F34.3°C 60.9°F16.1°C 34% 1.3 mph ENE2.1 kmh ENE 8.1 mph13.0 kmh 29.08 in984.8 mb 0.00 in0.0 mm 0.00 in/hr0.0 mm/hr 0.00 in0.0 mm
11:56 AM 93.9°F34.4°C 61.1°F16.2°C 34% Calm Calm 8.1 mph13.0 kmh 29.08 in984.8 mb 0.00 in0.0 mm 0.00 in/hr0.0 mm/hr 0.00 in0.0 mm
11:55 AM 93.9°F34.4°C 61.1°F16.2°C 34% Calm Calm 8.1 mph13.0 kmh 29.08 in984.8 mb 0.00 in0.0 mm 0.00 in/hr0.0 mm/hr 0.00 in0.0 mm
11:54 AM 94.3°F34.6°C 60.6°F15.9°C 33% Calm Calm 8.1 mph13.0 kmh 29.08 in984.8 mb 0.00 in0.0 mm 0.00 in/hr0.0 mm/hr 0.00 in0.0 mm
11:53 AM 94.6°F34.8°C 60.9°F16.1°C 33% 3.8 mph ENE6.1 kmh ENE 8.1 mph13.0 kmh 29.08 in984.8 mb 0.00 in0.0 mm 0.00 in/hr0.0 mm/hr 0.00 in0.0 mm
11:52 AM 94.8°F34.9°C 61.1°F16.2°C 33% 4.0 mph E6.4 kmh E 7.4 mph11.9 kmh 29.08 in984.8 mb 0.00 in0.0 mm 0.00 in/hr0.0 mm/hr 0.00 in0.0 mm
11:51 AM 95.2°F35.1°C 62.2°F16.8°C 34% 4.0 mph E6.4 kmh E 7.4 mph11.9 kmh 29.08 in984.8 mb 0.00 in0.0 mm 0.00 in/hr0.0 mm/hr 0.00 in0.0 mm
11:50 AM 95.2°F35.1°C 62.2°F16.8°C 34% 5.6 mph E9.0 kmh E 7.2 mph11.6 kmh 29.08 in984.8 mb 0.00 in0.0 mm 0.00 in/hr0.0 mm/hr 0.00 in0.0 mm
11:49 AM 95.4°F35.2°C 62.3°F16.8°C 34% Calm Calm 7.2 mph11.6 kmh 29.08 in984.8 mb 0.00 in0.0 mm 0.00 in/hr0.0 mm/hr 0.00 in0.0 mm
11:48 AM 95.5°F35.3°C 62.5°F16.9°C 34% Calm Calm 7.2 mph11.6 kmh 29.09 in985.1 mb 0.00 in0.0 mm 0.00 in/hr0.0 mm/hr 0.00 in0.0 mm
11:47 AM 95.5°F35.3°C 62.5°F16.9°C 34% Calm Calm 7.2 mph11.6 kmh 29.08 in984.8 mb 0.00 in0.0 mm 0.00 in/hr0.0 mm/hr 0.00 in0.0 mm
11:46 AM 95.5°F35.3°C 62.5°F16.9°C 34% Calm Calm 7.2 mph11.6 kmh 29.09 in985.1 mb 0.00 in0.0 mm 0.00 in/hr0.0 mm/hr 0.00 in0.0 mm
11:45 AM 95.5°F35.3°C 62.5°F16.9°C 34% Calm Calm 7.8 mph12.6 kmh 29.08 in984.8 mb 0.00 in0.0 mm 0.00 in/hr0.0 mm/hr 0.00 in0.0 mm
11:44 AM 95.5°F35.3°C 62.5°F16.9°C 34% Calm Calm 7.8 mph12.6 kmh 29.08 in984.8 mb 0.00 in0.0 mm 0.00 in/hr0.0 mm/hr 0.00 in0.0 mm
11:43 AM 95.5°F35.3°C 62.5°F16.9°C 34% Calm Calm 8.3 mph13.4 kmh 29.08 in984.8 mb 0.00 in0.0 mm 0.00 in/hr0.0 mm/hr 0.00 in0.0 mm
11:42 AM 95.5°F35.3°C 62.5°F16.9°C 34% Calm Calm 8.3 mph13.4 kmh 29.08 in984.8 mb 0.00 in0.0 mm 0.00 in/hr0.0 mm/hr 0.00 in0.0 mm
11:41 AM 95.4°F35.2°C 62.3°F16.8°C 34% 5.8 mph NNE9.3 kmh NNE 8.3 mph13.4 kmh 29.08 in984.8 mb 0.00 in0.0 mm 0.00 in/hr0.0 mm/hr 0.00 in0.0 mm
11:40 AM 95.2°F35.1°C 62.2°F16.8°C 34% Calm Calm 8.3 mph13.4 kmh 29.08 in984.8 mb 0.00 in0.0 mm 0.00 in/hr0.0 mm/hr 0.00 in0.0 mm
11:39 AM 95.0°F35.0°C 62.1°F16.7°C 34% 2.5 mph NNE4.0 kmh NNE 8.3 mph13.4 kmh 29.08 in984.8 mb 0.00 in0.0 mm 0.00 in/hr0.0 mm/hr 0.00 in0.0 mm
11:38 AM 94.8°F34.9°C 61.9°F16.6°C 34% 3.1 mph NNE5.0 kmh NNE 8.5 mph13.7 kmh 29.08 in984.8 mb 0.00 in0.0 mm 0.00 in/hr0.0 mm/hr 0.00 in0.0 mm
11:37 AM 94.8°F34.9°C 61.9°F16.6°C 34% Calm Calm 8.5 mph13.7 kmh 29.08 in984.8 mb 0.00 in0.0 mm 0.00 in/hr0.0 mm/hr 0.00 in0.0 mm
11:36 AM 94.6°F34.8°C 62.5°F16.9°C 35% 7.2 mph NNE11.6 kmh NNE 8.5 mph13.7 kmh 29.08 in984.8 mb 0.00 in0.0 mm 0.00 in/hr0.0 mm/hr 0.00 in0.0 mm
11:35 AM 94.5°F34.7°C 62.4°F16.9°C 35% Calm Calm 8.5 mph13.7 kmh 29.08 in984.8 mb 0.00 in0.0 mm 0.00 in/hr0.0 mm/hr 0.00 in0.0 mm
11:34 AM 93.9°F34.4°C 61.9°F16.6°C 35% Calm Calm 8.5 mph13.7 kmh 29.08 in984.8 mb 0.00 in0.0 mm 0.00 in/hr0.0 mm/hr 0.00 in0.0 mm
11:33 AM 93.7°F34.3°C 61.7°F16.5°C 35% 6.9 mph NNE11.1 kmh NNE 8.5 mph13.7 kmh 29.08 in984.8 mb 0.00 in0.0 mm 0.00 in/hr0.0 mm/hr 0.00 in0.0 mm
11:32 AM 93.0°F33.9°C 61.1°F16.2°C 35% 3.8 mph NE6.1 kmh NE 8.9 mph14.3 kmh 29.08 in984.8 mb 0.00 in0.0 mm 0.00 in/hr0.0 mm/hr 0.00 in0.0 mm
11:31 AM 92.8°F33.8°C 60.9°F16.1°C 35% 6.5 mph NE10.5 kmh NE 8.9 mph14.3 kmh 29.08 in984.8 mb 0.00 in0.0 mm 0.00 in/hr0.0 mm/hr 0.00 in0.0 mm
11:30 AM 92.5°F33.6°C 60.6°F15.9°C 35% 6.5 mph NE10.5 kmh NE 8.9 mph14.3 kmh 29.08 in984.8 mb 0.00 in0.0 mm 0.00 in/hr0.0 mm/hr 0.00 in0.0 mm
11:29 AM 92.1°F33.4°C 60.3°F15.7°C 35% Calm Calm 8.9 mph14.3 kmh 29.08 in984.8 mb 0.00 in0.0 mm 0.00 in/hr0.0 mm/hr 0.00 in0.0 mm
11:28 AM 92.1°F33.4°C 60.3°F15.7°C 35% 1.6 mph NE2.6 kmh NE 8.9 mph14.3 kmh 29.08 in984.8 mb 0.00 in0.0 mm 0.00 in/hr0.0 mm/hr 0.00 in0.0 mm
11:27 AM 91.9°F33.3°C 60.2°F15.7°C 35% Calm Calm 8.9 mph14.3 kmh 29.08 in984.8 mb 0.00 in0.0 mm 0.00 in/hr0.0 mm/hr 0.00 in0.0 mm
11:26 AM 91.8°F33.2°C 60.0°F15.6°C 35% 3.4 mph ENE5.5 kmh ENE 8.9 mph14.3 kmh 29.08 in984.8 mb 0.00 in0.0 mm 0.00 in/hr0.0 mm/hr 0.00 in0.0 mm
11:25 AM 91.8°F33.2°C 60.8°F16.0°C 36% 3.4 mph ENE5.5 kmh ENE 8.9 mph14.3 kmh 29.09 in985.1 mb 0.00 in0.0 mm 0.00 in/hr0.0 mm/hr 0.00 in0.0 mm
11:24 AM 91.8°F33.2°C 60.8°F16.0°C 36% 1.6 mph E2.6 kmh E 8.9 mph14.3 kmh 29.09 in985.1 mb 0.00 in0.0 mm 0.00 in/hr0.0 mm/hr 0.00 in0.0 mm
11:23 AM 91.6°F33.1°C 60.7°F15.9°C 36% 6.3 mph E10.1 kmh E 8.9 mph14.3 kmh 29.08 in984.8 mb 0.00 in0.0 mm 0.00 in/hr0.0 mm/hr 0.00 in0.0 mm
11:22 AM 91.6°F33.1°C 60.7°F15.9°C 36% 5.6 mph E9.0 kmh E 8.1 mph13.0 kmh 29.08 in984.8 mb 0.00 in0.0 mm 0.00 in/hr0.0 mm/hr 0.00 in0.0 mm
11:21 AM 91.6°F33.1°C 60.7°F15.9°C 36% 1.8 mph E2.9 kmh E 7.2 mph11.6 kmh 29.08 in984.8 mb 0.00 in0.0 mm 0.00 in/hr0.0 mm/hr 0.00 in0.0 mm
11:20 AM 91.6°F33.1°C 60.7°F15.9°C 36% Calm Calm 7.2 mph11.6 kmh 29.08 in984.8 mb 0.00 in0.0 mm 0.00 in/hr0.0 mm/hr 0.00 in0.0 mm
11:19 AM 91.6°F33.1°C 60.7°F15.9°C 36% Calm Calm 7.2 mph11.6 kmh 29.08 in984.8 mb 0.00 in0.0 mm 0.00 in/hr0.0 mm/hr 0.00 in0.0 mm
11:18 AM 91.9°F33.3°C 61.0°F16.1°C 36% 3.1 mph E5.0 kmh E 7.2 mph11.6 kmh 29.08 in984.8 mb 0.00 in0.0 mm 0.00 in/hr0.0 mm/hr 0.00 in0.0 mm
11:17 AM 92.1°F33.4°C 61.1°F16.2°C 36% 1.8 mph E2.9 kmh E 7.2 mph11.6 kmh 29.08 in984.8 mb 0.00 in0.0 mm 0.00 in/hr0.0 mm/hr 0.00 in0.0 mm
11:16 AM 92.5°F33.6°C 61.4°F16.3°C 36% 5.1 mph E8.2 kmh E 7.2 mph11.6 kmh 29.08 in984.8 mb 0.00 in0.0 mm 0.00 in/hr0.0 mm/hr 0.00 in0.0 mm
11:15 AM 92.8°F33.8°C 61.7°F16.5°C 36% 5.1 mph E8.2 kmh E 6.3 mph10.1 kmh 29.08 in984.8 mb 0.00 in0.0 mm 0.00 in/hr0.0 mm/hr 0.00 in0.0 mm
11:14 AM 92.8°F33.8°C 61.7°F16.5°C 36% Calm Calm 6.3 mph10.1 kmh 29.08 in984.8 mb 0.00 in0.0 mm 0.00 in/hr0.0 mm/hr 0.00 in0.0 mm
11:13 AM 93.0°F33.9°C 61.9°F16.6°C 36% 2.9 mph E4.7 kmh E 6.3 mph10.1 kmh 29.08 in984.8 mb 0.00 in0.0 mm 0.00 in/hr0.0 mm/hr 0.00 in0.0 mm
11:12 AM 93.4°F34.1°C 62.2°F16.8°C 36% 4.0 mph E6.4 kmh E 8.9 mph14.3 kmh 29.08 in984.8 mb 0.00 in0.0 mm 0.00 in/hr0.0 mm/hr 0.00 in0.0 mm
11:11 AM 93.4°F34.1°C 62.2°F16.8°C 36% 3.6 mph E5.8 kmh E 8.9 mph14.3 kmh 29.08 in984.8 mb 0.00 in0.0 mm 0.00 in/hr0.0 mm/hr 0.00 in0.0 mm
11:10 AM 93.4°F34.1°C 62.2°F16.8°C 36% 5.8 mph ENE9.3 kmh ENE 8.9 mph14.3 kmh 29.08 in984.8 mb 0.00 in0.0 mm 0.00 in/hr0.0 mm/hr 0.00 in0.0 mm
11:09 AM 93.4°F34.1°C 62.2°F16.8°C 36% 2.2 mph NE3.5 kmh NE 9.2 mph14.8 kmh 29.08 in984.8 mb 0.00 in0.0 mm 0.00 in/hr0.0 mm/hr 0.00 in0.0 mm
11:08 AM 93.0°F33.9°C 61.9°F16.6°C 36% 5.4 mph NE8.7 kmh NE 9.2 mph14.8 kmh 29.08 in984.8 mb 0.00 in0.0 mm 0.00 in/hr0.0 mm/hr 0.00 in0.0 mm
11:07 AM 93.0°F33.9°C 61.9°F16.6°C 36% Calm Calm 9.2 mph14.8 kmh 29.08 in984.8 mb 0.00 in0.0 mm 0.00 in/hr0.0 mm/hr 0.00 in0.0 mm
11:06 AM 93.0°F33.9°C 62.7°F17.1°C 37% 1.3 mph NE2.1 kmh NE 9.2 mph14.8 kmh 29.08 in984.8 mb 0.00 in0.0 mm 0.00 in/hr0.0 mm/hr 0.00 in0.0 mm
11:05 AM 93.0°F33.9°C 63.5°F17.5°C 38% Calm Calm 9.2 mph14.8 kmh 29.08 in984.8 mb 0.00 in0.0 mm 0.00 in/hr0.0 mm/hr 0.00 in0.0 mm
11:04 AM 93.0°F33.9°C 63.5°F17.5°C 38% 3.1 mph NE5.0 kmh NE 9.2 mph14.8 kmh 29.08 in984.8 mb 0.00 in0.0 mm 0.00 in/hr0.0 mm/hr 0.00 in0.0 mm
11:03 AM 92.8°F33.8°C 63.4°F17.4°C 38% Calm Calm 9.2 mph14.8 kmh 29.08 in984.8 mb 0.00 in0.0 mm 0.00 in/hr0.0 mm/hr 0.00 in0.0 mm
11:02 AM 92.8°F33.8°C 63.4°F17.4°C 38% 3.8 mph N6.1 kmh N 9.8 mph15.8 kmh 29.08 in984.8 mb 0.00 in0.0 mm 0.00 in/hr0.0 mm/hr 0.00 in0.0 mm
11:01 AM 92.7°F33.7°C 64.0°F17.8°C 39% 4.0 mph N6.4 kmh N 9.8 mph15.8 kmh 29.08 in984.8 mb 0.00 in0.0 mm 0.00 in/hr0.0 mm/hr 0.00 in0.0 mm
11:00 AM 92.5°F33.6°C 63.8°F17.7°C 39% 9.2 mph N14.8 kmh N 9.8 mph15.8 kmh 29.08 in984.8 mb 0.00 in0.0 mm 0.00 in/hr0.0 mm/hr 0.00 in0.0 mm
10:59 AM 92.5°F33.6°C 63.8°F17.7°C 39% 5.6 mph N9.0 kmh N 9.8 mph15.8 kmh 29.08 in984.8 mb 0.00 in0.0 mm 0.00 in/hr0.0 mm/hr 0.00 in0.0 mm
10:58 AM 92.3°F33.5°C 63.7°F17.6°C 39% 1.8 mph N2.9 kmh N 9.8 mph15.8 kmh 29.08 in984.8 mb 0.00 in0.0 mm 0.00 in/hr0.0 mm/hr 0.00 in0.0 mm
10:57 AM 92.1°F33.4°C 63.5°F17.5°C 39% Calm Calm 9.8 mph15.8 kmh 29.08 in984.8 mb 0.00 in0.0 mm 0.00 in/hr0.0 mm/hr 0.00 in0.0 mm
10:56 AM 92.1°F33.4°C 63.5°F17.5°C 39% 5.6 mph N9.0 kmh N 9.8 mph15.8 kmh 29.08 in984.8 mb 0.00 in0.0 mm 0.00 in/hr0.0 mm/hr 0.00 in0.0 mm
10:55 AM 91.9°F33.3°C 64.2°F17.9°C 39% 4.9 mph N7.9 kmh N 9.8 mph15.8 kmh 29.08 in984.8 mb 0.00 in0.0 mm 0.00 in/hr0.0 mm/hr 0.00 in0.0 mm
10:54 AM 91.8°F33.2°C 64.0°F17.8°C 40% 3.8 mph N6.1 kmh N 9.8 mph15.8 kmh 29.08 in984.8 mb 0.00 in0.0 mm 0.00 in/hr0.0 mm/hr 0.00 in0.0 mm
10:53 AM 91.8°F33.2°C 64.0°F17.8°C 40% 9.4 mph N15.1 kmh N 9.8 mph15.8 kmh 29.08 in984.8 mb 0.00 in0.0 mm 0.00 in/hr0.0 mm/hr 0.00 in0.0 mm
10:52 AM 91.8°F33.2°C 64.0°F17.8°C 40% 5.1 mph NNE8.2 kmh NNE 7.6 mph12.2 kmh 29.08 in984.8 mb 0.00 in0.0 mm 0.00 in/hr0.0 mm/hr 0.00 in0.0 mm
10:51 AM 91.8°F33.2°C 64.0°F17.8°C 40% Calm Calm 7.6 mph12.2 kmh 29.08 in984.8 mb 0.00 in0.0 mm 0.00 in/hr0.0 mm/hr 0.00 in0.0 mm
10:50 AM 91.8°F33.2°C 64.0°F17.8°C 40% Calm Calm 7.6 mph12.2 kmh 29.08 in984.8 mb 0.00 in0.0 mm 0.00 in/hr0.0 mm/hr 0.00 in0.0 mm
10:49 AM 91.8°F33.2°C 64.0°F17.8°C 40% 3.1 mph NNE5.0 kmh NNE 7.6 mph12.2 kmh 29.08 in984.8 mb 0.00 in0.0 mm 0.00 in/hr0.0 mm/hr 0.00 in0.0 mm
10:48 AM 91.8°F33.2°C 64.0°F17.8°C 40% 2.9 mph NNE4.7 kmh NNE 7.6 mph12.2 kmh 29.08 in984.8 mb 0.00 in0.0 mm 0.00 in/hr0.0 mm/hr 0.00 in0.0 mm
10:47 AM 91.8°F33.2°C 64.0°F17.8°C 40% 2.9 mph NE4.7 kmh NE 7.6 mph12.2 kmh 29.08 in984.8 mb 0.00 in0.0 mm 0.00 in/hr0.0 mm/hr 0.00 in0.0 mm
10:46 AM 91.8°F33.2°C 64.0°F17.8°C 40% 3.6 mph NE5.8 kmh NE 7.6 mph12.2 kmh 29.08 in984.8 mb 0.00 in0.0 mm 0.00 in/hr0.0 mm/hr 0.00 in0.0 mm
10:45 AM 91.6°F33.1°C 63.8°F17.7°C 40% 6.9 mph NNE11.1 kmh NNE 7.2 mph11.6 kmh 29.08 in984.8 mb 0.00 in0.0 mm 0.00 in/hr0.0 mm/hr 0.00 in0.0 mm
10:44 AM 91.6°F33.1°C 63.8°F17.7°C 40% 1.6 mph NNE2.6 kmh NNE 5.8 mph9.3 kmh 29.08 in984.8 mb 0.00 in0.0 mm 0.00 in/hr0.0 mm/hr 0.00 in0.0 mm
10:43 AM 91.4°F33.0°C 63.7°F17.6°C 40% 3.1 mph NNE5.0 kmh NNE 5.8 mph9.3 kmh 29.08 in984.8 mb 0.00 in0.0 mm 0.00 in/hr0.0 mm/hr 0.00 in0.0 mm
10:42 AM 91.4°F33.0°C 63.7°F17.6°C 40% 3.4 mph NNE5.5 kmh NNE 5.8 mph9.3 kmh 29.08 in984.8 mb 0.00 in0.0 mm 0.00 in/hr0.0 mm/hr 0.00 in0.0 mm
10:41 AM 91.2°F32.9°C 63.5°F17.5°C 40% 4.5 mph NNE7.2 kmh NNE 5.8 mph9.3 kmh 29.08 in984.8 mb 0.00 in0.0 mm 0.00 in/hr0.0 mm/hr 0.00 in0.0 mm
10:40 AM 91.2°F32.9°C 63.5°F17.5°C 40% 2.7 mph NE4.3 kmh NE 5.8 mph9.3 kmh 29.08 in984.8 mb 0.00 in0.0 mm 0.00 in/hr0.0 mm/hr 0.00 in0.0 mm
10:39 AM 91.2°F32.9°C 63.5°F17.5°C 40% 3.1 mph NNE5.0 kmh NNE 5.8 mph9.3 kmh 29.08 in984.8 mb 0.00 in0.0 mm 0.00 in/hr0.0 mm/hr 0.00 in0.0 mm
10:38 AM 91.0°F32.8°C 63.4°F17.4°C 40% Calm Calm 8.3 mph13.4 kmh 29.08 in984.8 mb 0.00 in0.0 mm 0.00 in/hr0.0 mm/hr 0.00 in0.0 mm
10:37 AM 91.0°F32.8°C 63.4°F17.4°C 40% Calm Calm 8.3 mph13.4 kmh 29.08 in984.8 mb 0.00 in0.0 mm 0.00 in/hr0.0 mm/hr 0.00 in0.0 mm
10:36 AM 91.0°F32.8°C 63.4°F17.4°C 40% Calm Calm 8.3 mph13.4 kmh 29.08 in984.8 mb 0.00 in0.0 mm 0.00 in/hr0.0 mm/hr 0.00 in0.0 mm
10:35 AM 91.0°F32.8°C 63.4°F17.4°C 40% 5.4 mph NE8.7 kmh NE 8.3 mph13.4 kmh 29.08 in984.8 mb 0.00 in0.0 mm 0.00 in/hr0.0 mm/hr 0.00 in0.0 mm
10:34 AM 91.0°F32.8°C 63.4°F17.4°C 40% Calm Calm 8.3 mph13.4 kmh 29.08 in984.8 mb 0.00 in0.0 mm 0.00 in/hr0.0 mm/hr 0.00 in0.0 mm
10:33 AM 91.0°F32.8°C 63.4°F17.4°C 40% Calm Calm 8.3 mph13.4 kmh 29.08 in984.8 mb 0.00 in0.0 mm 0.00 in/hr0.0 mm/hr 0.00 in0.0 mm
10:32 AM 91.0°F32.8°C 63.4°F17.4°C 40% Calm Calm 8.3 mph13.4 kmh 29.08 in984.8 mb 0.00 in0.0 mm 0.00 in/hr0.0 mm/hr 0.00 in0.0 mm
10:31 AM 91.0°F32.8°C 63.4°F17.4°C 40% Calm Calm 8.3 mph13.4 kmh 29.08 in984.8 mb 0.00 in0.0 mm 0.00 in/hr0.0 mm/hr 0.00 in0.0 mm
10:30 AM 91.0°F32.8°C 63.4°F17.4°C 40% 4.0 mph NE6.4 kmh NE 8.3 mph13.4 kmh 29.08 in984.8 mb 0.00 in0.0 mm 0.00 in/hr0.0 mm/hr 0.00 in0.0 mm
10:29 AM 91.0°F32.8°C 63.4°F17.4°C 40% Calm Calm 8.3 mph13.4 kmh 29.08 in984.8 mb 0.00 in0.0 mm 0.00 in/hr0.0 mm/hr 0.00 in0.0 mm
10:28 AM 91.0°F32.8°C 63.4°F17.4°C 40% 4.0 mph NE6.4 kmh NE 7.4 mph11.9 kmh 29.08 in984.8 mb 0.00 in0.0 mm 0.00 in/hr0.0 mm/hr 0.00 in0.0 mm
10:27 AM 91.0°F32.8°C 63.4°F17.4°C 40% 5.1 mph NE8.2 kmh NE 7.4 mph11.9 kmh 29.08 in984.8 mb 0.00 in0.0 mm 0.00 in/hr0.0 mm/hr 0.00 in0.0 mm
10:26 AM 91.0°F32.8°C 63.4°F17.4°C 40% Calm Calm 7.4 mph11.9 kmh 29.08 in984.8 mb 0.00 in0.0 mm 0.00 in/hr0.0 mm/hr 0.00 in0.0 mm
10:25 AM 91.0°F32.8°C 63.4°F17.4°C 40% 4.3 mph NNE6.9 kmh NNE 7.4 mph11.9 kmh 29.08 in984.8 mb 0.00 in0.0 mm 0.00 in/hr0.0 mm/hr 0.00 in0.0 mm
10:24 AM 91.0°F32.8°C 63.4°F17.4°C 40% 1.3 mph N2.1 kmh N 7.4 mph11.9 kmh 29.08 in984.8 mb 0.00 in0.0 mm 0.00 in/hr0.0 mm/hr 0.00 in0.0 mm
10:23 AM 91.0°F32.8°C 63.4°F17.4°C 40% 1.3 mph N2.1 kmh N 7.4 mph11.9 kmh 29.08 in984.8 mb 0.00 in0.0 mm 0.00 in/hr0.0 mm/hr 0.00 in0.0 mm
10:22 AM 91.0°F32.8°C 63.4°F17.4°C 40% 4.3 mph N6.9 kmh N 7.4 mph11.9 kmh 29.08 in984.8 mb 0.00 in0.0 mm 0.00 in/hr0.0 mm/hr 0.00 in0.0 mm
10:21 AM 91.0°F32.8°C 63.4°F17.4°C 40% 1.8 mph N2.9 kmh N 7.4 mph11.9 kmh 29.08 in984.8 mb 0.00 in0.0 mm 0.00 in/hr0.0 mm/hr 0.00 in0.0 mm
10:20 AM 91.0°F32.8°C 63.4°F17.4°C 40% 2.0 mph N3.2 kmh N 7.2 mph11.6 kmh 29.08 in984.8 mb 0.00 in0.0 mm 0.00 in/hr0.0 mm/hr 0.00 in0.0 mm
10:19 AM 91.0°F32.8°C 63.4°F17.4°C 40% 6.0 mph N9.7 kmh N 7.2 mph11.6 kmh 29.08 in984.8 mb 0.00 in0.0 mm 0.00 in/hr0.0 mm/hr 0.00 in0.0 mm
10:18 AM 91.0°F32.8°C 63.4°F17.4°C 40% Calm Calm 7.6 mph12.2 kmh 29.08 in984.8 mb 0.00 in0.0 mm 0.00 in/hr0.0 mm/hr 0.00 in0.0 mm
10:17 AM 90.9°F32.7°C 63.8°F17.7°C 41% 1.3 mph N2.1 kmh N 9.2 mph14.8 kmh 29.08 in984.8 mb 0.00 in0.0 mm 0.00 in/hr0.0 mm/hr 0.00 in0.0 mm
10:16 AM 90.9°F32.7°C 63.7°F17.6°C 41% 5.1 mph N8.2 kmh N 9.2 mph14.8 kmh 29.08 in984.8 mb 0.00 in0.0 mm 0.00 in/hr0.0 mm/hr 0.00 in0.0 mm
10:15 AM 90.7°F32.6°C 63.7°F17.6°C 41% 3.8 mph N6.1 kmh N 9.2 mph14.8 kmh 29.08 in984.8 mb 0.00 in0.0 mm 0.00 in/hr0.0 mm/hr 0.00 in0.0 mm
10:14 AM 90.9°F32.7°C 63.8°F17.7°C 41% 2.2 mph NNE3.5 kmh NNE 9.2 mph14.8 kmh 29.08 in984.8 mb 0.00 in0.0 mm 0.00 in/hr0.0 mm/hr 0.00 in0.0 mm
10:13 AM 90.7°F32.6°C 63.7°F17.6°C 41% 5.4 mph N8.7 kmh N 9.2 mph14.8 kmh 29.08 in984.8 mb 0.00 in0.0 mm 0.00 in/hr0.0 mm/hr 0.00 in0.0 mm
10:12 AM 90.7°F32.6°C 63.7°F17.6°C 41% Calm Calm 9.2 mph14.8 kmh 29.08 in984.8 mb 0.00 in0.0 mm 0.00 in/hr0.0 mm/hr 0.00 in0.0 mm
10:11 AM 90.7°F32.6°C 63.7°F17.6°C 41% Calm Calm 9.2 mph14.8 kmh 29.08 in984.8 mb 0.00 in0.0 mm 0.00 in/hr0.0 mm/hr 0.00 in0.0 mm
10:10 AM 90.7°F32.6°C 63.7°F17.6°C 41% 3.8 mph N6.1 kmh N 9.2 mph14.8 kmh 29.08 in984.8 mb 0.00 in0.0 mm 0.00 in/hr0.0 mm/hr 0.00 in0.0 mm
10:09 AM 90.7°F32.6°C 63.7°F17.6°C 41% 3.4 mph N5.5 kmh N 9.2 mph14.8 kmh 29.09 in985.1 mb 0.00 in0.0 mm 0.00 in/hr0.0 mm/hr 0.00 in0.0 mm
10:08 AM 90.7°F32.6°C 64.3°F17.9°C 42% 9.2 mph N14.8 kmh N 9.2 mph14.8 kmh 29.08 in984.8 mb 0.00 in0.0 mm 0.00 in/hr0.0 mm/hr 0.00 in0.0 mm
10:07 AM 90.5°F32.5°C 64.2°F17.9°C 42% 5.8 mph N9.3 kmh N 7.6 mph12.2 kmh 29.08 in984.8 mb 0.00 in0.0 mm 0.00 in/hr0.0 mm/hr 0.00 in0.0 mm
10:06 AM 90.5°F32.5°C 64.2°F17.9°C 42% 2.0 mph N3.2 kmh N 7.6 mph12.2 kmh 29.08 in984.8 mb 0.00 in0.0 mm 0.00 in/hr0.0 mm/hr 0.00 in0.0 mm
10:05 AM 90.3°F32.4°C 64.0°F17.8°C 42% 2.9 mph N4.7 kmh N 7.6 mph12.2 kmh 29.08 in984.8 mb 0.00 in0.0 mm 0.00 in/hr0.0 mm/hr 0.00 in0.0 mm
10:04 AM 90.3°F32.4°C 64.7°F18.2°C 43% 6.9 mph N11.1 kmh N 7.6 mph12.2 kmh 29.08 in984.8 mb 0.00 in0.0 mm 0.00 in/hr0.0 mm/hr 0.00 in0.0 mm
10:03 AM 90.1°F32.3°C 64.5°F18.1°C 43% 2.0 mph NNW3.2 kmh NNW 7.6 mph12.2 kmh 29.08 in984.8 mb 0.00 in0.0 mm 0.00 in/hr0.0 mm/hr 0.00 in0.0 mm
10:02 AM 90.1°F32.3°C 64.5°F18.1°C 43% 2.7 mph NNW4.3 kmh NNW 7.6 mph12.2 kmh 29.08 in984.8 mb 0.00 in0.0 mm 0.00 in/hr0.0 mm/hr 0.00 in0.0 mm
10:01 AM 90.0°F32.2°C 64.3°F17.9°C 43% Calm Calm 7.6 mph12.2 kmh 29.08 in984.8 mb 0.00 in0.0 mm 0.00 in/hr0.0 mm/hr 0.00 in0.0 mm
10:00 AM 90.0°F32.2°C 64.3°F17.9°C 43% 7.6 mph NNW12.2 kmh NNW 7.6 mph12.2 kmh 29.08 in984.8 mb 0.00 in0.0 mm 0.00 in/hr0.0 mm/hr 0.00 in0.0 mm
09:59 AM 89.8°F32.1°C 64.2°F17.9°C 43% 1.3 mph NNW2.1 kmh NNW 7.4 mph11.9 kmh 29.08 in984.8 mb 0.00 in0.0 mm 0.00 in/hr0.0 mm/hr 0.00 in0.0 mm
09:58 AM 89.8°F32.1°C 64.2°F17.9°C 43% 3.8 mph NNW6.1 kmh NNW 7.4 mph11.9 kmh 29.08 in984.8 mb 0.00 in0.0 mm 0.00 in/hr0.0 mm/hr 0.00 in0.0 mm
09:57 AM 89.8°F32.1°C 64.2°F17.9°C 43% 1.3 mph NNW2.1 kmh NNW 7.4 mph11.9 kmh 29.08 in984.8 mb 0.00 in0.0 mm 0.00 in/hr0.0 mm/hr 0.00 in0.0 mm
09:56 AM 89.6°F32.0°C 63.8°F17.7°C 43% Calm Calm 7.4 mph11.9 kmh 29.08 in984.8 mb 0.00 in0.0 mm 0.00 in/hr0.0 mm/hr 0.00 in0.0 mm
09:55 AM 89.4°F31.9°C 63.8°F17.7°C 43% Calm Calm 7.4 mph11.9 kmh 29.08 in984.8 mb 0.00 in0.0 mm 0.00 in/hr0.0 mm/hr 0.00 in0.0 mm
09:54 AM 89.4°F31.9°C 63.8°F17.7°C 43% 2.2 mph NNW3.5 kmh NNW 7.4 mph11.9 kmh 29.08 in984.8 mb 0.00 in0.0 mm 0.00 in/hr0.0 mm/hr 0.00 in0.0 mm
09:53 AM 89.4°F31.9°C 63.8°F17.7°C 43% 7.2 mph NNW11.6 kmh NNW 7.4 mph11.9 kmh 29.08 in984.8 mb 0.00 in0.0 mm 0.00 in/hr0.0 mm/hr 0.00 in0.0 mm
09:52 AM 89.2°F31.8°C 63.7°F17.6°C 43% 6.0 mph NNW9.7 kmh NNW 7.4 mph11.9 kmh 29.08 in984.8 mb 0.00 in0.0 mm 0.00 in/hr0.0 mm/hr 0.00 in0.0 mm
09:51 AM 89.2°F31.8°C 63.7°F17.6°C 43% Calm Calm 7.4 mph11.9 kmh 29.08 in984.8 mb 0.00 in0.0 mm 0.00 in/hr0.0 mm/hr 0.00 in0.0 mm
09:50 AM 89.2°F31.8°C 63.7°F17.6°C 43% Calm Calm 7.4 mph11.9 kmh 29.08 in984.8 mb 0.00 in0.0 mm 0.00 in/hr0.0 mm/hr 0.00 in0.0 mm
09:49 AM 89.2°F31.8°C 63.7°F17.6°C 43% 5.4 mph N8.7 kmh N 7.4 mph11.9 kmh 29.09 in985.1 mb 0.00 in0.0 mm 0.00 in/hr0.0 mm/hr 0.00 in0.0 mm
09:48 AM 89.1°F31.7°C 63.6°F17.6°C 43% 5.6 mph N9.0 kmh N 7.4 mph11.9 kmh 29.09 in985.1 mb 0.00 in0.0 mm 0.00 in/hr0.0 mm/hr 0.00 in0.0 mm
09:47 AM 88.9°F31.6°C 64.0°F17.8°C 44% 5.4 mph N8.7 kmh N 7.4 mph11.9 kmh 29.09 in985.1 mb 0.00 in0.0 mm 0.00 in/hr0.0 mm/hr 0.00 in0.0 mm
09:46 AM 88.9°F31.6°C 64.0°F17.8°C 44% 3.8 mph N6.1 kmh N 7.4 mph11.9 kmh 29.09 in985.1 mb 0.00 in0.0 mm 0.00 in/hr0.0 mm/hr 0.00 in0.0 mm
09:45 AM 88.9°F31.6°C 64.0°F17.8°C 44% 6.7 mph N10.8 kmh N 7.4 mph11.9 kmh 29.09 in985.1 mb 0.00 in0.0 mm 0.00 in/hr0.0 mm/hr 0.00 in0.0 mm
09:44 AM 88.7°F31.5°C 63.9°F17.7°C 44% 3.1 mph NNE5.0 kmh NNE 6.7 mph10.8 kmh 29.09 in985.1 mb 0.00 in0.0 mm 0.00 in/hr0.0 mm/hr 0.00 in0.0 mm
09:43 AM 88.5°F31.4°C 63.7°F17.6°C 44% 2.5 mph NNE4.0 kmh NNE 6.7 mph10.8 kmh 29.09 in985.1 mb 0.00 in0.0 mm 0.00 in/hr0.0 mm/hr 0.00 in0.0 mm
09:42 AM 88.5°F31.4°C 63.7°F17.6°C 44% 6.7 mph N10.8 kmh N 6.7 mph10.8 kmh 29.09 in985.1 mb 0.00 in0.0 mm 0.00 in/hr0.0 mm/hr 0.00 in0.0 mm
09:41 AM 88.3°F31.3°C 64.2°F17.9°C 45% 5.1 mph N8.2 kmh N 6.5 mph10.5 kmh 29.08 in984.8 mb 0.00 in0.0 mm 0.00 in/hr0.0 mm/hr 0.00 in0.0 mm
09:40 AM 88.3°F31.3°C 64.2°F17.9°C 45% Calm Calm 6.5 mph10.5 kmh 29.09 in985.1 mb 0.00 in0.0 mm 0.00 in/hr0.0 mm/hr 0.00 in0.0 mm
09:39 AM 88.2°F31.2°C 64.1°F17.8°C 45% 3.1 mph N5.0 kmh N 6.5 mph10.5 kmh 29.09 in985.1 mb 0.00 in0.0 mm 0.00 in/hr0.0 mm/hr 0.00 in0.0 mm
09:38 AM 88.0°F31.1°C 63.9°F17.7°C 45% Calm Calm 6.0 mph9.7 kmh 29.09 in985.1 mb 0.00 in0.0 mm 0.00 in/hr0.0 mm/hr 0.00 in0.0 mm
09:37 AM 88.0°F31.1°C 63.9°F17.7°C 45% Calm Calm 6.0 mph9.7 kmh 29.09 in985.1 mb 0.00 in0.0 mm 0.00 in/hr0.0 mm/hr 0.00 in0.0 mm
09:36 AM 88.0°F31.1°C 63.3°F17.4°C 44% Calm Calm 6.0 mph9.7 kmh 29.09 in985.1 mb 0.00 in0.0 mm 0.00 in/hr0.0 mm/hr 0.00 in0.0 mm
09:35 AM 88.0°F31.1°C 63.3°F17.4°C 44% Calm Calm 6.5 mph10.5 kmh 29.09 in985.1 mb 0.00 in0.0 mm 0.00 in/hr0.0 mm/hr 0.00 in0.0 mm
09:34 AM 88.0°F31.1°C 63.3°F17.4°C 44% Calm Calm 6.5 mph10.5 kmh 29.08 in984.8 mb 0.00 in0.0 mm 0.00 in/hr0.0 mm/hr 0.00 in0.0 mm
09:33 AM 88.0°F31.1°C 63.3°F17.4°C 44% Calm Calm 6.5 mph10.5 kmh 29.08 in984.8 mb 0.00 in0.0 mm 0.00 in/hr0.0 mm/hr 0.00 in0.0 mm
09:32 AM 88.2°F31.2°C 63.4°F17.4°C 44% 3.1 mph NNW5.0 kmh NNW 6.5 mph10.5 kmh 29.08 in984.8 mb 0.00 in0.0 mm 0.00 in/hr0.0 mm/hr 0.00 in0.0 mm
09:31 AM 88.2°F31.2°C 63.4°F17.4°C 44% 3.4 mph NNW5.5 kmh NNW 6.5 mph10.5 kmh 29.08 in984.8 mb 0.00 in0.0 mm 0.00 in/hr0.0 mm/hr 0.00 in0.0 mm
09:30 AM 88.2°F31.2°C 63.4°F17.4°C 44% 5.6 mph NNW9.0 kmh NNW 6.5 mph10.5 kmh 29.08 in984.8 mb 0.00 in0.0 mm 0.00 in/hr0.0 mm/hr 0.00 in0.0 mm
09:29 AM 88.3°F31.3°C 63.6°F17.6°C 44% Calm Calm 8.5 mph13.7 kmh 29.08 in984.8 mb 0.00 in0.0 mm 0.00 in/hr0.0 mm/hr 0.00 in0.0 mm
09:28 AM 88.3°F31.3°C 64.2°F17.9°C 45% 3.4 mph NNW5.5 kmh NNW 8.5 mph13.7 kmh 29.09 in985.1 mb 0.00 in0.0 mm 0.00 in/hr0.0 mm/hr 0.00 in0.0 mm
09:27 AM 88.3°F31.3°C 64.2°F17.9°C 45% 5.6 mph NNW9.0 kmh NNW 8.5 mph13.7 kmh 29.09 in985.1 mb 0.00 in0.0 mm 0.00 in/hr0.0 mm/hr 0.00 in0.0 mm
09:26 AM 88.3°F31.3°C 64.2°F17.9°C 45% 4.9 mph NNW7.9 kmh NNW 8.5 mph13.7 kmh 29.09 in985.1 mb 0.00 in0.0 mm 0.00 in/hr0.0 mm/hr 0.00 in0.0 mm
09:25 AM 88.3°F31.3°C 64.2°F17.9°C 45% Calm Calm 8.5 mph13.7 kmh 29.09 in985.1 mb 0.00 in0.0 mm 0.00 in/hr0.0 mm/hr 0.00 in0.0 mm
09:24 AM 88.2°F31.2°C 64.1°F17.8°C 45% 3.1 mph NNW5.0 kmh NNW 8.5 mph13.7 kmh 29.09 in985.1 mb 0.00 in0.0 mm 0.00 in/hr0.0 mm/hr 0.00 in0.0 mm
09:23 AM 88.2°F31.2°C 64.1°F17.8°C 45% 3.4 mph NNW5.5 kmh NNW 8.5 mph13.7 kmh 29.09 in985.1 mb 0.00 in0.0 mm 0.00 in/hr0.0 mm/hr 0.00 in0.0 mm
09:22 AM 88.2°F31.2°C 64.1°F17.8°C 45% Calm Calm 8.5 mph13.7 kmh 29.09 in985.1 mb 0.00 in0.0 mm 0.00 in/hr0.0 mm/hr 0.00 in0.0 mm
09:21 AM 88.0°F31.1°C 63.9°F17.7°C 45% 2.2 mph N3.5 kmh N 8.5 mph13.7 kmh 29.09 in985.1 mb 0.00 in0.0 mm 0.00 in/hr0.0 mm/hr 0.00 in0.0 mm
09:20 AM 88.0°F31.1°C 64.5°F18.1°C 46% 4.5 mph N7.2 kmh N 8.5 mph13.7 kmh 29.09 in985.1 mb 0.00 in0.0 mm 0.00 in/hr0.0 mm/hr 0.00 in0.0 mm
09:19 AM 88.0°F31.1°C 64.5°F18.1°C 46% 3.8 mph N6.1 kmh N 7.8 mph12.6 kmh 29.09 in985.1 mb 0.00 in0.0 mm 0.00 in/hr0.0 mm/hr 0.00 in0.0 mm
09:18 AM 87.6°F30.9°C 64.2°F17.9°C 46% 2.5 mph N4.0 kmh N 7.8 mph12.6 kmh 29.09 in985.1 mb 0.00 in0.0 mm 0.00 in/hr0.0 mm/hr 0.00 in0.0 mm
09:17 AM 87.6°F30.9°C 64.2°F17.9°C 46% 3.8 mph N6.1 kmh N 7.8 mph12.6 kmh 29.09 in985.1 mb 0.00 in0.0 mm 0.00 in/hr0.0 mm/hr 0.00 in0.0 mm
09:16 AM 87.6°F30.9°C 64.2°F17.9°C 46% 4.5 mph N7.2 kmh N 6.7 mph10.8 kmh 29.09 in985.1 mb 0.00 in0.0 mm 0.00 in/hr0.0 mm/hr 0.00 in0.0 mm
09:15 AM 87.4°F30.8°C 64.7°F18.2°C 47% 4.0 mph N6.4 kmh N 6.7 mph10.8 kmh 29.09 in985.1 mb 0.00 in0.0 mm 0.00 in/hr0.0 mm/hr 0.00 in0.0 mm
09:14 AM 87.3°F30.7°C 64.5°F18.1°C 47% 3.1 mph N5.0 kmh N 7.2 mph11.6 kmh 29.09 in985.1 mb 0.00 in0.0 mm 0.00 in/hr0.0 mm/hr 0.00 in0.0 mm
09:13 AM 87.1°F30.6°C 64.4°F18.0°C 47% 2.0 mph N3.2 kmh N 7.2 mph11.6 kmh 29.09 in985.1 mb 0.00 in0.0 mm 0.00 in/hr0.0 mm/hr 0.00 in0.0 mm
09:12 AM 86.9°F30.5°C 64.2°F17.9°C 47% 4.5 mph N7.2 kmh N 7.2 mph11.6 kmh 29.09 in985.1 mb 0.00 in0.0 mm 0.00 in/hr0.0 mm/hr 0.00 in0.0 mm
09:11 AM 86.7°F30.4°C 64.1°F17.8°C 47% 2.7 mph N4.3 kmh N 7.2 mph11.6 kmh 29.09 in985.1 mb 0.00 in0.0 mm 0.00 in/hr0.0 mm/hr 0.00 in0.0 mm
09:10 AM 86.5°F30.3°C 63.9°F17.7°C 47% 3.6 mph N5.8 kmh N 7.2 mph11.6 kmh 29.09 in985.1 mb 0.00 in0.0 mm 0.00 in/hr0.0 mm/hr 0.00 in0.0 mm
09:09 AM 86.5°F30.3°C 63.9°F17.7°C 47% Calm Calm 7.2 mph11.6 kmh 29.09 in985.1 mb 0.00 in0.0 mm 0.00 in/hr0.0 mm/hr 0.00 in0.0 mm
09:08 AM 86.2°F30.1°C 63.6°F17.6°C 47% Calm Calm 7.2 mph11.6 kmh 29.09 in985.1 mb 0.00 in0.0 mm 0.00 in/hr0.0 mm/hr 0.00 in0.0 mm
09:07 AM 86.2°F30.1°C 64.2°F17.9°C 48% 3.6 mph N5.8 kmh N 7.2 mph11.6 kmh 29.08 in984.8 mb 0.00 in0.0 mm 0.00 in/hr0.0 mm/hr 0.00 in0.0 mm
09:06 AM 85.8°F29.9°C 63.9°F17.7°C 48% 3.6 mph N5.8 kmh N 7.2 mph11.6 kmh 29.09 in985.1 mb 0.00 in0.0 mm 0.00 in/hr0.0 mm/hr 0.00 in0.0 mm
09:05 AM 85.8°F29.9°C 63.9°F17.7°C 48% 6.0 mph N9.7 kmh N 7.2 mph11.6 kmh 29.09 in985.1 mb 0.00 in0.0 mm 0.00 in/hr0.0 mm/hr 0.00 in0.0 mm
09:04 AM 85.8°F29.9°C 63.9°F17.7°C 48% 5.8 mph N9.3 kmh N 7.2 mph11.6 kmh 29.09 in985.1 mb 0.00 in0.0 mm 0.00 in/hr0.0 mm/hr 0.00 in0.0 mm
09:03 AM 85.6°F29.8°C 63.7°F17.6°C 48% 6.5 mph NNW10.5 kmh NNW 7.2 mph11.6 kmh 29.09 in985.1 mb 0.00 in0.0 mm 0.00 in/hr0.0 mm/hr 0.00 in0.0 mm
09:02 AM 85.5°F29.7°C 63.6°F17.6°C 48% 4.0 mph NNW6.4 kmh NNW 7.2 mph11.6 kmh 29.09 in985.1 mb 0.00 in0.0 mm 0.00 in/hr0.0 mm/hr 0.00 in0.0 mm
09:01 AM 85.3°F29.6°C 64.0°F17.8°C 49% 3.1 mph N5.0 kmh N 7.2 mph11.6 kmh 29.09 in985.1 mb 0.00 in0.0 mm 0.00 in/hr0.0 mm/hr 0.00 in0.0 mm
09:00 AM 85.1°F29.5°C 63.9°F17.7°C 49% 7.2 mph N11.6 kmh N 7.2 mph11.6 kmh 29.09 in985.1 mb 0.00 in0.0 mm 0.00 in/hr0.0 mm/hr 0.00 in0.0 mm
08:59 AM 84.9°F29.4°C 63.7°F17.6°C 49% 4.5 mph N7.2 kmh N 6.7 mph10.8 kmh 29.09 in985.1 mb 0.00 in0.0 mm 0.00 in/hr0.0 mm/hr 0.00 in0.0 mm
08:58 AM 84.9°F29.4°C 63.7°F17.6°C 49% 3.8 mph N6.1 kmh N 6.7 mph10.8 kmh 29.09 in985.1 mb 0.00 in0.0 mm 0.00 in/hr0.0 mm/hr 0.00 in0.0 mm
08:57 AM 84.7°F29.3°C 63.5°F17.5°C 49% Calm Calm 6.7 mph10.8 kmh 29.08 in984.8 mb 0.00 in0.0 mm 0.00 in/hr0.0 mm/hr 0.00 in0.0 mm
08:56 AM 84.6°F29.2°C 63.4°F17.4°C 49% 4.0 mph N6.4 kmh N 6.7 mph10.8 kmh 29.09 in985.1 mb 0.00 in0.0 mm 0.00 in/hr0.0 mm/hr 0.00 in0.0 mm
08:55 AM 84.4°F29.1°C 63.8°F17.7°C 50% Calm Calm 6.7 mph10.8 kmh 29.08 in984.8 mb 0.00 in0.0 mm 0.00 in/hr0.0 mm/hr 0.00 in0.0 mm
08:54 AM 84.0°F28.9°C 63.5°F17.5°C 50% 2.0 mph N3.2 kmh N 6.7 mph10.8 kmh 29.08 in984.8 mb 0.00 in0.0 mm 0.00 in/hr0.0 mm/hr 0.00 in0.0 mm
08:53 AM 83.8°F28.8°C 63.3°F17.4°C 50% 6.7 mph N10.8 kmh N 6.7 mph10.8 kmh 29.09 in985.1 mb 0.00 in0.0 mm 0.00 in/hr0.0 mm/hr 0.00 in0.0 mm
08:52 AM 83.8°F28.8°C 63.3°F17.4°C 50% 3.8 mph N6.1 kmh N 6.5 mph10.5 kmh 29.08 in984.8 mb 0.00 in0.0 mm 0.00 in/hr0.0 mm/hr 0.00 in0.0 mm
08:51 AM 83.5°F28.6°C 63.0°F17.2°C 50% 2.9 mph N4.7 kmh N 6.5 mph10.5 kmh 29.08 in984.8 mb 0.00 in0.0 mm 0.00 in/hr0.0 mm/hr 0.00 in0.0 mm
08:50 AM 83.5°F28.6°C 63.0°F17.2°C 50% Calm Calm 6.5 mph10.5 kmh 29.08 in984.8 mb 0.00 in0.0 mm 0.00 in/hr0.0 mm/hr 0.00 in0.0 mm
08:49 AM 83.3°F28.5°C 62.8°F17.1°C 50% 2.7 mph N4.3 kmh N 6.0 mph9.7 kmh 29.08 in984.8 mb 0.00 in0.0 mm 0.00 in/hr0.0 mm/hr 0.00 in0.0 mm
08:48 AM 83.1°F28.4°C 62.6°F17.0°C 50% 2.9 mph N4.7 kmh N 6.0 mph9.7 kmh 29.08 in984.8 mb 0.00 in0.0 mm 0.00 in/hr0.0 mm/hr 0.00 in0.0 mm
08:47 AM 82.9°F28.3°C 62.4°F16.9°C 50% 3.4 mph NNW5.5 kmh NNW 6.0 mph9.7 kmh 29.08 in984.8 mb 0.00 in0.0 mm 0.00 in/hr0.0 mm/hr 0.00 in0.0 mm
08:46 AM 82.8°F28.2°C 62.2°F16.8°C 50% 5.4 mph NNW8.7 kmh NNW 5.4 mph8.7 kmh 29.08 in984.8 mb 0.00 in0.0 mm 0.00 in/hr0.0 mm/hr 0.00 in0.0 mm
08:45 AM 82.8°F28.2°C 62.2°F16.8°C 50% Calm Calm 5.4 mph8.7 kmh 29.08 in984.8 mb 0.00 in0.0 mm 0.00 in/hr0.0 mm/hr 0.00 in0.0 mm
08:44 AM 82.6°F28.1°C 62.6°F17.0°C 51% Calm Calm 5.4 mph8.7 kmh 29.08 in984.8 mb 0.00 in0.0 mm 0.00 in/hr0.0 mm/hr 0.00 in0.0 mm
08:43 AM 82.4°F28.0°C 62.4°F16.9°C 51% Calm Calm 5.4 mph8.7 kmh 29.08 in984.8 mb 0.00 in0.0 mm 0.00 in/hr0.0 mm/hr 0.00 in0.0 mm
08:42 AM 82.2°F27.9°C 62.2°F16.8°C 51% Calm Calm 5.4 mph8.7 kmh 29.08 in984.8 mb 0.00 in0.0 mm 0.00 in/hr0.0 mm/hr 0.00 in0.0 mm
08:41 AM 82.2°F27.9°C 62.2°F16.8°C 51% Calm Calm 5.4 mph8.7 kmh 29.08 in984.8 mb 0.00 in0.0 mm 0.00 in/hr0.0 mm/hr 0.00 in0.0 mm
08:40 AM 82.0°F27.8°C 62.1°F16.7°C 51% Calm Calm 5.4 mph8.7 kmh 29.08 in984.8 mb 0.00 in0.0 mm 0.00 in/hr0.0 mm/hr 0.00 in0.0 mm
08:39 AM 82.0°F27.8°C 62.1°F16.7°C 51% 2.9 mph NNW4.7 kmh NNW 5.4 mph8.7 kmh 29.08 in984.8 mb 0.00 in0.0 mm 0.00 in/hr0.0 mm/hr 0.00 in0.0 mm
08:38 AM 82.0°F27.8°C 62.1°F16.7°C 51% 2.9 mph NNW4.7 kmh NNW 4.9 mph7.9 kmh 29.08 in984.8 mb 0.00 in0.0 mm 0.00 in/hr0.0 mm/hr 0.00 in0.0 mm
08:37 AM 81.7°F27.6°C 61.8°F16.6°C 51% Calm Calm 4.9 mph7.9 kmh 29.08 in984.8 mb 0.00 in0.0 mm 0.00 in/hr0.0 mm/hr 0.00 in0.0 mm
08:36 AM 81.5°F27.5°C 61.6°F16.4°C 51% 4.0 mph NNW6.4 kmh NNW 4.9 mph7.9 kmh 29.08 in984.8 mb 0.00 in0.0 mm 0.00 in/hr0.0 mm/hr 0.00 in0.0 mm
08:35 AM 81.3°F27.4°C 61.4°F16.3°C 51% 1.3 mph NNW2.1 kmh NNW 4.9 mph7.9 kmh 29.08 in984.8 mb 0.00 in0.0 mm 0.00 in/hr0.0 mm/hr 0.00 in0.0 mm
08:34 AM 81.3°F27.4°C 61.4°F16.3°C 51% 4.5 mph NNW7.2 kmh NNW 4.9 mph7.9 kmh 29.08 in984.8 mb 0.00 in0.0 mm 0.00 in/hr0.0 mm/hr 0.00 in0.0 mm
08:33 AM 81.3°F27.4°C 61.4°F16.3°C 51% 2.9 mph NNW4.7 kmh NNW 2.9 mph4.7 kmh 29.08 in984.8 mb 0.00 in0.0 mm 0.00 in/hr0.0 mm/hr 0.00 in0.0 mm
08:32 AM 81.1°F27.3°C 61.3°F16.3°C 51% 1.6 mph NNW2.6 kmh NNW 2.7 mph4.3 kmh 29.08 in984.8 mb 0.00 in0.0 mm 0.00 in/hr0.0 mm/hr 0.00 in0.0 mm
08:31 AM 81.0°F27.2°C 61.1°F16.2°C 51% Calm Calm 2.7 mph4.3 kmh 29.08 in984.8 mb 0.00 in0.0 mm 0.00 in/hr0.0 mm/hr 0.00 in0.0 mm
08:30 AM 81.0°F27.2°C 61.1°F16.2°C 51% Calm Calm 2.7 mph4.3 kmh 29.08 in984.8 mb 0.00 in0.0 mm 0.00 in/hr0.0 mm/hr 0.00 in0.0 mm
08:29 AM 80.8°F27.1°C 60.9°F16.1°C 51% 2.7 mph NNW4.3 kmh NNW 2.7 mph4.3 kmh 29.08 in984.8 mb 0.00 in0.0 mm 0.00 in/hr0.0 mm/hr 0.00 in0.0 mm
08:28 AM 80.8°F27.1°C 60.9°F16.1°C 51% Calm Calm 2.7 mph4.3 kmh 29.08 in984.8 mb 0.00 in0.0 mm 0.00 in/hr0.0 mm/hr 0.00 in0.0 mm
08:27 AM 80.8°F27.1°C 60.9°F16.1°C 51% Calm Calm 3.6 mph5.8 kmh 29.08 in984.8 mb 0.00 in0.0 mm 0.00 in/hr0.0 mm/hr 0.00 in0.0 mm
08:26 AM 80.8°F27.1°C 60.9°F16.1°C 51% Calm Calm 3.6 mph5.8 kmh 29.08 in984.8 mb 0.00 in0.0 mm 0.00 in/hr0.0 mm/hr 0.00 in0.0 mm
08:25 AM 80.8°F27.1°C 60.9°F16.1°C 51% Calm Calm 4.9 mph7.9 kmh 29.09 in985.1 mb 0.00 in0.0 mm 0.00 in/hr0.0 mm/hr 0.00 in0.0 mm
08:24 AM 80.8°F27.1°C 60.9°F16.1°C 51% Calm Calm 4.9 mph7.9 kmh 29.09 in985.1 mb 0.00 in0.0 mm 0.00 in/hr0.0 mm/hr 0.00 in0.0 mm
08:23 AM 80.8°F27.1°C 60.9°F16.1°C 51% Calm Calm 4.9 mph7.9 kmh 29.08 in984.8 mb 0.00 in0.0 mm 0.00 in/hr0.0 mm/hr 0.00 in0.0 mm
08:22 AM 80.8°F27.1°C 60.9°F16.1°C 51% Calm Calm 5.4 mph8.7 kmh 29.08 in984.8 mb 0.00 in0.0 mm 0.00 in/hr0.0 mm/hr 0.00 in0.0 mm
08:21 AM 80.8°F27.1°C 60.9°F16.1°C 51% Calm Calm 5.4 mph8.7 kmh 29.08 in984.8 mb 0.00 in0.0 mm 0.00 in/hr0.0 mm/hr 0.00 in0.0 mm
08:20 AM 80.8°F27.1°C 60.4°F15.8°C 50% Calm Calm 5.4 mph8.7 kmh 29.08 in984.8 mb 0.00 in0.0 mm 0.00 in/hr0.0 mm/hr 0.00 in0.0 mm
08:19 AM 80.8°F27.1°C 60.4°F15.8°C 50% Calm Calm 5.4 mph8.7 kmh 29.08 in984.8 mb 0.00 in0.0 mm 0.00 in/hr0.0 mm/hr 0.00 in0.0 mm
08:18 AM 80.8°F27.1°C 60.4°F15.8°C 50% Calm Calm 5.4 mph8.7 kmh 29.08 in984.8 mb 0.00 in0.0 mm 0.00 in/hr0.0 mm/hr 0.00 in0.0 mm
08:17 AM 80.8°F27.1°C 60.4°F15.8°C 50% Calm Calm 5.4 mph8.7 kmh 29.08 in984.8 mb 0.00 in0.0 mm 0.00 in/hr0.0 mm/hr 0.00 in0.0 mm
08:16 AM 80.8°F27.1°C 60.4°F15.8°C 50% 3.6 mph NNW5.8 kmh NNW 5.4 mph8.7 kmh 29.09 in985.1 mb 0.00 in0.0 mm 0.00 in/hr0.0 mm/hr 0.00 in0.0 mm
08:15 AM 80.6°F27.0°C 60.3°F15.7°C 50% 1.3 mph NNW2.1 kmh NNW 5.4 mph8.7 kmh 29.08 in984.8 mb 0.00 in0.0 mm 0.00 in/hr0.0 mm/hr 0.00 in0.0 mm
08:14 AM 80.4°F26.9°C 60.1°F15.6°C 50% Calm Calm 5.4 mph8.7 kmh 29.08 in984.8 mb 0.00 in0.0 mm 0.00 in/hr0.0 mm/hr 0.00 in0.0 mm
08:13 AM 80.4°F26.9°C 59.5°F15.3°C 49% Calm Calm 5.4 mph8.7 kmh 29.08 in984.8 mb 0.00 in0.0 mm 0.00 in/hr0.0 mm/hr 0.00 in0.0 mm
08:12 AM 80.4°F26.9°C 59.5°F15.3°C 49% 2.9 mph N4.7 kmh N 5.4 mph8.7 kmh 29.08 in984.8 mb 0.00 in0.0 mm 0.00 in/hr0.0 mm/hr 0.00 in0.0 mm
08:11 AM 80.2°F26.8°C 59.3°F15.2°C 49% 3.8 mph N6.1 kmh N 5.4 mph8.7 kmh 29.08 in984.8 mb 0.00 in0.0 mm 0.00 in/hr0.0 mm/hr 0.00 in0.0 mm
08:10 AM 80.2°F26.8°C 59.3°F15.2°C 49% Calm Calm 5.4 mph8.7 kmh 29.08 in984.8 mb 0.00 in0.0 mm 0.00 in/hr0.0 mm/hr 0.00 in0.0 mm
08:09 AM 79.9°F26.6°C 59.0°F15.0°C 49% 2.9 mph N4.7 kmh N 5.4 mph8.7 kmh 29.08 in984.8 mb 0.00 in0.0 mm 0.00 in/hr0.0 mm/hr 0.00 in0.0 mm
08:08 AM 79.5°F26.4°C 58.7°F14.8°C 49% 5.4 mph N8.7 kmh N 5.4 mph8.7 kmh 29.08 in984.8 mb 0.00 in0.0 mm 0.00 in/hr0.0 mm/hr 0.00 in0.0 mm
08:07 AM 79.5°F26.4°C 58.5°F14.7°C 49% Calm Calm 3.8 mph6.1 kmh 29.08 in984.8 mb 0.00 in0.0 mm 0.00 in/hr0.0 mm/hr 0.00 in0.0 mm
08:06 AM 79.2°F26.2°C 58.4°F14.7°C 49% Calm Calm 3.8 mph6.1 kmh 29.08 in984.8 mb 0.00 in0.0 mm 0.00 in/hr0.0 mm/hr 0.00 in0.0 mm
08:05 AM 79.0°F26.1°C 58.2°F14.6°C 49% Calm Calm 3.8 mph6.1 kmh 29.08 in984.8 mb 0.00 in0.0 mm 0.00 in/hr0.0 mm/hr 0.00 in0.0 mm
08:04 AM 78.6°F25.9°C 58.5°F14.7°C 50% 2.7 mph N4.3 kmh N 3.8 mph6.1 kmh 29.08 in984.8 mb 0.00 in0.0 mm 0.00 in/hr0.0 mm/hr 0.00 in0.0 mm
08:03 AM 78.6°F25.9°C 58.5°F14.7°C 50% Calm Calm 3.8 mph6.1 kmh 29.08 in984.8 mb 0.00 in0.0 mm 0.00 in/hr0.0 mm/hr 0.00 in0.0 mm
08:02 AM 78.4°F25.8°C 58.3°F14.6°C 50% Calm Calm 3.8 mph6.1 kmh 29.08 in984.8 mb 0.00 in0.0 mm 0.00 in/hr0.0 mm/hr 0.00 in0.0 mm
08:01 AM 78.4°F25.8°C 58.3°F14.6°C 50% Calm Calm 3.8 mph6.1 kmh 29.08 in984.8 mb 0.00 in0.0 mm 0.00 in/hr0.0 mm/hr 0.00 in0.0 mm
08:00 AM 78.1°F25.6°C 58.0°F14.4°C 50% Calm Calm 3.8 mph6.1 kmh 29.08 in984.8 mb 0.00 in0.0 mm 0.00 in/hr0.0 mm/hr 0.00 in0.0 mm
07:59 AM 78.1°F25.6°C 58.0°F14.4°C 50% 3.4 mph NNW5.5 kmh NNW 3.8 mph6.1 kmh 29.08 in984.8 mb 0.00 in0.0 mm 0.00 in/hr0.0 mm/hr 0.00 in0.0 mm
07:58 AM 77.7°F25.4°C 58.2°F14.6°C 51% 2.9 mph NNW4.7 kmh NNW 2.9 mph4.7 kmh 29.08 in984.8 mb 0.00 in0.0 mm 0.00 in/hr0.0 mm/hr 0.00 in0.0 mm
07:57 AM 77.5°F25.3°C 58.0°F14.4°C 51% Calm Calm 2.7 mph4.3 kmh 29.08 in984.8 mb 0.00 in0.0 mm 0.00 in/hr0.0 mm/hr 0.00 in0.0 mm
07:56 AM 77.4°F25.2°C 57.8°F14.3°C 51% 0.9 mph NNW1.4 kmh NNW 1.3 mph2.1 kmh 29.08 in984.8 mb 0.00 in0.0 mm 0.00 in/hr0.0 mm/hr 0.00 in0.0 mm
07:55 AM 77.0°F25.0°C 58.0°F14.4°C 52% 0.4 mph NNW0.6 kmh NNW 0.4 mph0.6 kmh 29.09 in985.1 mb 0.00 in0.0 mm 0.00 in/hr0.0 mm/hr 0.00 in0.0 mm
07:54 AM 76.8°F24.9°C 57.9°F14.4°C 52% Calm Calm -- 29.08 in984.8 mb 0.00 in0.0 mm 0.00 in/hr0.0 mm/hr 0.00 in0.0 mm
07:53 AM 76.6°F24.8°C 57.7°F14.3°C 52% Calm Calm -- 29.08 in984.8 mb 0.00 in0.0 mm 0.00 in/hr0.0 mm/hr 0.00 in0.0 mm
07:52 AM 76.3°F24.6°C 57.9°F14.4°C 53% Calm Calm -- 29.08 in984.8 mb 0.00 in0.0 mm 0.00 in/hr0.0 mm/hr 0.00 in0.0 mm
07:51 AM 75.9°F24.4°C 57.6°F14.2°C 53% Calm Calm -- 29.08 in984.8 mb 0.00 in0.0 mm 0.00 in/hr0.0 mm/hr 0.00 in0.0 mm
07:50 AM 75.7°F24.3°C 57.4°F14.1°C 53% Calm Calm -- 29.08 in984.8 mb 0.00 in0.0 mm 0.00 in/hr0.0 mm/hr 0.00 in0.0 mm
07:49 AM 75.4°F24.1°C 57.1°F13.9°C 53% Calm Calm -- 29.08 in984.8 mb 0.00 in0.0 mm 0.00 in/hr0.0 mm/hr 0.00 in0.0 mm
07:48 AM 75.0°F23.9°C 57.2°F14.0°C 54% Calm Calm -- 29.08 in984.8 mb 0.00 in0.0 mm 0.00 in/hr0.0 mm/hr 0.00 in0.0 mm
07:47 AM 74.8°F23.8°C 56.9°F13.8°C 54% Calm Calm -- 29.08 in984.8 mb 0.00 in0.0 mm 0.00 in/hr0.0 mm/hr 0.00 in0.0 mm
07:46 AM 74.5°F23.6°C 56.7°F13.7°C 54% Calm Calm -- 29.08 in984.8 mb 0.00 in0.0 mm 0.00 in/hr0.0 mm/hr 0.00 in0.0 mm
07:45 AM 74.1°F23.4°C 56.8°F13.8°C 55% Calm Calm -- 29.08 in984.8 mb 0.00 in0.0 mm 0.00 in/hr0.0 mm/hr 0.00 in0.0 mm
07:44 AM 73.9°F23.3°C 56.7°F13.7°C 55% Calm Calm -- 29.08 in984.8 mb 0.00 in0.0 mm 0.00 in/hr0.0 mm/hr 0.00 in0.0 mm
07:43 AM 73.4°F23.0°C 56.6°F13.7°C 56% Calm Calm -- 29.08 in984.8 mb 0.00 in0.0 mm 0.00 in/hr0.0 mm/hr 0.00 in0.0 mm
07:42 AM 73.2°F22.9°C 56.5°F13.6°C 56% Calm Calm -- 29.08 in984.8 mb 0.00 in0.0 mm 0.00 in/hr0.0 mm/hr 0.00 in0.0 mm
07:41 AM 73.0°F22.8°C 56.8°F13.8°C 57% Calm Calm -- 29.08 in984.8 mb 0.00 in0.0 mm 0.00 in/hr0.0 mm/hr 0.00 in0.0 mm
07:40 AM 72.7°F22.6°C 56.5°F13.6°C 57% Calm Calm -- 29.08 in984.8 mb 0.00 in0.0 mm 0.00 in/hr0.0 mm/hr 0.00 in0.0 mm
07:39 AM 72.5°F22.5°C 56.8°F13.8°C 58% Calm Calm -- 29.08 in984.8 mb 0.00 in0.0 mm 0.00 in/hr0.0 mm/hr 0.00 in0.0 mm
07:38 AM 72.1°F22.3°C 56.5°F13.6°C 58% Calm Calm -- 29.08 in984.8 mb 0.00 in0.0 mm 0.00 in/hr0.0 mm/hr 0.00 in0.0 mm
07:37 AM 71.8°F22.1°C 56.7°F13.7°C 59% Calm Calm -- 29.08 in984.8 mb 0.00 in0.0 mm 0.00 in/hr0.0 mm/hr 0.00 in0.0 mm
07:36 AM 71.4°F21.9°C 56.4°F13.6°C 59% Calm Calm -- 29.08 in984.8 mb 0.00 in0.0 mm 0.00 in/hr0.0 mm/hr 0.00 in0.0 mm
07:35 AM 71.2°F21.8°C 56.7°F13.7°C 60% Calm Calm -- 29.08 in984.8 mb 0.00 in0.0 mm 0.00 in/hr0.0 mm/hr 0.00 in0.0 mm
07:34 AM 70.9°F21.6°C 56.4°F13.6°C 60% Calm Calm -- 29.08 in984.8 mb 0.00 in0.0 mm 0.00 in/hr0.0 mm/hr 0.00 in0.0 mm
07:33 AM 70.7°F21.5°C 56.2°F13.4°C 60% Calm Calm -- 29.08 in984.8 mb 0.00 in0.0 mm 0.00 in/hr0.0 mm/hr 0.00 in0.0 mm
07:32 AM 70.5°F21.4°C 56.0°F13.3°C 60% Calm Calm -- 29.08 in984.8 mb 0.00 in0.0 mm 0.00 in/hr0.0 mm/hr 0.00 in0.0 mm
07:31 AM 70.3°F21.3°C 56.3°F13.5°C 61% Calm Calm -- 29.08 in984.8 mb 0.00 in0.0 mm 0.00 in/hr0.0 mm/hr 0.00 in0.0 mm
07:30 AM 70.0°F21.1°C 56.0°F13.3°C 61% Calm Calm -- 29.08 in984.8 mb 0.00 in0.0 mm 0.00 in/hr0.0 mm/hr 0.00 in0.0 mm
07:29 AM 69.6°F20.9°C 55.6°F13.1°C 61% Calm Calm -- 29.08 in984.8 mb 0.00 in0.0 mm 0.00 in/hr0.0 mm/hr 0.00 in0.0 mm
07:28 AM 69.4°F20.8°C 55.9°F13.3°C 62% Calm Calm -- 29.08 in984.8 mb 0.00 in0.0 mm 0.00 in/hr0.0 mm/hr 0.00 in0.0 mm
07:27 AM 69.3°F20.7°C 55.7°F13.2°C 62% Calm Calm -- 29.08 in984.8 mb 0.00 in0.0 mm 0.00 in/hr0.0 mm/hr 0.00 in0.0 mm
07:26 AM 68.9°F20.5°C 55.3°F12.9°C 62% Calm Calm -- 29.08 in984.8 mb 0.00 in0.0 mm 0.00 in/hr0.0 mm/hr 0.00 in0.0 mm
07:25 AM 68.7°F20.4°C 55.2°F12.9°C 62% Calm Calm -- 29.08 in984.8 mb 0.00 in0.0 mm 0.00 in/hr0.0 mm/hr 0.00 in0.0 mm
07:24 AM 68.5°F20.3°C 55.0°F12.8°C 62% Calm Calm -- 29.08 in984.8 mb 0.00 in0.0 mm 0.00 in/hr0.0 mm/hr 0.00 in0.0 mm
07:23 AM 68.2°F20.1°C 55.1°F12.8°C 63% Calm Calm -- 29.08 in984.8 mb 0.00 in0.0 mm 0.00 in/hr0.0 mm/hr 0.00 in0.0 mm
07:22 AM 67.8°F19.9°C 54.7°F12.6°C 63% Calm Calm -- 29.08 in984.8 mb 0.00 in0.0 mm 0.00 in/hr0.0 mm/hr 0.00 in0.0 mm
07:21 AM 67.6°F19.8°C 54.6°F12.6°C 63% Calm Calm -- 29.08 in984.8 mb 0.00 in0.0 mm 0.00 in/hr0.0 mm/hr 0.00 in0.0 mm
07:20 AM 67.6°F19.8°C 54.6°F12.6°C 63% Calm Calm -- 29.08 in984.8 mb 0.00 in0.0 mm 0.00 in/hr0.0 mm/hr 0.00 in0.0 mm
07:19 AM 67.3°F19.6°C 54.2°F12.3°C 63% Calm Calm -- 29.08 in984.8 mb 0.00 in0.0 mm 0.00 in/hr0.0 mm/hr 0.00 in0.0 mm
07:18 AM 67.1°F19.5°C 54.0°F12.2°C 63% Calm Calm -- 29.08 in984.8 mb 0.00 in0.0 mm 0.00 in/hr0.0 mm/hr 0.00 in0.0 mm
07:17 AM 66.7°F19.3°C 53.7°F12.1°C 63% Calm Calm -- 29.08 in984.8 mb 0.00 in0.0 mm 0.00 in/hr0.0 mm/hr 0.00 in0.0 mm
07:16 AM 66.6°F19.2°C 53.5°F11.9°C 63% Calm Calm -- 29.08 in984.8 mb 0.00 in0.0 mm 0.00 in/hr0.0 mm/hr 0.00 in0.0 mm
07:15 AM 66.4°F19.1°C 53.4°F11.9°C 63% Calm Calm -- 29.08 in984.8 mb 0.00 in0.0 mm 0.00 in/hr0.0 mm/hr 0.00 in0.0 mm
07:14 AM 66.2°F19.0°C 53.2°F11.8°C 63% Calm Calm -- 29.08 in984.8 mb 0.00 in0.0 mm 0.00 in/hr0.0 mm/hr 0.00 in0.0 mm
07:13 AM 66.0°F18.9°C 53.0°F11.7°C 63% Calm Calm -- 29.08 in984.8 mb 0.00 in0.0 mm 0.00 in/hr0.0 mm/hr 0.00 in0.0 mm
07:12 AM 65.8°F18.8°C 53.3°F11.8°C 64% Calm Calm -- 29.08 in984.8 mb 0.00 in0.0 mm 0.00 in/hr0.0 mm/hr 0.00 in0.0 mm
07:11 AM 65.5°F18.6°C 52.9°F11.6°C 64% Calm Calm -- 29.08 in984.8 mb 0.00 in0.0 mm 0.00 in/hr0.0 mm/hr 0.00 in0.0 mm
07:10 AM 65.3°F18.5°C 52.8°F11.6°C 64% Calm Calm -- 29.08 in984.8 mb 0.00 in0.0 mm 0.00 in/hr0.0 mm/hr 0.00 in0.0 mm
07:09 AM 65.1°F18.4°C 52.6°F11.4°C 64% Calm Calm -- 29.07 in984.4 mb 0.00 in0.0 mm 0.00 in/hr0.0 mm/hr 0.00 in0.0 mm
07:08 AM 64.9°F18.3°C 52.4°F11.3°C 64% Calm Calm -- 29.08 in984.8 mb 0.00 in0.0 mm 0.00 in/hr0.0 mm/hr 0.00 in0.0 mm
07:07 AM 64.8°F18.2°C 52.3°F11.3°C 64% Calm Calm -- 29.08 in984.8 mb 0.00 in0.0 mm 0.00 in/hr0.0 mm/hr 0.00 in0.0 mm
07:06 AM 64.6°F18.1°C 52.1°F11.2°C 64% Calm Calm -- 29.08 in984.8 mb 0.00 in0.0 mm 0.00 in/hr0.0 mm/hr 0.00 in0.0 mm
07:05 AM 64.4°F18.0°C 51.9°F11.1°C 64% Calm Calm -- 29.08 in984.8 mb 0.00 in0.0 mm 0.00 in/hr0.0 mm/hr 0.00 in0.0 mm
07:04 AM 64.2°F17.9°C 51.7°F10.9°C 64% Calm Calm -- 29.08 in984.8 mb 0.00 in0.0 mm 0.00 in/hr0.0 mm/hr 0.00 in0.0 mm
07:03 AM 64.0°F17.8°C 52.0°F11.1°C 65% Calm Calm -- 29.08 in984.8 mb 0.00 in0.0 mm 0.00 in/hr0.0 mm/hr 0.00 in0.0 mm
07:02 AM 64.0°F17.8°C 52.0°F11.1°C 65% Calm Calm -- 29.08 in984.8 mb 0.00 in0.0 mm 0.00 in/hr0.0 mm/hr 0.00 in0.0 mm
07:01 AM 63.9°F17.7°C 51.8°F11.0°C 65% Calm Calm -- 29.08 in984.8 mb 0.00 in0.0 mm 0.00 in/hr0.0 mm/hr 0.00 in0.0 mm
07:00 AM 63.7°F17.6°C 51.2°F10.7°C 64% Calm Calm -- 29.08 in984.8 mb 0.00 in0.0 mm 0.00 in/hr0.0 mm/hr 0.00 in0.0 mm
06:59 AM 63.5°F17.5°C 51.1°F10.6°C 64% Calm Calm -- 29.07 in984.4 mb 0.00 in0.0 mm 0.00 in/hr0.0 mm/hr 0.00 in0.0 mm
06:58 AM 63.3°F17.4°C 50.9°F10.5°C 64% Calm Calm -- 29.08 in984.8 mb 0.00 in0.0 mm 0.00 in/hr0.0 mm/hr 0.00 in0.0 mm
06:57 AM 63.3°F17.4°C 50.9°F10.5°C 64% Calm Calm -- 29.08 in984.8 mb 0.00 in0.0 mm 0.00 in/hr0.0 mm/hr 0.00 in0.0 mm
06:56 AM 63.1°F17.3°C 50.7°F10.4°C 64% Calm Calm -- 29.08 in984.8 mb 0.00 in0.0 mm 0.00 in/hr0.0 mm/hr 0.00 in0.0 mm
06:55 AM 63.1°F17.3°C 50.7°F10.4°C 64% Calm Calm -- 29.08 in984.8 mb 0.00 in0.0 mm 0.00 in/hr0.0 mm/hr 0.00 in0.0 mm
06:54 AM 63.1°F17.3°C 51.1°F10.6°C 64% Calm Calm -- 29.08 in984.8 mb 0.00 in0.0 mm 0.00 in/hr0.0 mm/hr 0.00 in0.0 mm
06:53 AM 63.0°F17.2°C 51.0°F10.6°C 65% Calm Calm 0.7 mph1.1 kmh 29.08 in984.8 mb 0.00 in0.0 mm 0.00 in/hr0.0 mm/hr 0.00 in0.0 mm
06:52 AM 63.0°F17.2°C 51.0°F10.6°C 65% Calm Calm 0.7 mph1.1 kmh 29.08 in984.8 mb 0.00 in0.0 mm 0.00 in/hr0.0 mm/hr 0.00 in0.0 mm
06:51 AM 62.8°F17.1°C 50.8°F10.4°C 65% Calm Calm 0.7 mph1.1 kmh 29.08 in984.8 mb 0.00 in0.0 mm 0.00 in/hr0.0 mm/hr 0.00 in0.0 mm
06:50 AM 62.8°F17.1°C 50.8°F10.4°C 65% Calm Calm 0.7 mph1.1 kmh 29.08 in984.8 mb 0.00 in0.0 mm 0.00 in/hr0.0 mm/hr 0.00 in0.0 mm
06:49 AM 62.8°F17.1°C 50.8°F10.4°C 65% Calm Calm 0.7 mph1.1 kmh 29.07 in984.4 mb 0.00 in0.0 mm 0.00 in/hr0.0 mm/hr 0.00 in0.0 mm
06:48 AM 62.6°F17.0°C 50.6°F10.3°C 65% Calm Calm 1.6 mph2.6 kmh 29.08 in984.8 mb 0.00 in0.0 mm 0.00 in/hr0.0 mm/hr 0.00 in0.0 mm
06:47 AM 62.4°F16.9°C 50.5°F10.3°C 65% Calm Calm 1.6 mph2.6 kmh 29.08 in984.8 mb 0.00 in0.0 mm 0.00 in/hr0.0 mm/hr 0.00 in0.0 mm
06:46 AM 62.4°F16.9°C 50.5°F10.3°C 65% Calm Calm 1.6 mph2.6 kmh 29.08 in984.8 mb 0.00 in0.0 mm 0.00 in/hr0.0 mm/hr 0.00 in0.0 mm
06:45 AM 62.4°F16.9°C 50.5°F10.3°C 65% Calm Calm 1.6 mph2.6 kmh 29.08 in984.8 mb 0.00 in0.0 mm 0.00 in/hr0.0 mm/hr 0.00 in0.0 mm
06:44 AM 62.4°F16.9°C 50.1°F10.1°C 64% Calm Calm 1.6 mph2.6 kmh 29.08 in984.8 mb 0.00 in0.0 mm 0.00 in/hr0.0 mm/hr 0.00 in0.0 mm
06:43 AM 62.4°F16.9°C 50.1°F10.1°C 64% Calm Calm 1.6 mph2.6 kmh 29.08 in984.8 mb 0.00 in0.0 mm 0.00 in/hr0.0 mm/hr 0.00 in0.0 mm
06:42 AM 62.4°F16.9°C 50.1°F10.1°C 64% Calm Calm 1.6 mph2.6 kmh 29.07 in984.4 mb 0.00 in0.0 mm 0.00 in/hr0.0 mm/hr 0.00 in0.0 mm
06:41 AM 62.4°F16.9°C 50.1°F10.1°C 64% Calm Calm 1.6 mph2.6 kmh 29.07 in984.4 mb 0.00 in0.0 mm 0.00 in/hr0.0 mm/hr 0.00 in0.0 mm
06:40 AM 62.4°F16.9°C 50.1°F10.1°C 64% Calm Calm 1.6 mph2.6 kmh 29.07 in984.4 mb 0.00 in0.0 mm 0.00 in/hr0.0 mm/hr 0.00 in0.0 mm
06:39 AM 62.4°F16.9°C 50.1°F10.1°C 64% Calm Calm 1.6 mph2.6 kmh 29.07 in984.4 mb 0.00 in0.0 mm 0.00 in/hr0.0 mm/hr 0.00 in0.0 mm
06:38 AM 62.4°F16.9°C 50.5°F10.3°C 65% Calm Calm -- 29.07 in984.4 mb 0.00 in0.0 mm 0.00 in/hr0.0 mm/hr 0.00 in0.0 mm
06:37 AM 62.4°F16.9°C 50.5°F10.3°C 65% Calm Calm 0.7 mph1.1 kmh 29.07 in984.4 mb 0.00 in0.0 mm 0.00 in/hr0.0 mm/hr 0.00 in0.0 mm
06:36 AM 62.4°F16.9°C 50.5°F10.3°C 65% Calm Calm 1.3 mph2.1 kmh 29.08 in984.8 mb 0.00 in0.0 mm 0.00 in/hr0.0 mm/hr 0.00 in0.0 mm
06:35 AM 62.4°F16.9°C 50.5°F10.3°C 65% Calm Calm 1.3 mph2.1 kmh 29.07 in984.4 mb 0.00 in0.0 mm 0.00 in/hr0.0 mm/hr 0.00 in0.0 mm
06:34 AM 62.4°F16.9°C 50.5°F10.3°C 65% Calm Calm 1.3 mph2.1 kmh 29.07 in984.4 mb 0.00 in0.0 mm 0.00 in/hr0.0 mm/hr 0.00 in0.0 mm
06:33 AM 62.4°F16.9°C 50.5°F10.3°C 65% Calm Calm 1.3 mph2.1 kmh 29.07 in984.4 mb 0.00 in0.0 mm 0.00 in/hr0.0 mm/hr 0.00 in0.0 mm
06:32 AM 62.4°F16.9°C 50.5°F10.3°C 65% Calm Calm 1.3 mph2.1 kmh 29.07 in984.4 mb 0.00 in0.0 mm 0.00 in/hr0.0 mm/hr 0.00 in0.0 mm
06:31 AM 62.4°F16.9°C 50.5°F10.3°C 65% Calm Calm 1.3 mph2.1 kmh 29.07 in984.4 mb 0.00 in0.0 mm 0.00 in/hr0.0 mm/hr 0.00 in0.0 mm
06:30 AM 62.4°F16.9°C 50.5°F10.3°C 65% Calm Calm 2.9 mph4.7 kmh 29.07 in984.4 mb 0.00 in0.0 mm 0.00 in/hr0.0 mm/hr 0.00 in0.0 mm
06:29 AM 62.4°F16.9°C 50.5°F10.3°C 65% Calm Calm 2.9 mph4.7 kmh 29.07 in984.4 mb 0.00 in0.0 mm 0.00 in/hr0.0 mm/hr 0.00 in0.0 mm
06:28 AM 62.4°F16.9°C 50.5°F10.3°C 65% Calm Calm 2.9 mph4.7 kmh 29.07 in984.4 mb 0.00 in0.0 mm 0.00 in/hr0.0 mm/hr 0.00 in0.0 mm
06:27 AM 62.4°F16.9°C 50.5°F10.3°C 65% 1.3 mph NNW2.1 kmh NNW 3.1 mph5.0 kmh 29.07 in984.4 mb 0.00 in0.0 mm 0.00 in/hr0.0 mm/hr 0.00 in0.0 mm
06:26 AM 62.4°F16.9°C 50.5°F10.3°C 65% Calm Calm 3.1 mph5.0 kmh 29.08 in984.8 mb 0.00 in0.0 mm 0.00 in/hr0.0 mm/hr 0.00 in0.0 mm
06:25 AM 62.4°F16.9°C 50.1°F10.1°C 64% Calm Calm 3.1 mph5.0 kmh 29.08 in984.8 mb 0.00 in0.0 mm 0.00 in/hr0.0 mm/hr 0.00 in0.0 mm
06:24 AM 62.4°F16.9°C 50.1°F10.1°C 64% Calm Calm 3.1 mph5.0 kmh 29.08 in984.8 mb 0.00 in0.0 mm 0.00 in/hr0.0 mm/hr 0.00 in0.0 mm
06:23 AM 62.4°F16.9°C 50.1°F10.1°C 64% Calm Calm 3.1 mph5.0 kmh 29.07 in984.4 mb 0.00 in0.0 mm 0.00 in/hr0.0 mm/hr 0.00 in0.0 mm
06:22 AM 62.4°F16.9°C 50.1°F10.1°C 64% Calm Calm 3.1 mph5.0 kmh 29.07 in984.4 mb 0.00 in0.0 mm 0.00 in/hr0.0 mm/hr 0.00 in0.0 mm
06:21 AM 62.4°F16.9°C 50.1°F10.1°C 64% Calm Calm 3.1 mph5.0 kmh 29.08 in984.8 mb 0.00 in0.0 mm 0.00 in/hr0.0 mm/hr 0.00 in0.0 mm
06:20 AM 62.4°F16.9°C 50.1°F10.1°C 64% 2.9 mph NNW4.7 kmh NNW 3.1 mph5.0 kmh 29.07 in984.4 mb 0.00 in0.0 mm 0.00 in/hr0.0 mm/hr 0.00 in0.0 mm
06:19 AM 62.4°F16.9°C 50.1°F10.1°C 64% Calm Calm 3.1 mph5.0 kmh 29.07 in984.4 mb 0.00 in0.0 mm 0.00 in/hr0.0 mm/hr 0.00 in0.0 mm
06:18 AM 62.4°F16.9°C 50.1°F10.1°C 64% Calm Calm 3.1 mph5.0 kmh 29.07 in984.4 mb 0.00 in0.0 mm 0.00 in/hr0.0 mm/hr 0.00 in0.0 mm
06:17 AM 62.4°F16.9°C 50.1°F10.1°C 64% 2.9 mph NNW4.7 kmh NNW 2.9 mph4.7 kmh 29.07 in984.4 mb 0.00 in0.0 mm 0.00 in/hr0.0 mm/hr 0.00 in0.0 mm
06:16 AM 62.4°F16.9°C 50.1°F10.1°C 64% Calm Calm 2.0 mph3.2 kmh 29.08 in984.8 mb 0.00 in0.0 mm 0.00 in/hr0.0 mm/hr 0.00 in0.0 mm
06:15 AM 62.4°F16.9°C 50.1°F10.1°C 64% 2.0 mph NNW3.2 kmh NNW 2.0 mph3.2 kmh 29.07 in984.4 mb 0.00 in0.0 mm 0.00 in/hr0.0 mm/hr 0.00 in0.0 mm
06:14 AM 62.4°F16.9°C 50.1°F10.1°C 64% Calm Calm 1.8 mph2.9 kmh 29.07 in984.4 mb 0.00 in0.0 mm 0.00 in/hr0.0 mm/hr 0.00 in0.0 mm
06:13 AM 62.4°F16.9°C 50.1°F10.1°C 64% Calm Calm 1.8 mph2.9 kmh 29.07 in984.4 mb 0.00 in0.0 mm 0.00 in/hr0.0 mm/hr 0.00 in0.0 mm
06:12 AM 62.4°F16.9°C 50.1°F10.1°C 64% Calm Calm 1.8 mph2.9 kmh 29.07 in984.4 mb 0.00 in0.0 mm 0.00 in/hr0.0 mm/hr 0.00 in0.0 mm
06:11 AM 62.4°F16.9°C 50.1°F10.1°C 64% Calm Calm 1.8 mph2.9 kmh 29.07 in984.4 mb 0.00 in0.0 mm 0.00 in/hr0.0 mm/hr 0.00 in0.0 mm
06:10 AM 62.4°F16.9°C 50.1°F10.1°C 64% Calm Calm 1.8 mph2.9 kmh 29.07 in984.4 mb 0.00 in0.0 mm 0.00 in/hr0.0 mm/hr 0.00 in0.0 mm
06:09 AM 62.4°F16.9°C 50.1°F10.1°C 64% Calm Calm 1.8 mph2.9 kmh 29.07 in984.4 mb 0.00 in0.0 mm 0.00 in/hr0.0 mm/hr 0.00 in0.0 mm
06:08 AM 62.4°F16.9°C 50.1°F10.1°C 64% Calm Calm 1.8 mph2.9 kmh 29.07 in984.4 mb 0.00 in0.0 mm 0.00 in/hr0.0 mm/hr 0.00 in0.0 mm
06:07 AM 62.4°F16.9°C 50.1°F10.1°C 64% Calm Calm 1.8 mph2.9 kmh 29.07 in984.4 mb 0.00 in0.0 mm 0.00 in/hr0.0 mm/hr 0.00 in0.0 mm
06:06 AM 62.4°F16.9°C 50.1°F10.1°C 64% Calm Calm 1.8 mph2.9 kmh 29.07 in984.4 mb 0.00 in0.0 mm 0.00 in/hr0.0 mm/hr 0.00 in0.0 mm
06:05 AM 62.4°F16.9°C 50.1°F10.1°C 64% Calm Calm 1.8 mph2.9 kmh 29.07 in984.4 mb 0.00 in0.0 mm 0.00 in/hr0.0 mm/hr 0.00 in0.0 mm
06:04 AM 62.4°F16.9°C 50.1°F10.1°C 64% Calm Calm -- 29.07 in984.4 mb 0.00 in0.0 mm 0.00 in/hr0.0 mm/hr 0.00 in0.0 mm
06:03 AM 62.4°F16.9°C 50.1°F10.1°C 64% Calm Calm -- 29.07 in984.4 mb 0.00 in0.0 mm 0.00 in/hr0.0 mm/hr 0.00 in0.0 mm
06:02 AM 62.6°F17.0°C 50.2°F10.1°C 64% Calm Calm -- 29.07 in984.4 mb 0.00 in0.0 mm 0.00 in/hr0.0 mm/hr 0.00 in0.0 mm
06:01 AM 62.4°F16.9°C 50.1°F10.1°C 64% Calm Calm -- 29.07 in984.4 mb 0.00 in0.0 mm 0.00 in/hr0.0 mm/hr 0.00 in0.0 mm
06:00 AM 62.6°F17.0°C 50.6°F10.3°C 65% Calm Calm -- 29.07 in984.4 mb 0.00 in0.0 mm 0.00 in/hr0.0 mm/hr 0.00 in0.0 mm
05:59 AM 62.6°F17.0°C 50.6°F10.3°C 65% Calm Calm -- 29.07 in984.4 mb 0.00 in0.0 mm 0.00 in/hr0.0 mm/hr 0.00 in0.0 mm
05:58 AM 62.6°F17.0°C 50.6°F10.3°C 65% Calm Calm -- 29.07 in984.4 mb 0.00 in0.0 mm 0.00 in/hr0.0 mm/hr 0.00 in0.0 mm
05:57 AM 62.6°F17.0°C 50.2°F10.1°C 64% Calm Calm -- 29.07 in984.4 mb 0.00 in0.0 mm 0.00 in/hr0.0 mm/hr 0.00 in0.0 mm
05:56 AM 62.6°F17.0°C 50.2°F10.1°C 64% Calm Calm -- 29.07 in984.4 mb 0.00 in0.0 mm 0.00 in/hr0.0 mm/hr 0.00 in0.0 mm
05:55 AM 62.6°F17.0°C 50.2°F10.1°C 64% Calm Calm -- 29.07 in984.4 mb 0.00 in0.0 mm 0.00 in/hr0.0 mm/hr 0.00 in0.0 mm
05:54 AM 62.6°F17.0°C 50.2°F10.1°C 64% Calm Calm -- 29.07 in984.4 mb 0.00 in0.0 mm 0.00 in/hr0.0 mm/hr 0.00 in0.0 mm
05:53 AM 62.8°F17.1°C 50.4°F10.2°C 64% Calm Calm -- 29.07 in984.4 mb 0.00 in0.0 mm 0.00 in/hr0.0 mm/hr 0.00 in0.0 mm
05:52 AM 62.8°F17.1°C 50.4°F10.2°C 64% Calm Calm -- 29.07 in984.4 mb 0.00 in0.0 mm 0.00 in/hr0.0 mm/hr 0.00 in0.0 mm
05:51 AM 62.8°F17.1°C 50.4°F10.2°C 64% Calm Calm -- 29.07 in984.4 mb 0.00 in0.0 mm 0.00 in/hr0.0 mm/hr 0.00 in0.0 mm
05:50 AM 62.8°F17.1°C 50.4°F10.2°C 64% Calm Calm -- 29.07 in984.4 mb 0.00 in0.0 mm 0.00 in/hr0.0 mm/hr 0.00 in0.0 mm
05:49 AM 62.8°F17.1°C 50.4°F10.2°C 64% Calm Calm -- 29.07 in984.4 mb 0.00 in0.0 mm 0.00 in/hr0.0 mm/hr 0.00 in0.0 mm
05:48 AM 62.8°F17.1°C 50.8°F10.4°C 65% Calm Calm -- 29.07 in984.4 mb 0.00 in0.0 mm 0.00 in/hr0.0 mm/hr 0.00 in0.0 mm
05:47 AM 62.8°F17.1°C 50.8°F10.4°C 65% Calm Calm -- 29.07 in984.4 mb 0.00 in0.0 mm 0.00 in/hr0.0 mm/hr 0.00 in0.0 mm
05:46 AM 62.8°F17.1°C 50.4°F10.2°C 64% Calm Calm -- 29.07 in984.4 mb 0.00 in0.0 mm 0.00 in/hr0.0 mm/hr 0.00 in0.0 mm
05:45 AM 63.0°F17.2°C 50.5°F10.3°C 64% Calm Calm -- 29.07 in984.4 mb 0.00 in0.0 mm 0.00 in/hr0.0 mm/hr 0.00 in0.0 mm
05:44 AM 62.8°F17.1°C 50.4°F10.2°C 64% Calm Calm -- 29.07 in984.4 mb 0.00 in0.0 mm 0.00 in/hr0.0 mm/hr 0.00 in0.0 mm
05:43 AM 63.0°F17.2°C 50.5°F10.3°C 64% Calm Calm -- 29.07 in984.4 mb 0.00 in0.0 mm 0.00 in/hr0.0 mm/hr 0.00 in0.0 mm
05:42 AM 63.0°F17.2°C 50.5°F10.3°C 64% Calm Calm -- 29.07 in984.4 mb 0.00 in0.0 mm 0.00 in/hr0.0 mm/hr 0.00 in0.0 mm
05:41 AM 63.0°F17.2°C 50.5°F10.3°C 64% Calm Calm -- 29.07 in984.4 mb 0.00 in0.0 mm 0.00 in/hr0.0 mm/hr 0.00 in0.0 mm
05:40 AM 63.0°F17.2°C 50.5°F10.3°C 64% Calm Calm -- 29.07 in984.4 mb 0.00 in0.0 mm 0.00 in/hr0.0 mm/hr 0.00 in0.0 mm
05:39 AM 63.0°F17.2°C 50.5°F10.3°C 64% Calm Calm -- 29.07 in984.4 mb 0.00 in0.0 mm 0.00 in/hr0.0 mm/hr 0.00 in0.0 mm
05:38 AM 63.0°F17.2°C 50.5°F10.3°C 64% Calm Calm -- 29.07 in984.4 mb 0.00 in0.0 mm 0.00 in/hr0.0 mm/hr 0.00 in0.0 mm
05:37 AM 63.0°F17.2°C 50.5°F10.3°C 64% Calm Calm -- 29.07 in984.4 mb 0.00 in0.0 mm 0.00 in/hr0.0 mm/hr 0.00 in0.0 mm
05:36 AM 63.0°F17.2°C 50.5°F10.3°C 64% Calm Calm -- 29.07 in984.4 mb 0.00 in0.0 mm 0.00 in/hr0.0 mm/hr 0.00 in0.0 mm
05:35 AM 63.0°F17.2°C 50.5°F10.3°C 64% Calm Calm -- 29.07 in984.4 mb 0.00 in0.0 mm 0.00 in/hr0.0 mm/hr 0.00 in0.0 mm
05:34 AM 63.1°F17.3°C 50.7°F10.4°C 64% Calm Calm -- 29.07 in984.4 mb 0.00 in0.0 mm 0.00 in/hr0.0 mm/hr 0.00 in0.0 mm
05:33 AM 63.1°F17.3°C 50.7°F10.4°C 64% Calm Calm -- 29.07 in984.4 mb 0.00 in0.0 mm 0.00 in/hr0.0 mm/hr 0.00 in0.0 mm
05:32 AM 63.1°F17.3°C 50.7°F10.4°C 64% Calm Calm -- 29.07 in984.4 mb 0.00 in0.0 mm 0.00 in/hr0.0 mm/hr 0.00 in0.0 mm
05:31 AM 63.1°F17.3°C 50.7°F10.4°C 64% Calm Calm -- 29.07 in984.4 mb 0.00 in0.0 mm 0.00 in/hr0.0 mm/hr 0.00 in0.0 mm
05:30 AM 63.1°F17.3°C 50.7°F10.4°C 64% Calm Calm -- 29.07 in984.4 mb 0.00 in0.0 mm 0.00 in/hr0.0 mm/hr 0.00 in0.0 mm
05:29 AM 63.1°F17.3°C 50.7°F10.4°C 64% Calm Calm -- 29.07 in984.4 mb 0.00 in0.0 mm 0.00 in/hr0.0 mm/hr 0.00 in0.0 mm
05:28 AM 63.1°F17.3°C 50.7°F10.4°C 64% Calm Calm -- 29.07 in984.4 mb 0.00 in0.0 mm 0.00 in/hr0.0 mm/hr 0.00 in0.0 mm
05:27 AM 63.1°F17.3°C 50.7°F10.4°C 64% Calm Calm -- 29.07 in984.4 mb 0.00 in0.0 mm 0.00 in/hr0.0 mm/hr 0.00 in0.0 mm
05:26 AM 63.1°F17.3°C 50.7°F10.4°C 64% Calm Calm -- 29.07 in984.4 mb 0.00 in0.0 mm 0.00 in/hr0.0 mm/hr 0.00 in0.0 mm
05:25 AM 63.1°F17.3°C 50.7°F10.4°C 64% Calm Calm -- 29.07 in984.4 mb 0.00 in0.0 mm 0.00 in/hr0.0 mm/hr 0.00 in0.0 mm
05:24 AM 63.1°F17.3°C 50.7°F10.4°C 64% Calm Calm -- 29.07 in984.4 mb 0.00 in0.0 mm 0.00 in/hr0.0 mm/hr 0.00 in0.0 mm
05:23 AM 63.1°F17.3°C 50.7°F10.4°C 64% Calm Calm -- 29.07 in984.4 mb 0.00 in0.0 mm 0.00 in/hr0.0 mm/hr 0.00 in0.0 mm
05:22 AM 63.1°F17.3°C 50.7°F10.4°C 64% Calm Calm -- 29.07 in984.4 mb 0.00 in0.0 mm 0.00 in/hr0.0 mm/hr 0.00 in0.0 mm
05:21 AM 63.1°F17.3°C 50.7°F10.4°C 64% Calm Calm 1.6 mph2.6 kmh 29.07 in984.4 mb 0.00 in0.0 mm 0.00 in/hr0.0 mm/hr 0.00 in0.0 mm
05:20 AM 63.1°F17.3°C 50.7°F10.4°C 64% Calm Calm 1.6 mph2.6 kmh 29.07 in984.4 mb 0.00 in0.0 mm 0.00 in/hr0.0 mm/hr 0.00 in0.0 mm
05:19 AM 63.1°F17.3°C 50.7°F10.4°C 64% Calm Calm 1.6 mph2.6 kmh 29.07 in984.4 mb 0.00 in0.0 mm 0.00 in/hr0.0 mm/hr 0.00 in0.0 mm
05:18 AM 63.1°F17.3°C 50.7°F10.4°C 64% Calm Calm 1.6 mph2.6 kmh 29.07 in984.4 mb 0.00 in0.0 mm 0.00 in/hr0.0 mm/hr 0.00 in0.0 mm
05:17 AM 63.1°F17.3°C 50.7°F10.4°C 64% Calm Calm 1.6 mph2.6 kmh 29.07 in984.4 mb 0.00 in0.0 mm 0.00 in/hr0.0 mm/hr 0.00 in0.0 mm
05:16 AM 63.1°F17.3°C 50.7°F10.4°C 64% Calm Calm 1.6 mph2.6 kmh 29.07 in984.4 mb 0.00 in0.0 mm 0.00 in/hr0.0 mm/hr 0.00 in0.0 mm
05:15 AM 63.1°F17.3°C 50.7°F10.4°C 64% Calm Calm 1.6 mph2.6 kmh 29.07 in984.4 mb 0.00 in0.0 mm 0.00 in/hr0.0 mm/hr 0.00 in0.0 mm
05:14 AM 63.1°F17.3°C 50.7°F10.4°C 64% Calm Calm 1.6 mph2.6 kmh 29.07 in984.4 mb 0.00 in0.0 mm 0.00 in/hr0.0 mm/hr 0.00 in0.0 mm
05:13 AM 63.1°F17.3°C 50.7°F10.4°C 64% Calm Calm 1.6 mph2.6 kmh 29.07 in984.4 mb 0.00 in0.0 mm 0.00 in/hr0.0 mm/hr 0.00 in0.0 mm
05:12 AM 63.1°F17.3°C 50.7°F10.4°C 64% Calm Calm 1.6 mph2.6 kmh 29.07 in984.4 mb 0.00 in0.0 mm 0.00 in/hr0.0 mm/hr 0.00 in0.0 mm
05:11 AM 63.1°F17.3°C 51.1°F10.6°C 65% Calm Calm 1.3 mph2.1 kmh 29.07 in984.4 mb 0.00 in0.0 mm 0.00 in/hr0.0 mm/hr 0.00 in0.0 mm
05:10 AM 63.1°F17.3°C 51.1°F10.6°C 65% 0.4 mph NNW0.6 kmh NNW 1.3 mph2.1 kmh 29.07 in984.4 mb 0.00 in0.0 mm 0.00 in/hr0.0 mm/hr 0.00 in0.0 mm
05:09 AM 63.1°F17.3°C 51.1°F10.6°C 65% Calm Calm 1.1 mph1.8 kmh 29.07 in984.4 mb 0.00 in0.0 mm 0.00 in/hr0.0 mm/hr 0.00 in0.0 mm
05:08 AM 63.1°F17.3°C 51.1°F10.6°C 65% Calm Calm 1.1 mph1.8 kmh 29.07 in984.4 mb 0.00 in0.0 mm 0.00 in/hr0.0 mm/hr 0.00 in0.0 mm
05:07 AM 63.1°F17.3°C 51.1°F10.6°C 65% Calm Calm 1.1 mph1.8 kmh 29.07 in984.4 mb 0.00 in0.0 mm 0.00 in/hr0.0 mm/hr 0.00 in0.0 mm
05:06 AM 63.1°F17.3°C 51.1°F10.6°C 65% Calm Calm 1.1 mph1.8 kmh 29.07 in984.4 mb 0.00 in0.0 mm 0.00 in/hr0.0 mm/hr 0.00 in0.0 mm
05:05 AM 63.1°F17.3°C 51.1°F10.6°C 65% Calm Calm 1.1 mph1.8 kmh 29.07 in984.4 mb 0.00 in0.0 mm 0.00 in/hr0.0 mm/hr 0.00 in0.0 mm
05:04 AM 63.1°F17.3°C 51.1°F10.6°C 65% Calm Calm 1.1 mph1.8 kmh 29.07 in984.4 mb 0.00 in0.0 mm 0.00 in/hr0.0 mm/hr 0.00 in0.0 mm
05:03 AM 63.1°F17.3°C 51.1°F10.6°C 65% Calm Calm 1.1 mph1.8 kmh 29.07 in984.4 mb 0.00 in0.0 mm 0.00 in/hr0.0 mm/hr 0.00 in0.0 mm
05:02 AM 63.1°F17.3°C 51.1°F10.6°C 65% Calm Calm -- 29.07 in984.4 mb 0.00 in0.0 mm 0.00 in/hr0.0 mm/hr 0.00 in0.0 mm
05:01 AM 63.1°F17.3°C 51.5°F10.8°C 66% Calm Calm -- 29.07 in984.4 mb 0.00 in0.0 mm 0.00 in/hr0.0 mm/hr 0.00 in0.0 mm
05:00 AM 63.1°F17.3°C 51.5°F10.8°C 66% Calm Calm -- 29.07 in984.4 mb 0.00 in0.0 mm 0.00 in/hr0.0 mm/hr 0.00 in0.0 mm
04:59 AM 63.1°F17.3°C 51.5°F10.8°C 66% Calm Calm -- 29.07 in984.4 mb 0.00 in0.0 mm 0.00 in/hr0.0 mm/hr 0.00 in0.0 mm
04:58 AM 63.1°F17.3°C 51.5°F10.8°C 66% Calm Calm -- 29.07 in984.4 mb 0.00 in0.0 mm 0.00 in/hr0.0 mm/hr 0.00 in0.0 mm
04:57 AM 63.1°F17.3°C 51.5°F10.8°C 66% Calm Calm -- 29.07 in984.4 mb 0.00 in0.0 mm 0.00 in/hr0.0 mm/hr 0.00 in0.0 mm
04:56 AM 63.1°F17.3°C 52.0°F11.1°C 67% Calm Calm -- 29.07 in984.4 mb 0.00 in0.0 mm 0.00 in/hr0.0 mm/hr 0.00 in0.0 mm
04:55 AM 63.3°F17.4°C 52.1°F11.2°C 67% Calm Calm -- 29.07 in984.4 mb 0.00 in0.0 mm 0.00 in/hr0.0 mm/hr 0.00 in0.0 mm
04:54 AM 63.3°F17.4°C 52.1°F11.2°C 67% Calm Calm -- 29.07 in984.4 mb 0.00 in0.0 mm 0.00 in/hr0.0 mm/hr 0.00 in0.0 mm
04:53 AM 63.3°F17.4°C 51.7°F10.9°C 67% Calm Calm -- 29.07 in984.4 mb 0.00 in0.0 mm 0.00 in/hr0.0 mm/hr 0.00 in0.0 mm
04:52 AM 63.5°F17.5°C 51.9°F11.1°C 66% Calm Calm -- 29.07 in984.4 mb 0.00 in0.0 mm 0.00 in/hr0.0 mm/hr 0.00 in0.0 mm
04:51 AM 63.5°F17.5°C 51.9°F11.1°C 66% Calm Calm -- 29.07 in984.4 mb 0.00 in0.0 mm 0.00 in/hr0.0 mm/hr 0.00 in0.0 mm
04:50 AM 63.5°F17.5°C 51.9°F11.1°C 66% Calm Calm -- 29.07 in984.4 mb 0.00 in0.0 mm 0.00 in/hr0.0 mm/hr 0.00 in0.0 mm
04:49 AM 63.7°F17.6°C 52.1°F11.2°C 66% Calm Calm -- 29.07 in984.4 mb 0.00 in0.0 mm 0.00 in/hr0.0 mm/hr 0.00 in0.0 mm
04:48 AM 63.7°F17.6°C 52.1°F11.2°C 66% Calm Calm -- 29.07 in984.4 mb 0.00 in0.0 mm 0.00 in/hr0.0 mm/hr 0.00 in0.0 mm
04:47 AM 63.7°F17.6°C 51.7°F10.9°C 65% Calm Calm 0.7 mph1.1 kmh 29.07 in984.4 mb 0.00 in0.0 mm 0.00 in/hr0.0 mm/hr 0.00 in0.0 mm
04:46 AM 63.7°F17.6°C 51.2°F10.7°C 65% Calm Calm 1.6 mph2.6 kmh 29.07 in984.4 mb 0.00 in0.0 mm 0.00 in/hr0.0 mm/hr 0.00 in0.0 mm
04:45 AM 63.7°F17.6°C 51.2°F10.7°C 64% Calm Calm 3.1 mph5.0 kmh 29.07 in984.4 mb 0.00 in0.0 mm 0.00 in/hr0.0 mm/hr 0.00 in0.0 mm
04:44 AM 63.7°F17.6°C 51.2°F10.7°C 64% Calm Calm 4.0 mph6.4 kmh 29.07 in984.4 mb 0.00 in0.0 mm 0.00 in/hr0.0 mm/hr 0.00 in0.0 mm
04:43 AM 63.7°F17.6°C 51.2°F10.7°C 64% Calm Calm 4.9 mph7.9 kmh 29.07 in984.4 mb 0.00 in0.0 mm 0.00 in/hr0.0 mm/hr 0.00 in0.0 mm
04:42 AM 63.7°F17.6°C 50.8°F10.4°C 63% Calm Calm 4.9 mph7.9 kmh 29.07 in984.4 mb 0.00 in0.0 mm 0.00 in/hr0.0 mm/hr 0.00 in0.0 mm
04:41 AM 63.7°F17.6°C 50.8°F10.4°C 63% Calm Calm 4.9 mph7.9 kmh 29.07 in984.4 mb 0.00 in0.0 mm 0.00 in/hr0.0 mm/hr 0.00 in0.0 mm
04:40 AM 63.7°F17.6°C 50.8°F10.4°C 63% Calm Calm 5.1 mph8.2 kmh 29.07 in984.4 mb 0.00 in0.0 mm 0.00 in/hr0.0 mm/hr 0.00 in0.0 mm
04:39 AM 63.7°F17.6°C 50.8°F10.4°C 63% Calm Calm 5.4 mph8.7 kmh 29.07 in984.4 mb 0.00 in0.0 mm 0.00 in/hr0.0 mm/hr 0.00 in0.0 mm
04:38 AM 63.7°F17.6°C 50.8°F10.4°C 63% Calm Calm 5.4 mph8.7 kmh 29.07 in984.4 mb 0.00 in0.0 mm 0.00 in/hr0.0 mm/hr 0.00 in0.0 mm
04:37 AM 63.7°F17.6°C 50.8°F10.4°C 63% Calm Calm 5.4 mph8.7 kmh 29.07 in984.4 mb 0.00 in0.0 mm 0.00 in/hr0.0 mm/hr 0.00 in0.0 mm
04:36 AM 63.7°F17.6°C 50.8°F10.4°C 63% 2.5 mph NNW4.0 kmh NNW 5.4 mph8.7 kmh 29.07 in984.4 mb 0.00 in0.0 mm 0.00 in/hr0.0 mm/hr 0.00 in0.0 mm
04:35 AM 63.7°F17.6°C 50.8°F10.4°C 63% 3.1 mph NNW5.0 kmh NNW 5.4 mph8.7 kmh 29.07 in984.4 mb 0.00 in0.0 mm 0.00 in/hr0.0 mm/hr 0.00 in0.0 mm
04:34 AM 63.7°F17.6°C 50.8°F10.4°C 63% 3.4 mph NNW5.5 kmh NNW 5.4 mph8.7 kmh 29.07 in984.4 mb 0.00 in0.0 mm 0.00 in/hr0.0 mm/hr 0.00 in0.0 mm
04:33 AM 63.7°F17.6°C 50.8°F10.4°C 63% 3.4 mph NNW5.5 kmh NNW 5.4 mph8.7 kmh 29.07 in984.4 mb 0.00 in0.0 mm 0.00 in/hr0.0 mm/hr 0.00 in0.0 mm
04:32 AM 63.7°F17.6°C 50.8°F10.4°C 63% 3.1 mph NNW5.0 kmh NNW 5.4 mph8.7 kmh 29.07 in984.4 mb 0.00 in0.0 mm 0.00 in/hr0.0 mm/hr 0.00 in0.0 mm
04:31 AM 63.7°F17.6°C 50.8°F10.4°C 63% 4.3 mph NNW6.9 kmh NNW 5.4 mph8.7 kmh 29.07 in984.4 mb 0.00 in0.0 mm 0.00 in/hr0.0 mm/hr 0.00 in0.0 mm
04:30 AM 63.7°F17.6°C 50.8°F10.4°C 63% 4.9 mph NNW7.9 kmh NNW 5.4 mph8.7 kmh 29.07 in984.4 mb 0.00 in0.0 mm 0.00 in/hr0.0 mm/hr 0.00 in0.0 mm
04:29 AM 63.7°F17.6°C 50.8°F10.4°C 63% 4.0 mph NNW6.4 kmh NNW 5.4 mph8.7 kmh 29.07 in984.4 mb 0.00 in0.0 mm 0.00 in/hr0.0 mm/hr 0.00 in0.0 mm
04:28 AM 63.7°F17.6°C 50.8°F10.4°C 63% 2.9 mph NNW4.7 kmh NNW 5.4 mph8.7 kmh 29.07 in984.4 mb 0.00 in0.0 mm 0.00 in/hr0.0 mm/hr 0.00 in0.0 mm
04:27 AM 63.7°F17.6°C 50.8°F10.4°C 63% 2.9 mph NNW4.7 kmh NNW 5.4 mph8.7 kmh 29.07 in984.4 mb 0.00 in0.0 mm 0.00 in/hr0.0 mm/hr 0.00 in0.0 mm
04:26 AM 63.7°F17.6°C 50.8°F10.4°C 63% 4.3 mph NNW6.9 kmh NNW 5.4 mph8.7 kmh 29.07 in984.4 mb 0.00 in0.0 mm 0.00 in/hr0.0 mm/hr 0.00 in0.0 mm
04:25 AM 63.7°F17.6°C 50.8°F10.4°C 63% 4.0 mph NNW6.4 kmh NNW 5.4 mph8.7 kmh 29.07 in984.4 mb 0.00 in0.0 mm 0.00 in/hr0.0 mm/hr 0.00 in0.0 mm
04:24 AM 63.7°F17.6°C 50.8°F10.4°C 63% 4.0 mph NNW6.4 kmh NNW 5.4 mph8.7 kmh 29.07 in984.4 mb 0.00 in0.0 mm 0.00 in/hr0.0 mm/hr 0.00 in0.0 mm
04:23 AM 63.7°F17.6°C 50.8°F10.4°C 63% 5.4 mph NNW8.7 kmh NNW 5.4 mph8.7 kmh 29.07 in984.4 mb 0.00 in0.0 mm 0.00 in/hr0.0 mm/hr 0.00 in0.0 mm
04:22 AM 63.7°F17.6°C 50.8°F10.4°C 63% 1.1 mph NNW1.8 kmh NNW 4.5 mph7.2 kmh 29.07 in984.4 mb 0.00 in0.0 mm 0.00 in/hr0.0 mm/hr 0.00 in0.0 mm
04:21 AM 63.7°F17.6°C 50.8°F10.4°C 63% 2.5 mph NNW4.0 kmh NNW 4.5 mph7.2 kmh 29.07 in984.4 mb 0.00 in0.0 mm 0.00 in/hr0.0 mm/hr 0.00 in0.0 mm
04:20 AM 63.7°F17.6°C 50.8°F10.4°C 63% 2.2 mph NNW3.5 kmh NNW 4.5 mph7.2 kmh 29.07 in984.4 mb 0.00 in0.0 mm 0.00 in/hr0.0 mm/hr 0.00 in0.0 mm
04:19 AM 63.7°F17.6°C 50.8°F10.4°C 63% 3.1 mph NNW5.0 kmh NNW 4.3 mph6.9 kmh 29.07 in984.4 mb 0.00 in0.0 mm 0.00 in/hr0.0 mm/hr 0.00 in0.0 mm
04:18 AM 63.7°F17.6°C 50.8°F10.4°C 63% 3.1 mph NNW5.0 kmh NNW 4.3 mph6.9 kmh 29.07 in984.4 mb 0.00 in0.0 mm 0.00 in/hr0.0 mm/hr 0.00 in0.0 mm
04:17 AM 63.5°F17.5°C 50.6°F10.3°C 63% 0.7 mph NNW1.1 kmh NNW 2.9 mph4.7 kmh 29.07 in984.4 mb 0.00 in0.0 mm 0.00 in/hr0.0 mm/hr 0.00 in0.0 mm
04:16 AM 63.7°F17.6°C 50.8°F10.4°C 63% Calm Calm -- 29.07 in984.4 mb 0.00 in0.0 mm 0.00 in/hr0.0 mm/hr 0.00 in0.0 mm
04:15 AM 63.7°F17.6°C 50.8°F10.4°C 63% Calm Calm -- 29.07 in984.4 mb 0.00 in0.0 mm 0.00 in/hr0.0 mm/hr 0.00 in0.0 mm
04:14 AM 63.7°F17.6°C 50.8°F10.4°C 63% Calm Calm -- 29.07 in984.4 mb 0.00 in0.0 mm 0.00 in/hr0.0 mm/hr 0.00 in0.0 mm
04:13 AM 63.7°F17.6°C 50.8°F10.4°C 63% Calm Calm -- 29.07 in984.4 mb 0.00 in0.0 mm 0.00 in/hr0.0 mm/hr 0.00 in0.0 mm
04:12 AM 63.5°F17.5°C 50.6°F10.3°C 63% Calm Calm -- 29.07 in984.4 mb 0.00 in0.0 mm 0.00 in/hr0.0 mm/hr 0.00 in0.0 mm
04:11 AM 63.7°F17.6°C 50.8°F10.4°C 63% Calm Calm -- 29.07 in984.4 mb 0.00 in0.0 mm 0.00 in/hr0.0 mm/hr 0.00 in0.0 mm
04:10 AM 63.7°F17.6°C 50.8°F10.4°C 63% Calm Calm -- 29.07 in984.4 mb 0.00 in0.0 mm 0.00 in/hr0.0 mm/hr 0.00 in0.0 mm
04:09 AM 63.7°F17.6°C 50.8°F10.4°C 63% Calm Calm -- 29.07 in984.4 mb 0.00 in0.0 mm 0.00 in/hr0.0 mm/hr 0.00 in0.0 mm
04:08 AM 63.7°F17.6°C 50.8°F10.4°C 63% Calm Calm -- 29.07 in984.4 mb 0.00 in0.0 mm 0.00 in/hr0.0 mm/hr 0.00 in0.0 mm
04:07 AM 63.7°F17.6°C 50.8°F10.4°C 63% Calm Calm -- 29.07 in984.4 mb 0.00 in0.0 mm 0.00 in/hr0.0 mm/hr 0.00 in0.0 mm
04:06 AM 63.7°F17.6°C 50.8°F10.4°C 63% Calm Calm -- 29.07 in984.4 mb 0.00 in0.0 mm 0.00 in/hr0.0 mm/hr 0.00 in0.0 mm
04:05 AM 63.7°F17.6°C 50.8°F10.4°C 63% Calm Calm -- 29.07 in984.4 mb 0.00 in0.0 mm 0.00 in/hr0.0 mm/hr 0.00 in0.0 mm
04:04 AM 63.7°F17.6°C 50.8°F10.4°C 63% Calm Calm -- 29.07 in984.4 mb 0.00 in0.0 mm 0.00 in/hr0.0 mm/hr 0.00 in0.0 mm
04:03 AM 63.7°F17.6°C 50.8°F10.4°C 63% Calm Calm -- 29.07 in984.4 mb 0.00 in0.0 mm 0.00 in/hr0.0 mm/hr 0.00 in0.0 mm
04:02 AM 63.7°F17.6°C 50.8°F10.4°C 63% Calm Calm -- 29.07 in984.4 mb 0.00 in0.0 mm 0.00 in/hr0.0 mm/hr 0.00 in0.0 mm
04:01 AM 63.7°F17.6°C 50.8°F10.4°C 63% Calm Calm -- 29.07 in984.4 mb 0.00 in0.0 mm 0.00 in/hr0.0 mm/hr 0.00 in0.0 mm
04:00 AM 63.7°F17.6°C 50.8°F10.4°C 63% Calm Calm -- 29.07 in984.4 mb 0.00 in0.0 mm 0.00 in/hr0.0 mm/hr 0.00 in0.0 mm
03:59 AM 63.7°F17.6°C 50.8°F10.4°C 63% Calm Calm -- 29.07 in984.4 mb 0.00 in0.0 mm 0.00 in/hr0.0 mm/hr 0.00 in0.0 mm
03:58 AM 63.7°F17.6°C 50.8°F10.4°C 63% Calm Calm -- 29.07 in984.4 mb 0.00 in0.0 mm 0.00 in/hr0.0 mm/hr 0.00 in0.0 mm
03:57 AM 63.7°F17.6°C 50.8°F10.4°C 63% Calm Calm -- 29.07 in984.4 mb 0.00 in0.0 mm 0.00 in/hr0.0 mm/hr 0.00 in0.0 mm
03:56 AM 63.7°F17.6°C 50.8°F10.4°C 63% Calm Calm -- 29.07 in984.4 mb 0.00 in0.0 mm 0.00 in/hr0.0 mm/hr 0.00 in0.0 mm
03:55 AM 63.7°F17.6°C 50.8°F10.4°C 63% Calm Calm -- 29.07 in984.4 mb 0.00 in0.0 mm 0.00 in/hr0.0 mm/hr 0.00 in0.0 mm
03:54 AM 63.7°F17.6°C 50.8°F10.4°C 63% Calm Calm -- 29.07 in984.4 mb 0.00 in0.0 mm 0.00 in/hr0.0 mm/hr 0.00 in0.0 mm
03:53 AM 63.7°F17.6°C 50.8°F10.4°C 63% Calm Calm -- 29.07 in984.4 mb 0.00 in0.0 mm 0.00 in/hr0.0 mm/hr 0.00 in0.0 mm
03:52 AM 63.7°F17.6°C 50.8°F10.4°C 63% Calm Calm -- 29.07 in984.4 mb 0.00 in0.0 mm 0.00 in/hr0.0 mm/hr 0.00 in0.0 mm
03:51 AM 63.7°F17.6°C 50.8°F10.4°C 63% Calm Calm -- 29.07 in984.4 mb 0.00 in0.0 mm 0.00 in/hr0.0 mm/hr 0.00 in0.0 mm
03:50 AM 63.7°F17.6°C 50.8°F10.4°C 63% Calm Calm -- 29.06 in984.1 mb 0.00 in0.0 mm 0.00 in/hr0.0 mm/hr 0.00 in0.0 mm
03:49 AM 63.7°F17.6°C 50.8°F10.4°C 63% Calm Calm -- 29.07 in984.4 mb 0.00 in0.0 mm 0.00 in/hr0.0 mm/hr 0.00 in0.0 mm
03:48 AM 63.7°F17.6°C 50.8°F10.4°C 63% Calm Calm -- 29.07 in984.4 mb 0.00 in0.0 mm 0.00 in/hr0.0 mm/hr 0.00 in0.0 mm
03:47 AM 63.7°F17.6°C 50.8°F10.4°C 63% Calm Calm -- 29.06 in984.1 mb 0.00 in0.0 mm 0.00 in/hr0.0 mm/hr 0.00 in0.0 mm
03:46 AM 63.7°F17.6°C 50.8°F10.4°C 63% Calm Calm -- 29.06 in984.1 mb 0.00 in0.0 mm 0.00 in/hr0.0 mm/hr 0.00 in0.0 mm
03:45 AM 63.7°F17.6°C 50.8°F10.4°C 63% Calm Calm -- 29.07 in984.4 mb 0.00 in0.0 mm 0.00 in/hr0.0 mm/hr 0.00 in0.0 mm
03:44 AM 63.7°F17.6°C 50.8°F10.4°C 63% Calm Calm -- 29.07 in984.4 mb 0.00 in0.0 mm 0.00 in/hr0.0 mm/hr 0.00 in0.0 mm
03:43 AM 63.7°F17.6°C 50.8°F10.4°C 63% Calm Calm -- 29.07 in984.4 mb 0.00 in0.0 mm 0.00 in/hr0.0 mm/hr 0.00 in0.0 mm
03:42 AM 63.7°F17.6°C 50.8°F10.4°C 63% Calm Calm -- 29.07 in984.4 mb 0.00 in0.0 mm 0.00 in/hr0.0 mm/hr 0.00 in0.0 mm
03:41 AM 63.9°F17.7°C 51.0°F10.6°C 63% Calm Calm -- 29.07 in984.4 mb 0.00 in0.0 mm 0.00 in/hr0.0 mm/hr 0.00 in0.0 mm
03:40 AM 63.7°F17.6°C 50.8°F10.4°C 63% Calm Calm -- 29.07 in984.4 mb 0.00 in0.0 mm 0.00 in/hr0.0 mm/hr 0.00 in0.0 mm
03:39 AM 63.9°F17.7°C 51.0°F10.6°C 63% Calm Calm -- 29.07 in984.4 mb 0.00 in0.0 mm 0.00 in/hr0.0 mm/hr 0.00 in0.0 mm
03:38 AM 64.0°F17.8°C 51.1°F10.6°C 63% Calm Calm -- 29.07 in984.4 mb 0.00 in0.0 mm 0.00 in/hr0.0 mm/hr 0.00 in0.0 mm
03:37 AM 64.0°F17.8°C 51.1°F10.6°C 63% Calm Calm -- 29.07 in984.4 mb 0.00 in0.0 mm 0.00 in/hr0.0 mm/hr 0.00 in0.0 mm
03:36 AM 63.9°F17.7°C 51.0°F10.6°C 63% Calm Calm -- 29.07 in984.4 mb 0.00 in0.0 mm 0.00 in/hr0.0 mm/hr 0.00 in0.0 mm
03:35 AM 64.0°F17.8°C 51.1°F10.6°C 63% Calm Calm -- 29.07 in984.4 mb 0.00 in0.0 mm 0.00 in/hr0.0 mm/hr 0.00 in0.0 mm
03:34 AM 64.0°F17.8°C 51.1°F10.6°C 63% Calm Calm -- 29.07 in984.4 mb 0.00 in0.0 mm 0.00 in/hr0.0 mm/hr 0.00 in0.0 mm
03:33 AM 64.0°F17.8°C 51.1°F10.6°C 63% Calm Calm -- 29.07 in984.4 mb 0.00 in0.0 mm 0.00 in/hr0.0 mm/hr 0.00 in0.0 mm
03:32 AM 64.0°F17.8°C 51.1°F10.6°C 63% Calm Calm -- 29.07 in984.4 mb 0.00 in0.0 mm 0.00 in/hr0.0 mm/hr 0.00 in0.0 mm
03:31 AM 64.0°F17.8°C 51.1°F10.6°C 63% Calm Calm -- 29.07 in984.4 mb 0.00 in0.0 mm 0.00 in/hr0.0 mm/hr 0.00 in0.0 mm
03:30 AM 64.0°F17.8°C 51.1°F10.6°C 63% Calm Calm -- 29.07 in984.4 mb 0.00 in0.0 mm 0.00 in/hr0.0 mm/hr 0.00 in0.0 mm
03:29 AM 64.0°F17.8°C 51.1°F10.6°C 63% Calm Calm -- 29.07 in984.4 mb 0.00 in0.0 mm 0.00 in/hr0.0 mm/hr 0.00 in0.0 mm
03:28 AM 64.0°F17.8°C 51.1°F10.6°C 63% Calm Calm -- 29.07 in984.4 mb 0.00 in0.0 mm 0.00 in/hr0.0 mm/hr 0.00 in0.0 mm
03:27 AM 64.0°F17.8°C 51.1°F10.6°C 63% Calm Calm -- 29.07 in984.4 mb 0.00 in0.0 mm 0.00 in/hr0.0 mm/hr 0.00 in0.0 mm
03:26 AM 64.0°F17.8°C 51.1°F10.6°C 63% Calm Calm -- 29.07 in984.4 mb 0.00 in0.0 mm 0.00 in/hr0.0 mm/hr 0.00 in0.0 mm
03:25 AM 64.0°F17.8°C 51.1°F10.6°C 63% Calm Calm -- 29.07 in984.4 mb 0.00 in0.0 mm 0.00 in/hr0.0 mm/hr 0.00 in0.0 mm
03:24 AM 64.0°F17.8°C 51.1°F10.6°C 63% Calm Calm -- 29.07 in984.4 mb 0.00 in0.0 mm 0.00 in/hr0.0 mm/hr 0.00 in0.0 mm
03:23 AM 64.0°F17.8°C 51.1°F10.6°C 63% Calm Calm -- 29.07 in984.4 mb 0.00 in0.0 mm 0.00 in/hr0.0 mm/hr 0.00 in0.0 mm
03:22 AM 64.2°F17.9°C 51.3°F10.7°C 63% Calm Calm -- 29.07 in984.4 mb 0.00 in0.0 mm 0.00 in/hr0.0 mm/hr 0.00 in0.0 mm
03:21 AM 64.2°F17.9°C 51.3°F10.7°C 63% Calm Calm -- 29.07 in984.4 mb 0.00 in0.0 mm 0.00 in/hr0.0 mm/hr 0.00 in0.0 mm
03:20 AM 64.2°F17.9°C 51.3°F10.7°C 63% Calm Calm -- 29.07 in984.4 mb 0.00 in0.0 mm 0.00 in/hr0.0 mm/hr 0.00 in0.0 mm
03:19 AM 64.2°F17.9°C 51.3°F10.7°C 63% Calm Calm -- 29.07 in984.4 mb 0.00 in0.0 mm 0.00 in/hr0.0 mm/hr 0.00 in0.0 mm
03:18 AM 64.2°F17.9°C 51.3°F10.7°C 63% Calm Calm -- 29.07 in984.4 mb 0.00 in0.0 mm 0.00 in/hr0.0 mm/hr 0.00 in0.0 mm
03:17 AM 64.2°F17.9°C 51.3°F10.7°C 63% Calm Calm -- 29.07 in984.4 mb 0.00 in0.0 mm 0.00 in/hr0.0 mm/hr 0.00 in0.0 mm
03:16 AM 64.2°F17.9°C 51.3°F10.7°C 63% Calm Calm -- 29.07 in984.4 mb 0.00 in0.0 mm 0.00 in/hr0.0 mm/hr 0.00 in0.0 mm
03:15 AM 64.2°F17.9°C 51.3°F10.7°C 63% Calm Calm -- 29.07 in984.4 mb 0.00 in0.0 mm 0.00 in/hr0.0 mm/hr 0.00 in0.0 mm
03:14 AM 64.2°F17.9°C 51.3°F10.7°C 63% Calm Calm -- 29.07 in984.4 mb 0.00 in0.0 mm 0.00 in/hr0.0 mm/hr 0.00 in0.0 mm
03:13 AM 64.2°F17.9°C 51.3°F10.7°C 63% Calm Calm -- 29.07 in984.4 mb 0.00 in0.0 mm 0.00 in/hr0.0 mm/hr 0.00 in0.0 mm
03:12 AM 64.2°F17.9°C 51.3°F10.7°C 63% Calm Calm -- 29.07 in984.4 mb 0.00 in0.0 mm 0.00 in/hr0.0 mm/hr 0.00 in0.0 mm
03:11 AM 64.2°F17.9°C 51.3°F10.7°C 63% Calm Calm -- 29.07 in984.4 mb 0.00 in0.0 mm 0.00 in/hr0.0 mm/hr 0.00 in0.0 mm
03:10 AM 64.2°F17.9°C 51.3°F10.7°C 63% Calm Calm -- 29.07 in984.4 mb 0.00 in0.0 mm 0.00 in/hr0.0 mm/hr 0.00 in0.0 mm
03:09 AM 64.2°F17.9°C 51.3°F10.7°C 63% Calm Calm -- 29.07 in984.4 mb 0.00 in0.0 mm 0.00 in/hr0.0 mm/hr 0.00 in0.0 mm
03:08 AM 64.2°F17.9°C 51.3°F10.7°C 63% Calm Calm -- 29.07 in984.4 mb 0.00 in0.0 mm 0.00 in/hr0.0 mm/hr 0.00 in0.0 mm
03:07 AM 64.2°F17.9°C 51.3°F10.7°C 63% Calm Calm -- 29.07 in984.4 mb 0.00 in0.0 mm 0.00 in/hr0.0 mm/hr 0.00 in0.0 mm
03:06 AM 64.4°F18.0°C 51.5°F10.8°C 63% Calm Calm -- 29.07 in984.4 mb 0.00 in0.0 mm 0.00 in/hr0.0 mm/hr 0.00 in0.0 mm
03:05 AM 64.4°F18.0°C 51.5°F10.8°C 63% Calm Calm -- 29.07 in984.4 mb 0.00 in0.0 mm 0.00 in/hr0.0 mm/hr 0.00 in0.0 mm
03:04 AM 64.4°F18.0°C 51.5°F10.8°C 63% Calm Calm -- 29.07 in984.4 mb 0.00 in0.0 mm 0.00 in/hr0.0 mm/hr 0.00 in0.0 mm
03:03 AM 64.6°F18.1°C 51.6°F10.9°C 63% Calm Calm -- 29.07 in984.4 mb 0.00 in0.0 mm 0.00 in/hr0.0 mm/hr 0.00 in0.0 mm
03:02 AM 64.6°F18.1°C 51.6°F10.9°C 63% Calm Calm -- 29.07 in984.4 mb 0.00 in0.0 mm 0.00 in/hr0.0 mm/hr 0.00 in0.0 mm
03:01 AM 64.6°F18.1°C 51.6°F10.9°C 63% Calm Calm -- 29.07 in984.4 mb 0.00 in0.0 mm 0.00 in/hr0.0 mm/hr 0.00 in0.0 mm
03:00 AM 64.6°F18.1°C 51.6°F10.9°C 63% Calm Calm -- 29.07 in984.4 mb 0.00 in0.0 mm 0.00 in/hr0.0 mm/hr 0.00 in0.0 mm
02:59 AM 64.6°F18.1°C 51.6°F10.9°C 63% Calm Calm -- 29.07 in984.4 mb 0.00 in0.0 mm 0.00 in/hr0.0 mm/hr 0.00 in0.0 mm
02:58 AM 64.6°F18.1°C 51.6°F10.9°C 63% Calm Calm -- 29.07 in984.4 mb 0.00 in0.0 mm 0.00 in/hr0.0 mm/hr 0.00 in0.0 mm
02:57 AM 64.6°F18.1°C 51.6°F10.9°C 63% Calm Calm -- 29.07 in984.4 mb 0.00 in0.0 mm 0.00 in/hr0.0 mm/hr 0.00 in0.0 mm
02:56 AM 64.6°F18.1°C 51.6°F10.9°C 63% Calm Calm -- 29.07 in984.4 mb 0.00 in0.0 mm 0.00 in/hr0.0 mm/hr 0.00 in0.0 mm
02:55 AM 64.6°F18.1°C 51.6°F10.9°C 63% Calm Calm -- 29.07 in984.4 mb 0.00 in0.0 mm 0.00 in/hr0.0 mm/hr 0.00 in0.0 mm
02:54 AM 64.6°F18.1°C 51.6°F10.9°C 63% Calm Calm -- 29.07 in984.4 mb 0.00 in0.0 mm 0.00 in/hr0.0 mm/hr 0.00 in0.0 mm
02:53 AM 64.6°F18.1°C 51.6°F10.9°C 63% Calm Calm -- 29.07 in984.4 mb 0.00 in0.0 mm 0.00 in/hr0.0 mm/hr 0.00 in0.0 mm
02:52 AM 64.6°F18.1°C 51.6°F10.9°C 63% Calm Calm -- 29.07 in984.4 mb 0.00 in0.0 mm 0.00 in/hr0.0 mm/hr 0.00 in0.0 mm
02:51 AM 64.6°F18.1°C 51.6°F10.9°C 63% Calm Calm -- 29.07 in984.4 mb 0.00 in0.0 mm 0.00 in/hr0.0 mm/hr 0.00 in0.0 mm
02:50 AM 64.8°F18.2°C 51.8°F11.0°C 63% Calm Calm -- 29.07 in984.4 mb 0.00 in0.0 mm 0.00 in/hr0.0 mm/hr 0.00 in0.0 mm
02:49 AM 64.8°F18.2°C 51.8°F11.0°C 63% Calm Calm -- 29.07 in984.4 mb 0.00 in0.0 mm 0.00 in/hr0.0 mm/hr 0.00 in0.0 mm
02:48 AM 64.8°F18.2°C 51.8°F11.0°C 63% Calm Calm -- 29.07 in984.4 mb 0.00 in0.0 mm 0.00 in/hr0.0 mm/hr 0.00 in0.0 mm
02:47 AM 64.8°F18.2°C 51.8°F11.0°C 63% Calm Calm -- 29.07 in984.4 mb 0.00 in0.0 mm 0.00 in/hr0.0 mm/hr 0.00 in0.0 mm
02:46 AM 64.8°F18.2°C 51.8°F11.0°C 63% Calm Calm -- 29.07 in984.4 mb 0.00 in0.0 mm 0.00 in/hr0.0 mm/hr 0.00 in0.0 mm
02:45 AM 64.8°F18.2°C 51.8°F11.0°C 63% Calm Calm -- 29.07 in984.4 mb 0.00 in0.0 mm 0.00 in/hr0.0 mm/hr 0.00 in0.0 mm
02:44 AM 64.8°F18.2°C 51.8°F11.0°C 63% Calm Calm -- 29.07 in984.4 mb 0.00 in0.0 mm 0.00 in/hr0.0 mm/hr 0.00 in0.0 mm
02:43 AM 64.9°F18.3°C 52.0°F11.1°C 63% Calm Calm -- 29.07 in984.4 mb 0.00 in0.0 mm 0.00 in/hr0.0 mm/hr 0.00 in0.0 mm
02:42 AM 64.9°F18.3°C 52.0°F11.1°C 63% Calm Calm -- 29.07 in984.4 mb 0.00 in0.0 mm 0.00 in/hr0.0 mm/hr 0.00 in0.0 mm
02:41 AM 64.9°F18.3°C 52.0°F11.1°C 63% Calm Calm -- 29.07 in984.4 mb 0.00 in0.0 mm 0.00 in/hr0.0 mm/hr 0.00 in0.0 mm
02:40 AM 64.9°F18.3°C 52.0°F11.1°C 63% Calm Calm -- 29.07 in984.4 mb 0.00 in0.0 mm 0.00 in/hr0.0 mm/hr 0.00 in0.0 mm
02:39 AM 64.9°F18.3°C 52.0°F11.1°C 63% Calm Calm -- 29.07 in984.4 mb 0.00 in0.0 mm 0.00 in/hr0.0 mm/hr 0.00 in0.0 mm
02:38 AM 64.9°F18.3°C 52.0°F11.1°C 63% Calm Calm -- 29.07 in984.4 mb 0.00 in0.0 mm 0.00 in/hr0.0 mm/hr 0.00 in0.0 mm
02:37 AM 64.9°F18.3°C 52.0°F11.1°C 63% Calm Calm -- 29.07 in984.4 mb 0.00 in0.0 mm 0.00 in/hr0.0 mm/hr 0.00 in0.0 mm
02:36 AM 64.9°F18.3°C 52.0°F11.1°C 63% Calm Calm -- 29.07 in984.4 mb 0.00 in0.0 mm 0.00 in/hr0.0 mm/hr 0.00 in0.0 mm
02:35 AM 64.9°F18.3°C 52.0°F11.1°C 63% Calm Calm -- 29.07 in984.4 mb 0.00 in0.0 mm 0.00 in/hr0.0 mm/hr 0.00 in0.0 mm
02:34 AM 64.9°F18.3°C 52.0°F11.1°C 63% Calm Calm -- 29.07 in984.4 mb 0.00 in0.0 mm 0.00 in/hr0.0 mm/hr 0.00 in0.0 mm
02:33 AM 64.9°F18.3°C 52.0°F11.1°C 63% Calm Calm -- 29.07 in984.4 mb 0.00 in0.0 mm 0.00 in/hr0.0 mm/hr 0.00 in0.0 mm
02:32 AM 64.9°F18.3°C 52.0°F11.1°C 63% Calm Calm -- 29.07 in984.4 mb 0.00 in0.0 mm 0.00 in/hr0.0 mm/hr 0.00 in0.0 mm
02:31 AM 65.1°F18.4°C 52.2°F11.2°C 63% Calm Calm -- 29.07 in984.4 mb 0.00 in0.0 mm 0.00 in/hr0.0 mm/hr 0.00 in0.0 mm
02:30 AM 65.1°F18.4°C 52.2°F11.2°C 63% Calm Calm -- 29.07 in984.4 mb 0.00 in0.0 mm 0.00 in/hr0.0 mm/hr 0.00 in0.0 mm
02:29 AM 65.1°F18.4°C 52.2°F11.2°C 63% Calm Calm -- 29.07 in984.4 mb 0.00 in0.0 mm 0.00 in/hr0.0 mm/hr 0.00 in0.0 mm
02:28 AM 65.1°F18.4°C 52.2°F11.2°C 63% Calm Calm -- 29.07 in984.4 mb 0.00 in0.0 mm 0.00 in/hr0.0 mm/hr 0.00 in0.0 mm
02:27 AM 65.1°F18.4°C 52.2°F11.2°C 63% Calm Calm -- 29.07 in984.4 mb 0.00 in0.0 mm 0.00 in/hr0.0 mm/hr 0.00 in0.0 mm
02:26 AM 65.1°F18.4°C 52.2°F11.2°C 63% Calm Calm -- 29.07 in984.4 mb 0.00 in0.0 mm 0.00 in/hr0.0 mm/hr 0.00 in0.0 mm
02:25 AM 65.1°F18.4°C 52.2°F11.2°C 63% Calm Calm -- 29.07 in984.4 mb 0.00 in0.0 mm 0.00 in/hr0.0 mm/hr 0.00 in0.0 mm
02:24 AM 65.1°F18.4°C 52.2°F11.2°C 63% Calm Calm -- 29.07 in984.4 mb 0.00 in0.0 mm 0.00 in/hr0.0 mm/hr 0.00 in0.0 mm
02:23 AM 65.1°F18.4°C 52.2°F11.2°C 63% Calm Calm -- 29.07 in984.4 mb 0.00 in0.0 mm 0.00 in/hr0.0 mm/hr 0.00 in0.0 mm
02:22 AM 65.1°F18.4°C 52.2°F11.2°C 63% Calm Calm -- 29.07 in984.4 mb 0.00 in0.0 mm 0.00 in/hr0.0 mm/hr 0.00 in0.0 mm
02:21 AM 65.1°F18.4°C 52.2°F11.2°C 63% Calm Calm -- 29.07 in984.4 mb 0.00 in0.0 mm 0.00 in/hr0.0 mm/hr 0.00 in0.0 mm
02:20 AM 65.1°F18.4°C 52.2°F11.2°C 63% Calm Calm -- 29.07 in984.4 mb 0.00 in0.0 mm 0.00 in/hr0.0 mm/hr 0.00 in0.0 mm
02:19 AM 65.1°F18.4°C 52.2°F11.2°C 63% Calm Calm -- 29.07 in984.4 mb 0.00 in0.0 mm 0.00 in/hr0.0 mm/hr 0.00 in0.0 mm
02:18 AM 65.1°F18.4°C 52.2°F11.2°C 63% Calm Calm -- 29.07 in984.4 mb 0.00 in0.0 mm 0.00 in/hr0.0 mm/hr 0.00 in0.0 mm
02:17 AM 65.1°F18.4°C 52.2°F11.2°C 63% Calm Calm -- 29.07 in984.4 mb 0.00 in0.0 mm 0.00 in/hr0.0 mm/hr 0.00 in0.0 mm
02:16 AM 65.1°F18.4°C 52.2°F11.2°C 63% Calm Calm -- 29.07 in984.4 mb 0.00 in0.0 mm 0.00 in/hr0.0 mm/hr 0.00 in0.0 mm
02:15 AM 65.1°F18.4°C 52.2°F11.2°C 63% Calm Calm -- 29.07 in984.4 mb 0.00 in0.0 mm 0.00 in/hr0.0 mm/hr 0.00 in0.0 mm
02:14 AM 65.3°F18.5°C 51.9°F11.1°C 62% Calm Calm -- 29.07 in984.4 mb 0.00 in0.0 mm 0.00 in/hr0.0 mm/hr 0.00 in0.0 mm
02:13 AM 65.3°F18.5°C 51.9°F11.1°C 62% Calm Calm -- 29.07 in984.4 mb 0.00 in0.0 mm 0.00 in/hr0.0 mm/hr 0.00 in0.0 mm
02:12 AM 65.3°F18.5°C 51.9°F11.1°C 62% Calm Calm -- 29.07 in984.4 mb 0.00 in0.0 mm 0.00 in/hr0.0 mm/hr 0.00 in0.0 mm
02:11 AM 65.3°F18.5°C 51.9°F11.1°C 62% Calm Calm -- 29.07 in984.4 mb 0.00 in0.0 mm 0.00 in/hr0.0 mm/hr 0.00 in0.0 mm
02:10 AM 65.3°F18.5°C 51.9°F11.1°C 62% Calm Calm -- 29.07 in984.4 mb 0.00 in0.0 mm 0.00 in/hr0.0 mm/hr 0.00 in0.0 mm
02:09 AM 65.3°F18.5°C 51.9°F11.1°C 62% Calm Calm -- 29.07 in984.4 mb 0.00 in0.0 mm 0.00 in/hr0.0 mm/hr 0.00 in0.0 mm
02:08 AM 65.5°F18.6°C 52.1°F11.2°C 62% Calm Calm -- 29.07 in984.4 mb 0.00 in0.0 mm 0.00 in/hr0.0 mm/hr 0.00 in0.0 mm
02:07 AM 65.5°F18.6°C 52.1°F11.2°C 62% Calm Calm -- 29.07 in984.4 mb 0.00 in0.0 mm 0.00 in/hr0.0 mm/hr 0.00 in0.0 mm
02:06 AM 65.5°F18.6°C 52.1°F11.2°C 62% Calm Calm -- 29.07 in984.4 mb 0.00 in0.0 mm 0.00 in/hr0.0 mm/hr 0.00 in0.0 mm
02:05 AM 65.5°F18.6°C 52.1°F11.2°C 62% Calm Calm -- 29.07 in984.4 mb 0.00 in0.0 mm 0.00 in/hr0.0 mm/hr 0.00 in0.0 mm
02:04 AM 65.5°F18.6°C 52.1°F11.2°C 62% Calm Calm -- 29.07 in984.4 mb 0.00 in0.0 mm 0.00 in/hr0.0 mm/hr 0.00 in0.0 mm
02:03 AM 65.5°F18.6°C 52.1°F11.2°C 62% Calm Calm -- 29.07 in984.4 mb 0.00 in0.0 mm 0.00 in/hr0.0 mm/hr 0.00 in0.0 mm
02:02 AM 65.5°F18.6°C 52.1°F11.2°C 62% Calm Calm -- 29.07 in984.4 mb 0.00 in0.0 mm 0.00 in/hr0.0 mm/hr 0.00 in0.0 mm
02:01 AM 65.7°F18.7°C 52.3°F11.3°C 62% Calm Calm -- 29.07 in984.4 mb 0.00 in0.0 mm 0.00 in/hr0.0 mm/hr 0.00 in0.0 mm
02:00 AM 65.7°F18.7°C 52.3°F11.3°C 62% Calm Calm -- 29.07 in984.4 mb 0.00 in0.0 mm 0.00 in/hr0.0 mm/hr 0.00 in0.0 mm
01:59 AM 65.7°F18.7°C 52.3°F11.3°C 62% Calm Calm -- 29.07 in984.4 mb 0.00 in0.0 mm 0.00 in/hr0.0 mm/hr 0.00 in0.0 mm
01:58 AM 65.7°F18.7°C 52.3°F11.3°C 62% Calm Calm -- 29.07 in984.4 mb 0.00 in0.0 mm 0.00 in/hr0.0 mm/hr 0.00 in0.0 mm
01:57 AM 65.8°F18.8°C 52.4°F11.3°C 62% Calm Calm -- 29.07 in984.4 mb 0.00 in0.0 mm 0.00 in/hr0.0 mm/hr 0.00 in0.0 mm
01:56 AM 65.7°F18.7°C 52.3°F11.3°C 62% Calm Calm -- 29.07 in984.4 mb 0.00 in0.0 mm 0.00 in/hr0.0 mm/hr 0.00 in0.0 mm
01:55 AM 65.8°F18.8°C 52.4°F11.3°C 62% Calm Calm -- 29.07 in984.4 mb 0.00 in0.0 mm 0.00 in/hr0.0 mm/hr 0.00 in0.0 mm
01:54 AM 65.8°F18.8°C 52.4°F11.3°C 62% Calm Calm -- 29.07 in984.4 mb 0.00 in0.0 mm 0.00 in/hr0.0 mm/hr 0.00 in0.0 mm
01:53 AM 65.8°F18.8°C 52.4°F11.3°C 62% Calm Calm -- 29.07 in984.4 mb 0.00 in0.0 mm 0.00 in/hr0.0 mm/hr 0.00 in0.0 mm
01:52 AM 65.8°F18.8°C 52.4°F11.3°C 62% Calm Calm -- 29.07 in984.4 mb 0.00 in0.0 mm 0.00 in/hr0.0 mm/hr 0.00 in0.0 mm
01:51 AM 65.8°F18.8°C 52.4°F11.3°C 62% Calm Calm -- 29.07 in984.4 mb 0.00 in0.0 mm 0.00 in/hr0.0 mm/hr 0.00 in0.0 mm
01:50 AM 65.8°F18.8°C 52.4°F11.3°C 62% Calm Calm -- 29.07 in984.4 mb 0.00 in0.0 mm 0.00 in/hr0.0 mm/hr 0.00 in0.0 mm
01:49 AM 65.8°F18.8°C 52.4°F11.3°C 62% Calm Calm -- 29.07 in984.4 mb 0.00 in0.0 mm 0.00 in/hr0.0 mm/hr 0.00 in0.0 mm
01:48 AM 65.8°F18.8°C 52.4°F11.3°C 62% Calm Calm -- 29.07 in984.4 mb 0.00 in0.0 mm 0.00 in/hr0.0 mm/hr 0.00 in0.0 mm
01:47 AM 65.8°F18.8°C 52.9°F11.6°C 63% Calm Calm -- 29.07 in984.4 mb 0.00 in0.0 mm 0.00 in/hr0.0 mm/hr 0.00 in0.0 mm
01:46 AM 65.8°F18.8°C 52.9°F11.6°C 63% Calm Calm -- 29.07 in984.4 mb 0.00 in0.0 mm 0.00 in/hr0.0 mm/hr 0.00 in0.0 mm
01:45 AM 66.0°F18.9°C 52.6°F11.4°C 62% Calm Calm -- 29.07 in984.4 mb 0.00 in0.0 mm 0.00 in/hr0.0 mm/hr 0.00 in0.0 mm
01:44 AM 66.0°F18.9°C 52.6°F11.4°C 62% Calm Calm -- 29.07 in984.4 mb 0.00 in0.0 mm 0.00 in/hr0.0 mm/hr 0.00 in0.0 mm
01:43 AM 66.0°F18.9°C 52.6°F11.4°C 62% Calm Calm -- 29.07 in984.4 mb 0.00 in0.0 mm 0.00 in/hr0.0 mm/hr 0.00 in0.0 mm
01:42 AM 66.0°F18.9°C 53.0°F11.7°C 63% Calm Calm -- 29.07 in984.4 mb 0.00 in0.0 mm 0.00 in/hr0.0 mm/hr 0.00 in0.0 mm
01:41 AM 66.0°F18.9°C 53.0°F11.7°C 63% Calm Calm -- 29.07 in984.4 mb 0.00 in0.0 mm 0.00 in/hr0.0 mm/hr 0.00 in0.0 mm
01:40 AM 66.0°F18.9°C 53.0°F11.7°C 63% Calm Calm -- 29.07 in984.4 mb 0.00 in0.0 mm 0.00 in/hr0.0 mm/hr 0.00 in0.0 mm
01:39 AM 66.0°F18.9°C 53.0°F11.7°C 63% Calm Calm -- 29.07 in984.4 mb 0.00 in0.0 mm 0.00 in/hr0.0 mm/hr 0.00 in0.0 mm
01:38 AM 66.0°F18.9°C 53.0°F11.7°C 63% Calm Calm -- 29.07 in984.4 mb 0.00 in0.0 mm 0.00 in/hr0.0 mm/hr 0.00 in0.0 mm
01:37 AM 66.0°F18.9°C 53.0°F11.7°C 63% Calm Calm -- 29.07 in984.4 mb 0.00 in0.0 mm 0.00 in/hr0.0 mm/hr 0.00 in0.0 mm
01:36 AM 66.0°F18.9°C 53.0°F11.7°C 63% Calm Calm -- 29.07 in984.4 mb 0.00 in0.0 mm 0.00 in/hr0.0 mm/hr 0.00 in0.0 mm
01:35 AM 66.0°F18.9°C 53.0°F11.7°C 63% Calm Calm -- 29.07 in984.4 mb 0.00 in0.0 mm 0.00 in/hr0.0 mm/hr 0.00 in0.0 mm
01:34 AM 66.0°F18.9°C 53.0°F11.7°C 63% Calm Calm -- 29.07 in984.4 mb 0.00 in0.0 mm 0.00 in/hr0.0 mm/hr 0.00 in0.0 mm
01:33 AM 66.0°F18.9°C 53.0°F11.7°C 63% Calm Calm -- 29.07 in984.4 mb 0.00 in0.0 mm 0.00 in/hr0.0 mm/hr 0.00 in0.0 mm
01:32 AM 66.0°F18.9°C 53.0°F11.7°C 63% Calm Calm -- 29.07 in984.4 mb 0.00 in0.0 mm 0.00 in/hr0.0 mm/hr 0.00 in0.0 mm
01:31 AM 66.0°F18.9°C 53.0°F11.7°C 63% Calm Calm -- 29.07 in984.4 mb 0.00 in0.0 mm 0.00 in/hr0.0 mm/hr 0.00 in0.0 mm
01:30 AM 66.0°F18.9°C 53.0°F11.7°C 63% Calm Calm -- 29.07 in984.4 mb 0.00 in0.0 mm 0.00 in/hr0.0 mm/hr 0.00 in0.0 mm
01:29 AM 66.2°F19.0°C 53.2°F11.8°C 63% Calm Calm -- 29.07 in984.4 mb 0.00 in0.0 mm 0.00 in/hr0.0 mm/hr 0.00 in0.0 mm
01:28 AM 66.4°F19.1°C 53.4°F11.9°C 63% Calm Calm -- 29.07 in984.4 mb 0.00 in0.0 mm 0.00 in/hr0.0 mm/hr 0.00 in0.0 mm
01:27 AM 66.4°F19.1°C 53.4°F11.9°C 63% Calm Calm -- 29.07 in984.4 mb 0.00 in0.0 mm 0.00 in/hr0.0 mm/hr 0.00 in0.0 mm
01:26 AM 66.4°F19.1°C 53.4°F11.9°C 63% Calm Calm -- 29.07 in984.4 mb 0.00 in0.0 mm 0.00 in/hr0.0 mm/hr 0.00 in0.0 mm
01:25 AM 66.4°F19.1°C 53.4°F11.9°C 63% Calm Calm -- 29.07 in984.4 mb 0.00 in0.0 mm 0.00 in/hr0.0 mm/hr 0.00 in0.0 mm
01:24 AM 66.4°F19.1°C 53.4°F11.9°C 63% Calm Calm -- 29.07 in984.4 mb 0.00 in0.0 mm 0.00 in/hr0.0 mm/hr 0.00 in0.0 mm
01:23 AM 66.4°F19.1°C 53.8°F12.1°C 64% Calm Calm -- 29.07 in984.4 mb 0.00 in0.0 mm 0.00 in/hr0.0 mm/hr 0.00 in0.0 mm
01:22 AM 66.6°F19.2°C 53.5°F11.9°C 63% Calm Calm -- 29.07 in984.4 mb 0.00 in0.0 mm 0.00 in/hr0.0 mm/hr 0.00 in0.0 mm
01:21 AM 66.6°F19.2°C 53.5°F11.9°C 63% Calm Calm -- 29.07 in984.4 mb 0.00 in0.0 mm 0.00 in/hr0.0 mm/hr 0.00 in0.0 mm
01:20 AM 66.6°F19.2°C 53.1°F11.7°C 62% Calm Calm -- 29.07 in984.4 mb 0.00 in0.0 mm 0.00 in/hr0.0 mm/hr 0.00 in0.0 mm
01:19 AM 66.6°F19.2°C 53.1°F11.7°C 62% Calm Calm -- 29.07 in984.4 mb 0.00 in0.0 mm 0.00 in/hr0.0 mm/hr 0.00 in0.0 mm
01:18 AM 66.6°F19.2°C 53.1°F11.7°C 62% Calm Calm -- 29.07 in984.4 mb 0.00 in0.0 mm 0.00 in/hr0.0 mm/hr 0.00 in0.0 mm
01:17 AM 66.6°F19.2°C 53.1°F11.7°C 62% Calm Calm -- 29.07 in984.4 mb 0.00 in0.0 mm 0.00 in/hr0.0 mm/hr 0.00 in0.0 mm
01:16 AM 66.6°F19.2°C 53.1°F11.7°C 62% Calm Calm -- 29.07 in984.4 mb 0.00 in0.0 mm 0.00 in/hr0.0 mm/hr 0.00 in0.0 mm
01:15 AM 66.7°F19.3°C 53.3°F11.8°C 62% Calm Calm -- 29.07 in984.4 mb 0.00 in0.0 mm 0.00 in/hr0.0 mm/hr 0.00 in0.0 mm
01:14 AM 66.7°F19.3°C 53.3°F11.8°C 62% Calm Calm -- 29.08 in984.8 mb 0.00 in0.0 mm 0.00 in/hr0.0 mm/hr 0.00 in0.0 mm
01:13 AM 66.7°F19.3°C 53.3°F11.8°C 62% Calm Calm -- 29.07 in984.4 mb 0.00 in0.0 mm 0.00 in/hr0.0 mm/hr 0.00 in0.0 mm
01:12 AM 66.7°F19.3°C 53.3°F11.8°C 62% Calm Calm -- 29.07 in984.4 mb 0.00 in0.0 mm 0.00 in/hr0.0 mm/hr 0.00 in0.0 mm
01:11 AM 66.7°F19.3°C 53.3°F11.8°C 62% Calm Calm -- 29.08 in984.8 mb 0.00 in0.0 mm 0.00 in/hr0.0 mm/hr 0.00 in0.0 mm
01:10 AM 66.7°F19.3°C 53.3°F11.8°C 62% Calm Calm -- 29.08 in984.8 mb 0.00 in0.0 mm 0.00 in/hr0.0 mm/hr 0.00 in0.0 mm
01:09 AM 66.7°F19.3°C 53.3°F11.8°C 62% Calm Calm -- 29.08 in984.8 mb 0.00 in0.0 mm 0.00 in/hr0.0 mm/hr 0.00 in0.0 mm
01:08 AM 66.7°F19.3°C 53.3°F11.8°C 62% Calm Calm -- 29.08 in984.8 mb 0.00 in0.0 mm 0.00 in/hr0.0 mm/hr 0.00 in0.0 mm
01:07 AM 66.7°F19.3°C 53.3°F11.8°C 62% Calm Calm -- 29.08 in984.8 mb 0.00 in0.0 mm 0.00 in/hr0.0 mm/hr 0.00 in0.0 mm
01:06 AM 66.9°F19.4°C 53.5°F11.9°C 62% Calm Calm -- 29.07 in984.4 mb 0.00 in0.0 mm 0.00 in/hr0.0 mm/hr 0.00 in0.0 mm
01:05 AM 66.9°F19.4°C 53.5°F11.9°C 62% Calm Calm -- 29.08 in984.8 mb 0.00 in0.0 mm 0.00 in/hr0.0 mm/hr 0.00 in0.0 mm
01:04 AM 66.9°F19.4°C 53.5°F11.9°C 62% Calm Calm -- 29.08 in984.8 mb 0.00 in0.0 mm 0.00 in/hr0.0 mm/hr 0.00 in0.0 mm
01:03 AM 66.9°F19.4°C 53.5°F11.9°C 62% Calm Calm -- 29.08 in984.8 mb 0.00 in0.0 mm 0.00 in/hr0.0 mm/hr 0.00 in0.0 mm
01:02 AM 66.9°F19.4°C 53.5°F11.9°C 62% Calm Calm -- 29.08 in984.8 mb 0.00 in0.0 mm 0.00 in/hr0.0 mm/hr 0.00 in0.0 mm
01:01 AM 66.9°F19.4°C 53.5°F11.9°C 62% Calm Calm -- 29.08 in984.8 mb 0.00 in0.0 mm 0.00 in/hr0.0 mm/hr 0.00 in0.0 mm
01:00 AM 66.9°F19.4°C 53.5°F11.9°C 62% Calm Calm -- 29.08 in984.8 mb 0.00 in0.0 mm 0.00 in/hr0.0 mm/hr 0.00 in0.0 mm
12:59 AM 66.9°F19.4°C 53.6°F12.0°C 62% Calm Calm -- 29.08 in984.8 mb 0.00 in0.0 mm 0.00 in/hr0.0 mm/hr 0.00 in0.0 mm
12:58 AM 67.1°F19.5°C 53.6°F12.0°C 62% Calm Calm -- 29.08 in984.8 mb 0.00 in0.0 mm 0.00 in/hr0.0 mm/hr 0.00 in0.0 mm
12:57 AM 67.1°F19.5°C 53.6°F12.0°C 62% Calm Calm -- 29.08 in984.8 mb 0.00 in0.0 mm 0.00 in/hr0.0 mm/hr 0.00 in0.0 mm
12:56 AM 67.1°F19.5°C 53.6°F12.0°C 62% Calm Calm -- 29.08 in984.8 mb 0.00 in0.0 mm 0.00 in/hr0.0 mm/hr 0.00 in0.0 mm
12:55 AM 67.1°F19.5°C 53.6°F12.0°C 62% Calm Calm -- 29.08 in984.8 mb 0.00 in0.0 mm 0.00 in/hr0.0 mm/hr 0.00 in0.0 mm
12:54 AM 67.1°F19.5°C 53.6°F12.0°C 62% Calm Calm -- 29.08 in984.8 mb 0.00 in0.0 mm 0.00 in/hr0.0 mm/hr 0.00 in0.0 mm
12:53 AM 67.3°F19.6°C 53.8°F12.1°C 62% Calm Calm -- 29.08 in984.8 mb 0.00 in0.0 mm 0.00 in/hr0.0 mm/hr 0.00 in0.0 mm
12:52 AM 67.3°F19.6°C 53.8°F12.1°C 62% Calm Calm -- 29.08 in984.8 mb 0.00 in0.0 mm 0.00 in/hr0.0 mm/hr 0.00 in0.0 mm
12:51 AM 67.3°F19.6°C 53.8°F12.1°C 62% Calm Calm -- 29.08 in984.8 mb 0.00 in0.0 mm 0.00 in/hr0.0 mm/hr 0.00 in0.0 mm
12:50 AM 67.3°F19.6°C 53.8°F12.1°C 62% Calm Calm -- 29.08 in984.8 mb 0.00 in0.0 mm 0.00 in/hr0.0 mm/hr 0.00 in0.0 mm
12:49 AM 67.3°F19.6°C 53.8°F12.1°C 62% Calm Calm -- 29.08 in984.8 mb 0.00 in0.0 mm 0.00 in/hr0.0 mm/hr 0.00 in0.0 mm
12:48 AM 67.3°F19.6°C 53.8°F12.1°C 62% Calm Calm -- 29.08 in984.8 mb 0.00 in0.0 mm 0.00 in/hr0.0 mm/hr 0.00 in0.0 mm
12:47 AM 67.3°F19.6°C 53.8°F12.1°C 62% Calm Calm -- 29.08 in984.8 mb 0.00 in0.0 mm 0.00 in/hr0.0 mm/hr 0.00 in0.0 mm
12:46 AM 67.3°F19.6°C 53.8°F12.1°C 62% Calm Calm -- 29.08 in984.8 mb 0.00 in0.0 mm 0.00 in/hr0.0 mm/hr 0.00 in0.0 mm
12:45 AM 67.3°F19.6°C 53.8°F12.1°C 62% Calm Calm -- 29.08 in984.8 mb 0.00 in0.0 mm 0.00 in/hr0.0 mm/hr 0.00 in0.0 mm
12:44 AM 67.5°F19.7°C 54.0°F12.2°C 62% Calm Calm -- 29.08 in984.8 mb 0.00 in0.0 mm 0.00 in/hr0.0 mm/hr 0.00 in0.0 mm
12:43 AM 67.6°F19.8°C 54.1°F12.3°C 62% Calm Calm -- 29.08 in984.8 mb 0.00 in0.0 mm 0.00 in/hr0.0 mm/hr 0.00 in0.0 mm
12:42 AM 67.6°F19.8°C 54.1°F12.3°C 62% Calm Calm -- 29.08 in984.8 mb 0.00 in0.0 mm 0.00 in/hr0.0 mm/hr 0.00 in0.0 mm
12:41 AM 67.6°F19.8°C 54.1°F12.3°C 62% Calm Calm -- 29.08 in984.8 mb 0.00 in0.0 mm 0.00 in/hr0.0 mm/hr 0.00 in0.0 mm
12:40 AM 67.6°F19.8°C 54.1°F12.3°C 62% Calm Calm -- 29.08 in984.8 mb 0.00 in0.0 mm 0.00 in/hr0.0 mm/hr 0.00 in0.0 mm
12:39 AM 67.6°F19.8°C 54.1°F12.3°C 62% Calm Calm -- 29.08 in984.8 mb 0.00 in0.0 mm 0.00 in/hr0.0 mm/hr 0.00 in0.0 mm
12:38 AM 67.6°F19.8°C 54.1°F12.3°C 62% Calm Calm -- 29.08 in984.8 mb 0.00 in0.0 mm 0.00 in/hr0.0 mm/hr 0.00 in0.0 mm
12:37 AM 67.6°F19.8°C 54.1°F12.3°C 62% Calm Calm -- 29.08 in984.8 mb 0.00 in0.0 mm 0.00 in/hr0.0 mm/hr 0.00 in0.0 mm
12:36 AM 67.8°F19.9°C 54.3°F12.4°C 62% Calm Calm -- 29.08 in984.8 mb 0.00 in0.0 mm 0.00 in/hr0.0 mm/hr 0.00 in0.0 mm
12:35 AM 67.8°F19.9°C 54.3°F12.4°C 62% Calm Calm -- 29.08 in984.8 mb 0.00 in0.0 mm 0.00 in/hr0.0 mm/hr 0.00 in0.0 mm
12:34 AM 67.8°F19.9°C 54.3°F12.4°C 62% Calm Calm -- 29.08 in984.8 mb 0.00 in0.0 mm 0.00 in/hr0.0 mm/hr 0.00 in0.0 mm
12:33 AM 67.8°F19.9°C 54.3°F12.4°C 62% Calm Calm -- 29.08 in984.8 mb 0.00 in0.0 mm 0.00 in/hr0.0 mm/hr 0.00 in0.0 mm
12:32 AM 67.8°F19.9°C 54.3°F12.4°C 62% Calm Calm -- 29.08 in984.8 mb 0.00 in0.0 mm 0.00 in/hr0.0 mm/hr 0.00 in0.0 mm
12:31 AM 67.8°F19.9°C 54.3°F12.4°C 62% Calm Calm -- 29.08 in984.8 mb 0.00 in0.0 mm 0.00 in/hr0.0 mm/hr 0.00 in0.0 mm
12:30 AM 67.8°F19.9°C 54.3°F12.4°C 62% Calm Calm -- 29.08 in984.8 mb 0.00 in0.0 mm 0.00 in/hr0.0 mm/hr 0.00 in0.0 mm
12:29 AM 67.8°F19.9°C 54.3°F12.4°C 62% Calm Calm -- 29.08 in984.8 mb 0.00 in0.0 mm 0.00 in/hr0.0 mm/hr 0.00 in0.0 mm
12:28 AM 67.8°F19.9°C 54.3°F12.4°C 62% Calm Calm -- 29.08 in984.8 mb 0.00 in0.0 mm 0.00 in/hr0.0 mm/hr 0.00 in0.0 mm
12:27 AM 68.2°F20.1°C 54.6°F12.6°C 62% Calm Calm -- 29.08 in984.8 mb 0.00 in0.0 mm 0.00 in/hr0.0 mm/hr 0.00 in0.0 mm
12:26 AM 68.2°F20.1°C 54.6°F12.6°C 62% Calm Calm -- 29.08 in984.8 mb 0.00 in0.0 mm 0.00 in/hr0.0 mm/hr 0.00 in0.0 mm
12:25 AM 68.2°F20.1°C 54.6°F12.6°C 62% Calm Calm -- 29.08 in984.8 mb 0.00 in0.0 mm 0.00 in/hr0.0 mm/hr 0.00 in0.0 mm
12:24 AM 68.2°F20.1°C 54.6°F12.6°C 62% Calm Calm -- 29.08 in984.8 mb 0.00 in0.0 mm 0.00 in/hr0.0 mm/hr 0.00 in0.0 mm
12:23 AM 68.2°F20.1°C 54.6°F12.6°C 62% Calm Calm -- 29.08 in984.8 mb 0.00 in0.0 mm 0.00 in/hr0.0 mm/hr 0.00 in0.0 mm
12:22 AM 68.2°F20.1°C 54.6°F12.6°C 62% Calm Calm -- 29.08 in984.8 mb 0.00 in0.0 mm 0.00 in/hr0.0 mm/hr 0.00 in0.0 mm
12:21 AM 68.2°F20.1°C 54.6°F12.6°C 62% Calm Calm -- 29.08 in984.8 mb 0.00 in0.0 mm 0.00 in/hr0.0 mm/hr 0.00 in0.0 mm
12:20 AM 68.2°F20.1°C 54.6°F12.6°C 62% Calm Calm -- 29.07 in984.4 mb 0.00 in0.0 mm 0.00 in/hr0.0 mm/hr 0.00 in0.0 mm
12:19 AM 68.2°F20.1°C 54.6°F12.6°C 62% Calm Calm -- 29.08 in984.8 mb 0.00 in0.0 mm 0.00 in/hr0.0 mm/hr 0.00 in0.0 mm
12:18 AM 68.4°F20.2°C 54.8°F12.7°C 62% Calm Calm -- 29.07 in984.4 mb 0.00 in0.0 mm 0.00 in/hr0.0 mm/hr 0.00 in0.0 mm
12:17 AM 68.4°F20.2°C 54.8°F12.7°C 62% Calm Calm -- 29.07 in984.4 mb 0.00 in0.0 mm 0.00 in/hr0.0 mm/hr 0.00 in0.0 mm
12:16 AM 68.4°F20.2°C 54.8°F12.7°C 62% Calm Calm -- 29.08 in984.8 mb 0.00 in0.0 mm 0.00 in/hr0.0 mm/hr 0.00 in0.0 mm
12:15 AM 68.4°F20.2°C 54.8°F12.7°C 62% Calm Calm -- 29.07 in984.4 mb 0.00 in0.0 mm 0.00 in/hr0.0 mm/hr 0.00 in0.0 mm
12:14 AM 68.5°F20.3°C 55.0°F12.8°C 62% Calm Calm -- 29.07 in984.4 mb 0.00 in0.0 mm 0.00 in/hr0.0 mm/hr 0.00 in0.0 mm
12:13 AM 68.5°F20.3°C 55.0°F12.8°C 62% Calm Calm -- 29.08 in984.8 mb 0.00 in0.0 mm 0.00 in/hr0.0 mm/hr 0.00 in0.0 mm
12:12 AM 68.5°F20.3°C 55.0°F12.8°C 62% Calm Calm -- 29.07 in984.4 mb 0.00 in0.0 mm 0.00 in/hr0.0 mm/hr 0.00 in0.0 mm
12:11 AM 68.5°F20.3°C 55.0°F12.8°C 62% Calm Calm -- 29.08 in984.8 mb 0.00 in0.0 mm 0.00 in/hr0.0 mm/hr 0.00 in0.0 mm
12:10 AM 68.5°F20.3°C 55.0°F12.8°C 62% Calm Calm -- 29.08 in984.8 mb 0.00 in0.0 mm 0.00 in/hr0.0 mm/hr 0.00 in0.0 mm
12:09 AM 68.5°F20.3°C 55.0°F12.8°C 62% Calm Calm -- 29.08 in984.8 mb 0.00 in0.0 mm 0.00 in/hr0.0 mm/hr 0.00 in0.0 mm
12:08 AM 68.7°F20.4°C 55.2°F12.9°C 62% Calm Calm -- 29.08 in984.8 mb 0.00 in0.0 mm 0.00 in/hr0.0 mm/hr 0.00 in0.0 mm
12:07 AM 68.7°F20.4°C 55.2°F12.9°C 62% Calm Calm -- 29.08 in984.8 mb 0.00 in0.0 mm 0.00 in/hr0.0 mm/hr 0.00 in0.0 mm
12:06 AM 68.7°F20.4°C 55.2°F12.9°C 62% Calm Calm -- 29.08 in984.8 mb 0.00 in0.0 mm 0.00 in/hr0.0 mm/hr 0.00 in0.0 mm
12:05 AM 68.7°F20.4°C 55.6°F13.1°C 63% Calm Calm -- 29.07 in984.4 mb 0.00 in0.0 mm 0.00 in/hr0.0 mm/hr 0.00 in0.0 mm
12:04 AM 68.9°F20.5°C 55.8°F13.2°C 63% Calm Calm -- 29.08 in984.8 mb 0.00 in0.0 mm 0.00 in/hr0.0 mm/hr 0.00 in0.0 mm
12:00 AM 69.1°F20.6°C 55.5°F13.1°C 62% Calm Calm -- 29.08 in984.8 mb 0.00 in0.0 mm 0.00 in/hr0.0 mm/hr 0.00 in0.0 mm